PWSweather.com
Personal Weather Stations
Station Observations
KNJMONTV22
Montville, NJ 07045

Montville, NJ 07045

Lat: 40.912651, Lon: -74.35162209999999

Elevation: 318

Station Type: Davis Vantage Pro2

High Low Average
Temperature 39.7°F4.3°C 26.2°F-3.2°C 33.8°F1.0°C
Dew Point 26.2°F-3.2°C 1.2°F-17.1°C 10.1°F-12.2°C
Winds 6.9 mph 11.1 kmh 0.9 mph 1.4 kmh 3.0 mph NE4.8 kmh NE
Wind Gusts 18.0 mph29.0 kmh 2.9 mph4.7 kmh 10.0 mph16.1 kmh
Humidity 66% 20% 39%
Pressure 30.49 in1032.5 mb 30.26 in1024.7 mb -
Precipitation 0.00 in0.0 mm - -
Hour Temp Dew Point Humidity Winds Wind Gusts Pressure Precip Precip Rate Daily Precip Total
12:00 AM 38.3°F3.5°C 26.0°F-3.3°C 61% 0.9 mph NE1.4 kmh NE 9.0 mph14.5 kmh 30.26 in1024.7 mb 0.00 in0.0 mm 0.00 in0.0 mm 0.00 in0.0 mm
12:01 AM 38.3°F3.5°C 26.0°F-3.3°C 61% 0.9 mph NE1.4 kmh NE 9.0 mph14.5 kmh 30.26 in1024.7 mb 0.00 in0.0 mm 0.00 in0.0 mm 0.00 in0.0 mm
12:02 AM 38.5°F3.6°C 26.2°F-3.2°C 61% 2.0 mph NE3.2 kmh NE 9.0 mph14.5 kmh 30.26 in1024.7 mb 0.00 in0.0 mm 0.00 in0.0 mm 0.00 in0.0 mm
12:03 AM 38.3°F3.5°C 26.0°F-3.3°C 61% 2.0 mph ESE3.2 kmh ESE 9.0 mph14.5 kmh 30.26 in1024.7 mb 0.00 in0.0 mm 0.00 in0.0 mm 0.00 in0.0 mm
12:04 AM 38.3°F3.5°C 26.0°F-3.3°C 61% 2.0 mph ESE3.2 kmh ESE 9.0 mph14.5 kmh 30.26 in1024.7 mb 0.00 in0.0 mm 0.00 in0.0 mm 0.00 in0.0 mm
12:05 AM 38.3°F3.5°C 26.0°F-3.3°C 61% 2.0 mph E3.2 kmh E 9.0 mph14.5 kmh 30.26 in1024.7 mb 0.00 in0.0 mm 0.00 in0.0 mm 0.00 in0.0 mm
12:06 AM 38.3°F3.5°C 26.0°F-3.3°C 61% 2.0 mph E3.2 kmh E 9.0 mph14.5 kmh 30.26 in1024.7 mb 0.00 in0.0 mm 0.00 in0.0 mm 0.00 in0.0 mm
12:07 AM 38.3°F3.5°C 26.0°F-3.3°C 61% 2.0 mph NE3.2 kmh NE 9.0 mph14.5 kmh 30.26 in1024.7 mb 0.00 in0.0 mm 0.00 in0.0 mm 0.00 in0.0 mm
12:08 AM 38.3°F3.5°C 26.0°F-3.3°C 61% 2.0 mph NE3.2 kmh NE 6.9 mph11.1 kmh 30.27 in1025.1 mb 0.00 in0.0 mm 0.00 in0.0 mm 0.00 in0.0 mm
12:09 AM 38.3°F3.5°C 26.0°F-3.3°C 61% 2.0 mph NE3.2 kmh NE 6.9 mph11.1 kmh 30.27 in1025.1 mb 0.00 in0.0 mm 0.00 in0.0 mm 0.00 in0.0 mm
12:10 AM 38.3°F3.5°C 26.0°F-3.3°C 61% 2.0 mph NE3.2 kmh NE 6.9 mph11.1 kmh 30.26 in1024.7 mb 0.00 in0.0 mm 0.00 in0.0 mm 0.00 in0.0 mm
12:11 AM 38.3°F3.5°C 26.0°F-3.3°C 61% 2.0 mph NE3.2 kmh NE 6.0 mph9.7 kmh 30.27 in1025.1 mb 0.00 in0.0 mm 0.00 in0.0 mm 0.00 in0.0 mm
12:12 AM 38.1°F3.4°C 25.9°F-3.4°C 61% 0.9 mph NE1.4 kmh NE 6.0 mph9.7 kmh 30.27 in1025.1 mb 0.00 in0.0 mm 0.00 in0.0 mm 0.00 in0.0 mm
12:13 AM 38.1°F3.4°C 25.9°F-3.4°C 61% 0.9 mph NNE1.4 kmh NNE 6.0 mph9.7 kmh 30.27 in1025.1 mb 0.00 in0.0 mm 0.00 in0.0 mm 0.00 in0.0 mm
12:14 AM 38.1°F3.4°C 25.9°F-3.4°C 61% 0.9 mph NE1.4 kmh NE 6.0 mph9.7 kmh 30.27 in1025.1 mb 0.00 in0.0 mm 0.00 in0.0 mm 0.00 in0.0 mm
12:15 AM 38.1°F3.4°C 25.9°F-3.4°C 61% 0.9 mph NE1.4 kmh NE 8.9 mph14.3 kmh 30.26 in1024.7 mb 0.00 in0.0 mm 0.00 in0.0 mm 0.00 in0.0 mm
12:16 AM 38.1°F3.4°C 25.9°F-3.4°C 61% 0.9 mph NNE1.4 kmh NNE 8.9 mph14.3 kmh 30.27 in1025.1 mb 0.00 in0.0 mm 0.00 in0.0 mm 0.00 in0.0 mm
12:17 AM 38.1°F3.4°C 25.9°F-3.4°C 61% 0.9 mph NE1.4 kmh NE 8.9 mph14.3 kmh 30.26 in1024.7 mb 0.00 in0.0 mm 0.00 in0.0 mm 0.00 in0.0 mm
12:18 AM 38.1°F3.4°C 25.9°F-3.4°C 61% 0.9 mph NE1.4 kmh NE 13.0 mph20.9 kmh 30.26 in1024.7 mb 0.00 in0.0 mm 0.00 in0.0 mm 0.00 in0.0 mm
12:19 AM 37.9°F3.3°C 25.7°F-3.5°C 61% 2.0 mph E3.2 kmh E 13.0 mph20.9 kmh 30.26 in1024.7 mb 0.00 in0.0 mm 0.00 in0.0 mm 0.00 in0.0 mm
12:20 AM 38.1°F3.4°C 25.9°F-3.4°C 61% 2.0 mph E3.2 kmh E 13.0 mph20.9 kmh 30.27 in1025.1 mb 0.00 in0.0 mm 0.00 in0.0 mm 0.00 in0.0 mm
12:21 AM 38.1°F3.4°C 25.9°F-3.4°C 61% 2.0 mph E3.2 kmh E 13.0 mph20.9 kmh 30.27 in1025.1 mb 0.00 in0.0 mm 0.00 in0.0 mm 0.00 in0.0 mm
12:22 AM 37.9°F3.3°C 25.7°F-3.5°C 61% 2.0 mph E3.2 kmh E 13.0 mph20.9 kmh 30.27 in1025.1 mb 0.00 in0.0 mm 0.00 in0.0 mm 0.00 in0.0 mm
12:23 AM 37.9°F3.3°C 26.1°F-3.3°C 62% 2.0 mph E3.2 kmh E 13.0 mph20.9 kmh 30.26 in1024.7 mb 0.00 in0.0 mm 0.00 in0.0 mm 0.00 in0.0 mm
12:24 AM 37.9°F3.3°C 26.1°F-3.3°C 62% 2.0 mph E3.2 kmh E 13.0 mph20.9 kmh 30.26 in1024.7 mb 0.00 in0.0 mm 0.00 in0.0 mm 0.00 in0.0 mm
12:25 AM 37.9°F3.3°C 26.1°F-3.3°C 62% 2.0 mph E3.2 kmh E 13.0 mph20.9 kmh 30.27 in1025.1 mb 0.00 in0.0 mm 0.00 in0.0 mm 0.00 in0.0 mm
12:26 AM 37.9°F3.3°C 26.1°F-3.3°C 62% 2.0 mph E3.2 kmh E 13.0 mph20.9 kmh 30.27 in1025.1 mb 0.00 in0.0 mm 0.00 in0.0 mm 0.00 in0.0 mm
12:27 AM 37.8°F3.2°C 26.0°F-3.3°C 62% 2.0 mph ESE3.2 kmh ESE 13.0 mph20.9 kmh 30.26 in1024.7 mb 0.00 in0.0 mm 0.00 in0.0 mm 0.00 in0.0 mm
12:28 AM 37.9°F3.3°C 26.1°F-3.3°C 62% 2.0 mph NE3.2 kmh NE 13.0 mph20.9 kmh 30.27 in1025.1 mb 0.00 in0.0 mm 0.00 in0.0 mm 0.00 in0.0 mm
12:29 AM 37.9°F3.3°C 26.1°F-3.3°C 62% 2.0 mph E3.2 kmh E 13.0 mph20.9 kmh 30.27 in1025.1 mb 0.00 in0.0 mm 0.00 in0.0 mm 0.00 in0.0 mm
12:30 AM 37.9°F3.3°C 26.1°F-3.3°C 62% 2.0 mph NNE3.2 kmh NNE 13.0 mph20.9 kmh 30.26 in1024.7 mb 0.00 in0.0 mm 0.00 in0.0 mm 0.00 in0.0 mm
12:31 AM 37.9°F3.3°C 26.1°F-3.3°C 62% 2.0 mph NE3.2 kmh NE 13.0 mph20.9 kmh 30.27 in1025.1 mb 0.00 in0.0 mm 0.00 in0.0 mm 0.00 in0.0 mm
12:32 AM 37.9°F3.3°C 26.1°F-3.3°C 62% 2.0 mph NE3.2 kmh NE 13.0 mph20.9 kmh 30.27 in1025.1 mb 0.00 in0.0 mm 0.00 in0.0 mm 0.00 in0.0 mm
12:33 AM 37.9°F3.3°C 26.1°F-3.3°C 62% 2.0 mph E3.2 kmh E 13.0 mph20.9 kmh 30.26 in1024.7 mb 0.00 in0.0 mm 0.00 in0.0 mm 0.00 in0.0 mm
12:34 AM 37.9°F3.3°C 26.1°F-3.3°C 62% 2.0 mph SW3.2 kmh SW 13.0 mph20.9 kmh 30.26 in1024.7 mb 0.00 in0.0 mm 0.00 in0.0 mm 0.00 in0.0 mm
12:35 AM 37.9°F3.3°C 26.1°F-3.3°C 62% 2.0 mph SW3.2 kmh SW 13.0 mph20.9 kmh 30.26 in1024.7 mb 0.00 in0.0 mm 0.00 in0.0 mm 0.00 in0.0 mm
12:36 AM 37.8°F3.2°C 26.0°F-3.3°C 62% 2.0 mph NE3.2 kmh NE 13.0 mph20.9 kmh 30.26 in1024.7 mb 0.00 in0.0 mm 0.00 in0.0 mm 0.00 in0.0 mm
12:37 AM 37.8°F3.2°C 26.0°F-3.3°C 62% 2.0 mph NE3.2 kmh NE 13.0 mph20.9 kmh 30.26 in1024.7 mb 0.00 in0.0 mm 0.00 in0.0 mm 0.00 in0.0 mm
12:38 AM 37.9°F3.3°C 26.1°F-3.3°C 62% 2.0 mph ENE3.2 kmh ENE 4.9 mph7.9 kmh 30.26 in1024.7 mb 0.00 in0.0 mm 0.00 in0.0 mm 0.00 in0.0 mm
12:39 AM 37.9°F3.3°C 26.1°F-3.3°C 62% 2.0 mph ENE3.2 kmh ENE 10.1 mph16.3 kmh 30.26 in1024.7 mb 0.00 in0.0 mm 0.00 in0.0 mm 0.00 in0.0 mm
12:40 AM 37.9°F3.3°C 26.1°F-3.3°C 62% 2.0 mph E3.2 kmh E 10.1 mph16.3 kmh 30.26 in1024.7 mb 0.00 in0.0 mm 0.00 in0.0 mm 0.00 in0.0 mm
12:41 AM 37.8°F3.2°C 26.0°F-3.3°C 62% 2.0 mph ENE3.2 kmh ENE 10.1 mph16.3 kmh 30.26 in1024.7 mb 0.00 in0.0 mm 0.00 in0.0 mm 0.00 in0.0 mm
12:42 AM 37.8°F3.2°C 26.0°F-3.3°C 62% 2.0 mph ENE3.2 kmh ENE 10.1 mph16.3 kmh 30.26 in1024.7 mb 0.00 in0.0 mm 0.00 in0.0 mm 0.00 in0.0 mm
12:43 AM 37.8°F3.2°C 26.0°F-3.3°C 62% 2.0 mph ENE3.2 kmh ENE 10.1 mph16.3 kmh 30.26 in1024.7 mb 0.00 in0.0 mm 0.00 in0.0 mm 0.00 in0.0 mm
12:44 AM 37.8°F3.2°C 26.0°F-3.3°C 62% 2.0 mph ENE3.2 kmh ENE 10.1 mph16.3 kmh 30.26 in1024.7 mb 0.00 in0.0 mm 0.00 in0.0 mm 0.00 in0.0 mm
12:45 AM 37.8°F3.2°C 26.0°F-3.3°C 62% 2.0 mph ENE3.2 kmh ENE 10.1 mph16.3 kmh 30.26 in1024.7 mb 0.00 in0.0 mm 0.00 in0.0 mm 0.00 in0.0 mm
12:46 AM 37.8°F3.2°C 26.0°F-3.3°C 62% 2.0 mph NNE3.2 kmh NNE 10.1 mph16.3 kmh 30.26 in1024.7 mb 0.00 in0.0 mm 0.00 in0.0 mm 0.00 in0.0 mm
12:47 AM 37.8°F3.2°C 26.0°F-3.3°C 62% 2.0 mph NNE3.2 kmh NNE 10.1 mph16.3 kmh 30.26 in1024.7 mb 0.00 in0.0 mm 0.00 in0.0 mm 0.00 in0.0 mm
12:48 AM 37.8°F3.2°C 26.0°F-3.3°C 62% 2.0 mph NE3.2 kmh NE 10.1 mph16.3 kmh 30.26 in1024.7 mb 0.00 in0.0 mm 0.00 in0.0 mm 0.00 in0.0 mm
12:49 AM 37.8°F3.2°C 26.0°F-3.3°C 62% 2.0 mph SSE3.2 kmh SSE 8.9 mph14.3 kmh 30.26 in1024.7 mb 0.00 in0.0 mm 0.00 in0.0 mm 0.00 in0.0 mm
12:50 AM 37.6°F3.1°C 25.8°F-3.4°C 62% 2.0 mph NNE3.2 kmh NNE 10.0 mph16.1 kmh 30.26 in1024.7 mb 0.00 in0.0 mm 0.00 in0.0 mm 0.00 in0.0 mm
12:51 AM 37.6°F3.1°C 25.8°F-3.4°C 62% 2.0 mph NE3.2 kmh NE 10.0 mph16.1 kmh 30.26 in1024.7 mb 0.00 in0.0 mm 0.00 in0.0 mm 0.00 in0.0 mm
12:52 AM 37.6°F3.1°C 25.8°F-3.4°C 62% 0.9 mph NE1.4 kmh NE 10.0 mph16.1 kmh 30.26 in1024.7 mb 0.00 in0.0 mm 0.00 in0.0 mm 0.00 in0.0 mm
12:53 AM 37.6°F3.1°C 25.8°F-3.4°C 62% 0.9 mph NE1.4 kmh NE 10.0 mph16.1 kmh 30.26 in1024.7 mb 0.00 in0.0 mm 0.00 in0.0 mm 0.00 in0.0 mm
12:54 AM 37.6°F3.1°C 25.8°F-3.4°C 62% 2.0 mph NE3.2 kmh NE 10.0 mph16.1 kmh 30.26 in1024.7 mb 0.00 in0.0 mm 0.00 in0.0 mm 0.00 in0.0 mm
12:55 AM 37.6°F3.1°C 25.8°F-3.4°C 62% 2.0 mph NE3.2 kmh NE 10.0 mph16.1 kmh 30.26 in1024.7 mb 0.00 in0.0 mm 0.00 in0.0 mm 0.00 in0.0 mm
12:56 AM 37.6°F3.1°C 25.8°F-3.4°C 62% 2.0 mph NE3.2 kmh NE 10.0 mph16.1 kmh 30.26 in1024.7 mb 0.00 in0.0 mm 0.00 in0.0 mm 0.00 in0.0 mm
12:57 AM 37.6°F3.1°C 25.8°F-3.4°C 62% 0.9 mph NE1.4 kmh NE 10.0 mph16.1 kmh 30.26 in1024.7 mb 0.00 in0.0 mm 0.00 in0.0 mm 0.00 in0.0 mm
12:58 AM 37.6°F3.1°C 25.8°F-3.4°C 62% 2.0 mph NE3.2 kmh NE 10.0 mph16.1 kmh 30.26 in1024.7 mb 0.00 in0.0 mm 0.00 in0.0 mm 0.00 in0.0 mm
12:59 AM 37.6°F3.1°C 26.2°F-3.2°C 63% 0.9 mph NE1.4 kmh NE 6.0 mph9.7 kmh 30.26 in1024.7 mb 0.00 in0.0 mm 0.00 in0.0 mm 0.00 in0.0 mm
01:00 AM 37.6°F3.1°C 25.8°F-3.4°C 62% 2.0 mph NE3.2 kmh NE 6.0 mph9.7 kmh 30.27 in1025.1 mb 0.00 in0.0 mm 0.00 in0.0 mm 0.00 in0.0 mm
01:01 AM 37.6°F3.1°C 26.2°F-3.2°C 63% 2.0 mph ESE3.2 kmh ESE 6.0 mph9.7 kmh 30.27 in1025.1 mb 0.00 in0.0 mm 0.00 in0.0 mm 0.00 in0.0 mm
01:02 AM 37.6°F3.1°C 26.2°F-3.2°C 63% 2.0 mph ESE3.2 kmh ESE 6.0 mph9.7 kmh 30.27 in1025.1 mb 0.00 in0.0 mm 0.00 in0.0 mm 0.00 in0.0 mm
01:03 AM 37.6°F3.1°C 26.2°F-3.2°C 63% 0.9 mph NE1.4 kmh NE 6.0 mph9.7 kmh 30.27 in1025.1 mb 0.00 in0.0 mm 0.00 in0.0 mm 0.00 in0.0 mm
01:04 AM 37.6°F3.1°C 26.2°F-3.2°C 63% 0.9 mph NE1.4 kmh NE 6.0 mph9.7 kmh 30.27 in1025.1 mb 0.00 in0.0 mm 0.00 in0.0 mm 0.00 in0.0 mm
01:05 AM 37.6°F3.1°C 26.2°F-3.2°C 63% 0.9 mph NE1.4 kmh NE 6.0 mph9.7 kmh 30.27 in1025.1 mb 0.00 in0.0 mm 0.00 in0.0 mm 0.00 in0.0 mm
01:06 AM 37.6°F3.1°C 26.2°F-3.2°C 63% 2.0 mph NE3.2 kmh NE 6.0 mph9.7 kmh 30.27 in1025.1 mb 0.00 in0.0 mm 0.00 in0.0 mm 0.00 in0.0 mm
01:07 AM 37.4°F3.0°C 26.0°F-3.3°C 63% 2.0 mph NE3.2 kmh NE 6.0 mph9.7 kmh 30.27 in1025.1 mb 0.00 in0.0 mm 0.00 in0.0 mm 0.00 in0.0 mm
01:08 AM 37.6°F3.1°C 26.2°F-3.2°C 63% 2.0 mph NE3.2 kmh NE 6.0 mph9.7 kmh 30.27 in1025.1 mb 0.00 in0.0 mm 0.00 in0.0 mm 0.00 in0.0 mm
01:09 AM 37.6°F3.1°C 26.2°F-3.2°C 63% 0.9 mph NE1.4 kmh NE 6.0 mph9.7 kmh 30.27 in1025.1 mb 0.00 in0.0 mm 0.00 in0.0 mm 0.00 in0.0 mm
01:10 AM 37.6°F3.1°C 26.2°F-3.2°C 63% 0.9 mph NE1.4 kmh NE 6.0 mph9.7 kmh 30.27 in1025.1 mb 0.00 in0.0 mm 0.00 in0.0 mm 0.00 in0.0 mm
01:11 AM 37.6°F3.1°C 26.2°F-3.2°C 63% 0.9 mph NE1.4 kmh NE 4.0 mph6.4 kmh 30.27 in1025.1 mb 0.00 in0.0 mm 0.00 in0.0 mm 0.00 in0.0 mm
01:12 AM 37.4°F3.0°C 26.0°F-3.3°C 63% 0.9 mph NE1.4 kmh NE 4.0 mph6.4 kmh 30.27 in1025.1 mb 0.00 in0.0 mm 0.00 in0.0 mm 0.00 in0.0 mm
01:13 AM 37.4°F3.0°C 26.0°F-3.3°C 63% 0.9 mph ENE1.4 kmh ENE 4.0 mph6.4 kmh 30.27 in1025.1 mb 0.00 in0.0 mm 0.00 in0.0 mm 0.00 in0.0 mm
01:14 AM 37.2°F2.9°C 25.8°F-3.4°C 63% 0.9 mph ENE1.4 kmh ENE 4.0 mph6.4 kmh 30.27 in1025.1 mb 0.00 in0.0 mm 0.00 in0.0 mm 0.00 in0.0 mm
01:15 AM 37.2°F2.9°C 25.8°F-3.4°C 63% 0.9 mph ENE1.4 kmh ENE 4.0 mph6.4 kmh 30.27 in1025.1 mb 0.00 in0.0 mm 0.00 in0.0 mm 0.00 in0.0 mm
01:16 AM 37.2°F2.9°C 25.8°F-3.4°C 63% 0.9 mph ENE1.4 kmh ENE 4.0 mph6.4 kmh 30.27 in1025.1 mb 0.00 in0.0 mm 0.00 in0.0 mm 0.00 in0.0 mm
01:18 AM 37.2°F2.9°C 25.8°F-3.4°C 63% 0.9 mph ENE1.4 kmh ENE 4.0 mph6.4 kmh 30.27 in1025.1 mb 0.00 in0.0 mm 0.00 in0.0 mm 0.00 in0.0 mm
01:20 AM 37.2°F2.9°C 25.8°F-3.4°C 63% 0.9 mph NE1.4 kmh NE 4.0 mph6.4 kmh 30.27 in1025.1 mb 0.00 in0.0 mm 0.00 in0.0 mm 0.00 in0.0 mm
01:21 AM 37.2°F2.9°C 25.8°F-3.4°C 63% 0.9 mph NE1.4 kmh NE 4.0 mph6.4 kmh 30.27 in1025.1 mb 0.00 in0.0 mm 0.00 in0.0 mm 0.00 in0.0 mm
01:22 AM 37.2°F2.9°C 25.8°F-3.4°C 63% 0.9 mph E1.4 kmh E 4.0 mph6.4 kmh 30.27 in1025.1 mb 0.00 in0.0 mm 0.00 in0.0 mm 0.00 in0.0 mm
01:23 AM 37.2°F2.9°C 25.8°F-3.4°C 63% 0.9 mph E1.4 kmh E 4.0 mph6.4 kmh 30.27 in1025.1 mb 0.00 in0.0 mm 0.00 in0.0 mm 0.00 in0.0 mm
01:24 AM 37.2°F2.9°C 25.8°F-3.4°C 63% 0.9 mph ENE1.4 kmh ENE 4.0 mph6.4 kmh 30.27 in1025.1 mb 0.00 in0.0 mm 0.00 in0.0 mm 0.00 in0.0 mm
01:25 AM 37.2°F2.9°C 25.8°F-3.4°C 63% 0.9 mph NE1.4 kmh NE 4.0 mph6.4 kmh 30.27 in1025.1 mb 0.00 in0.0 mm 0.00 in0.0 mm 0.00 in0.0 mm
01:26 AM 37.2°F2.9°C 25.8°F-3.4°C 63% 0.9 mph NE1.4 kmh NE 4.0 mph6.4 kmh 30.27 in1025.1 mb 0.00 in0.0 mm 0.00 in0.0 mm 0.00 in0.0 mm
01:28 AM 37.2°F2.9°C 25.8°F-3.4°C 63% 2.0 mph NE3.2 kmh NE 4.0 mph6.4 kmh 30.27 in1025.1 mb 0.00 in0.0 mm 0.00 in0.0 mm 0.00 in0.0 mm
01:29 AM 37.2°F2.9°C 25.8°F-3.4°C 63% 2.0 mph NE3.2 kmh NE 8.1 mph13.0 kmh 30.27 in1025.1 mb 0.00 in0.0 mm 0.00 in0.0 mm 0.00 in0.0 mm
01:30 AM 37.2°F2.9°C 25.8°F-3.4°C 63% 2.0 mph NE3.2 kmh NE 8.1 mph13.0 kmh 30.27 in1025.1 mb 0.00 in0.0 mm 0.00 in0.0 mm 0.00 in0.0 mm
01:31 AM 37.2°F2.9°C 25.8°F-3.4°C 63% 2.0 mph NE3.2 kmh NE 8.1 mph13.0 kmh 30.27 in1025.1 mb 0.00 in0.0 mm 0.00 in0.0 mm 0.00 in0.0 mm
01:32 AM 37.2°F2.9°C 25.8°F-3.4°C 63% 2.0 mph E3.2 kmh E 8.1 mph13.0 kmh 30.27 in1025.1 mb 0.00 in0.0 mm 0.00 in0.0 mm 0.00 in0.0 mm
01:33 AM 37.2°F2.9°C 25.8°F-3.4°C 63% 2.0 mph E3.2 kmh E 8.1 mph13.0 kmh 30.27 in1025.1 mb 0.00 in0.0 mm 0.00 in0.0 mm 0.00 in0.0 mm
01:34 AM 37.2°F2.9°C 25.8°F-3.4°C 63% 2.0 mph E3.2 kmh E 8.1 mph13.0 kmh 30.27 in1025.1 mb 0.00 in0.0 mm 0.00 in0.0 mm 0.00 in0.0 mm
03:52 AM 36.1°F2.3°C 25.5°F-3.6°C 65% 2.0 mph NE3.2 kmh NE 4.0 mph6.4 kmh 30.30 in1026.1 mb 0.00 in0.0 mm 0.00 in0.0 mm 0.00 in0.0 mm
03:53 AM 36.1°F2.3°C 25.5°F-3.6°C 65% 2.0 mph NE3.2 kmh NE 4.0 mph6.4 kmh 30.30 in1026.1 mb 0.00 in0.0 mm 0.00 in0.0 mm 0.00 in0.0 mm
03:54 AM 36.1°F2.3°C 25.5°F-3.6°C 65% 2.0 mph NE3.2 kmh NE 4.0 mph6.4 kmh 30.30 in1026.1 mb 0.00 in0.0 mm 0.00 in0.0 mm 0.00 in0.0 mm
03:55 AM 36.1°F2.3°C 25.5°F-3.6°C 65% 2.0 mph NE3.2 kmh NE 4.0 mph6.4 kmh 30.30 in1026.1 mb 0.00 in0.0 mm 0.00 in0.0 mm 0.00 in0.0 mm
03:56 AM 36.1°F2.3°C 25.5°F-3.6°C 65% 2.0 mph NE3.2 kmh NE 4.0 mph6.4 kmh 30.30 in1026.1 mb 0.00 in0.0 mm 0.00 in0.0 mm 0.00 in0.0 mm
03:57 AM 36.3°F2.4°C 25.7°F-3.5°C 65% 2.0 mph NE3.2 kmh NE 4.0 mph6.4 kmh 30.30 in1026.1 mb 0.00 in0.0 mm 0.00 in0.0 mm 0.00 in0.0 mm
03:58 AM 36.3°F2.4°C 25.7°F-3.5°C 65% 2.0 mph NE3.2 kmh NE 4.0 mph6.4 kmh 30.30 in1026.1 mb 0.00 in0.0 mm 0.00 in0.0 mm 0.00 in0.0 mm
03:59 AM 36.3°F2.4°C 25.7°F-3.5°C 65% 2.0 mph NE3.2 kmh NE 4.0 mph6.4 kmh 30.30 in1026.1 mb 0.00 in0.0 mm 0.00 in0.0 mm 0.00 in0.0 mm
04:00 AM 36.3°F2.4°C 25.7°F-3.5°C 65% 2.0 mph NE3.2 kmh NE 4.0 mph6.4 kmh 30.30 in1026.1 mb 0.00 in0.0 mm 0.00 in0.0 mm 0.00 in0.0 mm
04:01 AM 36.3°F2.4°C 25.7°F-3.5°C 65% 2.0 mph NE3.2 kmh NE 4.0 mph6.4 kmh 30.30 in1026.1 mb 0.00 in0.0 mm 0.00 in0.0 mm 0.00 in0.0 mm
04:02 AM 36.3°F2.4°C 25.7°F-3.5°C 65% 2.0 mph NE3.2 kmh NE 4.0 mph6.4 kmh 30.30 in1026.1 mb 0.00 in0.0 mm 0.00 in0.0 mm 0.00 in0.0 mm
04:03 AM 36.3°F2.4°C 25.7°F-3.5°C 65% 0.9 mph NE1.4 kmh NE 4.0 mph6.4 kmh 30.30 in1026.1 mb 0.00 in0.0 mm 0.00 in0.0 mm 0.00 in0.0 mm
04:04 AM 36.3°F2.4°C 25.7°F-3.5°C 65% 0.9 mph NE1.4 kmh NE 4.0 mph6.4 kmh 30.30 in1026.1 mb 0.00 in0.0 mm 0.00 in0.0 mm 0.00 in0.0 mm
04:05 AM 36.3°F2.4°C 25.7°F-3.5°C 65% 0.9 mph NE1.4 kmh NE 4.9 mph7.9 kmh 30.30 in1026.1 mb 0.00 in0.0 mm 0.00 in0.0 mm 0.00 in0.0 mm
04:06 AM 36.3°F2.4°C 25.7°F-3.5°C 65% 0.9 mph NE1.4 kmh NE 6.0 mph9.7 kmh 30.30 in1026.1 mb 0.00 in0.0 mm 0.00 in0.0 mm 0.00 in0.0 mm
04:07 AM 36.3°F2.4°C 25.7°F-3.5°C 65% 0.9 mph NE1.4 kmh NE 6.0 mph9.7 kmh 30.30 in1026.1 mb 0.00 in0.0 mm 0.00 in0.0 mm 0.00 in0.0 mm
04:08 AM 36.5°F2.5°C 25.9°F-3.4°C 65% 2.0 mph NE3.2 kmh NE 6.0 mph9.7 kmh 30.30 in1026.1 mb 0.00 in0.0 mm 0.00 in0.0 mm 0.00 in0.0 mm
04:09 AM 36.5°F2.5°C 25.9°F-3.4°C 65% 2.0 mph NE3.2 kmh NE 6.0 mph9.7 kmh 30.31 in1026.4 mb 0.00 in0.0 mm 0.00 in0.0 mm 0.00 in0.0 mm
04:10 AM 36.5°F2.5°C 25.9°F-3.4°C 65% 2.0 mph NE3.2 kmh NE 6.0 mph9.7 kmh 30.30 in1026.1 mb 0.00 in0.0 mm 0.00 in0.0 mm 0.00 in0.0 mm
04:11 AM 36.5°F2.5°C 25.9°F-3.4°C 65% 2.0 mph NE3.2 kmh NE 6.0 mph9.7 kmh 30.31 in1026.4 mb 0.00 in0.0 mm 0.00 in0.0 mm 0.00 in0.0 mm
04:12 AM 36.5°F2.5°C 25.9°F-3.4°C 65% 2.0 mph NE3.2 kmh NE 6.0 mph9.7 kmh 30.31 in1026.4 mb 0.00 in0.0 mm 0.00 in0.0 mm 0.00 in0.0 mm
04:13 AM 36.5°F2.5°C 25.9°F-3.4°C 65% 2.0 mph NE3.2 kmh NE 6.0 mph9.7 kmh 30.31 in1026.4 mb 0.00 in0.0 mm 0.00 in0.0 mm 0.00 in0.0 mm
04:14 AM 36.5°F2.5°C 25.9°F-3.4°C 65% 2.0 mph NE3.2 kmh NE 6.0 mph9.7 kmh 30.31 in1026.4 mb 0.00 in0.0 mm 0.00 in0.0 mm 0.00 in0.0 mm
04:15 AM 36.5°F2.5°C 25.9°F-3.4°C 65% 2.0 mph ENE3.2 kmh ENE 4.9 mph7.9 kmh 30.30 in1026.1 mb 0.00 in0.0 mm 0.00 in0.0 mm 0.00 in0.0 mm
04:16 AM 36.5°F2.5°C 25.9°F-3.4°C 65% 2.0 mph ENE3.2 kmh ENE 4.9 mph7.9 kmh 30.30 in1026.1 mb 0.00 in0.0 mm 0.00 in0.0 mm 0.00 in0.0 mm
04:17 AM 36.5°F2.5°C 25.9°F-3.4°C 65% 0.9 mph ENE1.4 kmh ENE 4.9 mph7.9 kmh 30.30 in1026.1 mb 0.00 in0.0 mm 0.00 in0.0 mm 0.00 in0.0 mm
04:18 AM 36.5°F2.5°C 25.9°F-3.4°C 65% 0.9 mph ENE1.4 kmh ENE 4.9 mph7.9 kmh 30.31 in1026.4 mb 0.00 in0.0 mm 0.00 in0.0 mm 0.00 in0.0 mm
04:19 AM 36.5°F2.5°C 25.9°F-3.4°C 65% 0.9 mph ENE1.4 kmh ENE 2.9 mph4.7 kmh 30.31 in1026.4 mb 0.00 in0.0 mm 0.00 in0.0 mm 0.00 in0.0 mm
04:21 AM 36.3°F2.4°C 25.7°F-3.5°C 65% 0.9 mph ENE1.4 kmh ENE 2.9 mph4.7 kmh 30.31 in1026.4 mb 0.00 in0.0 mm 0.00 in0.0 mm 0.00 in0.0 mm
04:23 AM 36.3°F2.4°C 25.7°F-3.5°C 65% 0.9 mph ENE1.4 kmh ENE 4.0 mph6.4 kmh 30.31 in1026.4 mb 0.00 in0.0 mm 0.00 in0.0 mm 0.00 in0.0 mm
04:24 AM 36.3°F2.4°C 25.7°F-3.5°C 65% 0.9 mph ENE1.4 kmh ENE 4.0 mph6.4 kmh 30.31 in1026.4 mb 0.00 in0.0 mm 0.00 in0.0 mm 0.00 in0.0 mm
04:25 AM 36.3°F2.4°C 25.7°F-3.5°C 65% 0.9 mph NE1.4 kmh NE 4.0 mph6.4 kmh 30.31 in1026.4 mb 0.00 in0.0 mm 0.00 in0.0 mm 0.00 in0.0 mm
04:26 AM 36.3°F2.4°C 26.0°F-3.3°C 66% 0.9 mph NE1.4 kmh NE 4.0 mph6.4 kmh 30.32 in1026.8 mb 0.00 in0.0 mm 0.00 in0.0 mm 0.00 in0.0 mm
04:27 AM 36.3°F2.4°C 25.7°F-3.5°C 65% 0.9 mph ENE1.4 kmh ENE 4.0 mph6.4 kmh 30.31 in1026.4 mb 0.00 in0.0 mm 0.00 in0.0 mm 0.00 in0.0 mm
04:28 AM 36.3°F2.4°C 25.7°F-3.5°C 65% 0.9 mph NE1.4 kmh NE 4.0 mph6.4 kmh 30.31 in1026.4 mb 0.00 in0.0 mm 0.00 in0.0 mm 0.00 in0.0 mm
04:29 AM 36.3°F2.4°C 25.7°F-3.5°C 65% 0.9 mph NE1.4 kmh NE 4.0 mph6.4 kmh 30.32 in1026.8 mb 0.00 in0.0 mm 0.00 in0.0 mm 0.00 in0.0 mm
04:30 AM 36.3°F2.4°C 25.7°F-3.5°C 65% 0.9 mph ENE1.4 kmh ENE 5.0 mph8.0 kmh 30.32 in1026.8 mb 0.00 in0.0 mm 0.00 in0.0 mm 0.00 in0.0 mm
04:31 AM 36.5°F2.5°C 25.9°F-3.4°C 65% 2.0 mph NE3.2 kmh NE 11.0 mph17.7 kmh 30.32 in1026.8 mb 0.00 in0.0 mm 0.00 in0.0 mm 0.00 in0.0 mm
04:32 AM 36.5°F2.5°C 25.9°F-3.4°C 65% 2.0 mph NE3.2 kmh NE 11.0 mph17.7 kmh 30.32 in1026.8 mb 0.00 in0.0 mm 0.00 in0.0 mm 0.00 in0.0 mm
04:33 AM 36.5°F2.5°C 25.9°F-3.4°C 65% 2.9 mph NE4.7 kmh NE 11.0 mph17.7 kmh 30.32 in1026.8 mb 0.00 in0.0 mm 0.00 in0.0 mm 0.00 in0.0 mm
04:34 AM 36.7°F2.6°C 26.1°F-3.3°C 65% 2.9 mph NE4.7 kmh NE 11.0 mph17.7 kmh 30.32 in1026.8 mb 0.00 in0.0 mm 0.00 in0.0 mm 0.00 in0.0 mm
04:35 AM 36.7°F2.6°C 26.1°F-3.3°C 65% 2.9 mph ENE4.7 kmh ENE 11.0 mph17.7 kmh 30.32 in1026.8 mb 0.00 in0.0 mm 0.00 in0.0 mm 0.00 in0.0 mm
04:36 AM 36.7°F2.6°C 26.1°F-3.3°C 65% 2.9 mph ENE4.7 kmh ENE 11.0 mph17.7 kmh 30.32 in1026.8 mb 0.00 in0.0 mm 0.00 in0.0 mm 0.00 in0.0 mm
04:37 AM 36.7°F2.6°C 26.1°F-3.3°C 65% 4.0 mph ENE6.4 kmh ENE 11.0 mph17.7 kmh 30.32 in1026.8 mb 0.00 in0.0 mm 0.00 in0.0 mm 0.00 in0.0 mm
04:38 AM 36.7°F2.6°C 26.1°F-3.3°C 65% 4.0 mph E6.4 kmh E 11.0 mph17.7 kmh 30.32 in1026.8 mb 0.00 in0.0 mm 0.00 in0.0 mm 0.00 in0.0 mm
04:39 AM 36.7°F2.6°C 26.1°F-3.3°C 65% 4.0 mph E6.4 kmh E 11.0 mph17.7 kmh 30.32 in1026.8 mb 0.00 in0.0 mm 0.00 in0.0 mm 0.00 in0.0 mm
04:40 AM 36.7°F2.6°C 26.1°F-3.3°C 65% 4.0 mph NE6.4 kmh NE 11.0 mph17.7 kmh 30.32 in1026.8 mb 0.00 in0.0 mm 0.00 in0.0 mm 0.00 in0.0 mm
04:41 AM 36.7°F2.6°C 26.1°F-3.3°C 65% 4.0 mph E6.4 kmh E 11.0 mph17.7 kmh 30.32 in1026.8 mb 0.00 in0.0 mm 0.00 in0.0 mm 0.00 in0.0 mm
04:42 AM 36.7°F2.6°C 26.1°F-3.3°C 65% 4.0 mph NNE6.4 kmh NNE 10.1 mph16.3 kmh 30.32 in1026.8 mb 0.00 in0.0 mm 0.00 in0.0 mm 0.00 in0.0 mm
04:43 AM 36.7°F2.6°C 25.7°F-3.5°C 64% 2.9 mph NNE4.7 kmh NNE 11.0 mph17.7 kmh 30.32 in1026.8 mb 0.00 in0.0 mm 0.00 in0.0 mm 0.00 in0.0 mm
04:44 AM 36.7°F2.6°C 25.7°F-3.5°C 64% 4.0 mph E6.4 kmh E 11.0 mph17.7 kmh 30.32 in1026.8 mb 0.00 in0.0 mm 0.00 in0.0 mm 0.00 in0.0 mm
04:45 AM 36.7°F2.6°C 25.7°F-3.5°C 64% 4.0 mph ENE6.4 kmh ENE 11.0 mph17.7 kmh 30.32 in1026.8 mb 0.00 in0.0 mm 0.00 in0.0 mm 0.00 in0.0 mm
04:46 AM 36.7°F2.6°C 25.7°F-3.5°C 64% 4.0 mph ENE6.4 kmh ENE 11.0 mph17.7 kmh 30.32 in1026.8 mb 0.00 in0.0 mm 0.00 in0.0 mm 0.00 in0.0 mm
04:47 AM 36.7°F2.6°C 25.7°F-3.5°C 64% 4.0 mph N6.4 kmh N 12.1 mph19.5 kmh 30.33 in1027.1 mb 0.00 in0.0 mm 0.00 in0.0 mm 0.00 in0.0 mm
04:48 AM 36.7°F2.6°C 25.3°F-3.7°C 63% 4.0 mph NE6.4 kmh NE 12.1 mph19.5 kmh 30.33 in1027.1 mb 0.00 in0.0 mm 0.00 in0.0 mm 0.00 in0.0 mm
04:49 AM 36.7°F2.6°C 25.3°F-3.7°C 63% 4.0 mph ENE6.4 kmh ENE 12.1 mph19.5 kmh 30.33 in1027.1 mb 0.00 in0.0 mm 0.00 in0.0 mm 0.00 in0.0 mm
04:50 AM 36.7°F2.6°C 25.3°F-3.7°C 63% 4.0 mph NE6.4 kmh NE 12.1 mph19.5 kmh 30.33 in1027.1 mb 0.00 in0.0 mm 0.00 in0.0 mm 0.00 in0.0 mm
04:51 AM 36.7°F2.6°C 25.3°F-3.7°C 63% 4.9 mph E7.9 kmh E 12.1 mph19.5 kmh 30.33 in1027.1 mb 0.00 in0.0 mm 0.00 in0.0 mm 0.00 in0.0 mm
04:52 AM 36.7°F2.6°C 25.3°F-3.7°C 63% 4.9 mph NE7.9 kmh NE 12.1 mph19.5 kmh 30.33 in1027.1 mb 0.00 in0.0 mm 0.00 in0.0 mm 0.00 in0.0 mm
04:53 AM 36.7°F2.6°C 25.3°F-3.7°C 63% 4.9 mph NE7.9 kmh NE 12.1 mph19.5 kmh 30.33 in1027.1 mb 0.00 in0.0 mm 0.00 in0.0 mm 0.00 in0.0 mm
04:54 AM 36.7°F2.6°C 24.9°F-3.9°C 62% 4.9 mph NE7.9 kmh NE 12.1 mph19.5 kmh 30.33 in1027.1 mb 0.00 in0.0 mm 0.00 in0.0 mm 0.00 in0.0 mm
04:55 AM 36.7°F2.6°C 24.9°F-3.9°C 62% 4.9 mph NNE7.9 kmh NNE 12.1 mph19.5 kmh 30.33 in1027.1 mb 0.00 in0.0 mm 0.00 in0.0 mm 0.00 in0.0 mm
04:56 AM 36.7°F2.6°C 24.9°F-3.9°C 62% 4.9 mph E7.9 kmh E 12.1 mph19.5 kmh 30.33 in1027.1 mb 0.00 in0.0 mm 0.00 in0.0 mm 0.00 in0.0 mm
04:57 AM 36.5°F2.5°C 24.7°F-4.1°C 62% 4.9 mph NE7.9 kmh NE 12.1 mph19.5 kmh 30.33 in1027.1 mb 0.00 in0.0 mm 0.00 in0.0 mm 0.00 in0.0 mm
04:58 AM 36.5°F2.5°C 24.3°F-4.3°C 61% 4.9 mph NNE7.9 kmh NNE 12.1 mph19.5 kmh 30.33 in1027.1 mb 0.00 in0.0 mm 0.00 in0.0 mm 0.00 in0.0 mm
04:59 AM 36.5°F2.5°C 24.3°F-4.3°C 61% 4.9 mph NNE7.9 kmh NNE 12.1 mph19.5 kmh 30.34 in1027.4 mb 0.00 in0.0 mm 0.00 in0.0 mm 0.00 in0.0 mm
05:00 AM 36.3°F2.4°C 24.2°F-4.3°C 61% 4.9 mph ENE7.9 kmh ENE 12.0 mph19.3 kmh 30.33 in1027.1 mb 0.00 in0.0 mm 0.00 in0.0 mm 0.00 in0.0 mm
05:01 AM 36.3°F2.4°C 24.2°F-4.3°C 61% 4.0 mph NNE6.4 kmh NNE 12.0 mph19.3 kmh 30.34 in1027.4 mb 0.00 in0.0 mm 0.00 in0.0 mm 0.00 in0.0 mm
05:02 AM 36.3°F2.4°C 23.8°F-4.6°C 60% 4.0 mph N6.4 kmh N 12.0 mph19.3 kmh 30.34 in1027.4 mb 0.00 in0.0 mm 0.00 in0.0 mm 0.00 in0.0 mm
05:03 AM 36.3°F2.4°C 23.8°F-4.6°C 60% 4.9 mph N7.9 kmh N 12.0 mph19.3 kmh 30.34 in1027.4 mb 0.00 in0.0 mm 0.00 in0.0 mm 0.00 in0.0 mm
05:04 AM 36.3°F2.4°C 23.8°F-4.6°C 60% 4.9 mph NE7.9 kmh NE 12.1 mph19.5 kmh 30.34 in1027.4 mb 0.00 in0.0 mm 0.00 in0.0 mm 0.00 in0.0 mm
05:05 AM 36.1°F2.3°C 23.2°F-4.9°C 59% 4.9 mph NE7.9 kmh NE 12.1 mph19.5 kmh 30.34 in1027.4 mb 0.00 in0.0 mm 0.00 in0.0 mm 0.00 in0.0 mm
05:06 AM 36.1°F2.3°C 23.2°F-4.9°C 59% 4.0 mph ENE6.4 kmh ENE 12.1 mph19.5 kmh 30.34 in1027.4 mb 0.00 in0.0 mm 0.00 in0.0 mm 0.00 in0.0 mm
05:07 AM 36.1°F2.3°C 23.2°F-4.9°C 59% 4.9 mph E7.9 kmh E 12.1 mph19.5 kmh 30.34 in1027.4 mb 0.00 in0.0 mm 0.00 in0.0 mm 0.00 in0.0 mm
05:08 AM 36.1°F2.3°C 22.8°F-5.1°C 58% 4.9 mph NE7.9 kmh NE 12.1 mph19.5 kmh 30.34 in1027.4 mb 0.00 in0.0 mm 0.00 in0.0 mm 0.00 in0.0 mm
05:09 AM 36.0°F2.2°C 23.1°F-4.9°C 59% 4.9 mph E7.9 kmh E 12.1 mph19.5 kmh 30.34 in1027.4 mb 0.00 in0.0 mm 0.00 in0.0 mm 0.00 in0.0 mm
05:10 AM 36.0°F2.2°C 22.7°F-5.2°C 58% 4.9 mph ENE7.9 kmh ENE 12.1 mph19.5 kmh 30.34 in1027.4 mb 0.00 in0.0 mm 0.00 in0.0 mm 0.00 in0.0 mm
05:11 AM 36.0°F2.2°C 22.7°F-5.2°C 58% 4.9 mph NE7.9 kmh NE 15.0 mph24.1 kmh 30.35 in1027.8 mb 0.00 in0.0 mm 0.00 in0.0 mm 0.00 in0.0 mm
05:12 AM 35.8°F2.1°C 22.1°F-5.5°C 57% 4.9 mph ENE7.9 kmh ENE 15.0 mph24.1 kmh 30.35 in1027.8 mb 0.00 in0.0 mm 0.00 in0.0 mm 0.00 in0.0 mm
05:13 AM 35.8°F2.1°C 22.5°F-5.3°C 58% 4.9 mph NNE7.9 kmh NNE 15.0 mph24.1 kmh 30.35 in1027.8 mb 0.00 in0.0 mm 0.00 in0.0 mm 0.00 in0.0 mm
05:14 AM 35.8°F2.1°C 22.1°F-5.5°C 57% 4.9 mph NE7.9 kmh NE 15.0 mph24.1 kmh 30.35 in1027.8 mb 0.00 in0.0 mm 0.00 in0.0 mm 0.00 in0.0 mm
05:15 AM 35.8°F2.1°C 22.5°F-5.3°C 58% 4.9 mph NE7.9 kmh NE 15.0 mph24.1 kmh 30.35 in1027.8 mb 0.00 in0.0 mm 0.00 in0.0 mm 0.00 in0.0 mm
05:16 AM 35.8°F2.1°C 22.1°F-5.5°C 57% 4.9 mph N7.9 kmh N 15.0 mph24.1 kmh 30.35 in1027.8 mb 0.00 in0.0 mm 0.00 in0.0 mm 0.00 in0.0 mm
05:17 AM 35.6°F2.0°C 22.3°F-5.4°C 58% 4.9 mph NE7.9 kmh NE 15.0 mph24.1 kmh 30.35 in1027.8 mb 0.00 in0.0 mm 0.00 in0.0 mm 0.00 in0.0 mm
05:18 AM 35.4°F1.9°C 22.1°F-5.5°C 58% 4.9 mph NE7.9 kmh NE 15.0 mph24.1 kmh 30.35 in1027.8 mb 0.00 in0.0 mm 0.00 in0.0 mm 0.00 in0.0 mm
05:19 AM 35.4°F1.9°C 22.1°F-5.5°C 58% 4.9 mph ENE7.9 kmh ENE 15.0 mph24.1 kmh 30.35 in1027.8 mb 0.00 in0.0 mm 0.00 in0.0 mm 0.00 in0.0 mm
05:20 AM 35.4°F1.9°C 21.7°F-5.7°C 57% 6.0 mph NE9.7 kmh NE 15.0 mph24.1 kmh 30.35 in1027.8 mb 0.00 in0.0 mm 0.00 in0.0 mm 0.00 in0.0 mm
05:21 AM 35.4°F1.9°C 21.7°F-5.7°C 57% 6.0 mph NE9.7 kmh NE 15.0 mph24.1 kmh 30.36 in1028.1 mb 0.00 in0.0 mm 0.00 in0.0 mm 0.00 in0.0 mm
05:22 AM 35.2°F1.8°C 21.5°F-5.8°C 57% 6.0 mph NNE9.7 kmh NNE 15.0 mph24.1 kmh 30.36 in1028.1 mb 0.00 in0.0 mm 0.00 in0.0 mm 0.00 in0.0 mm
05:23 AM 35.2°F1.8°C 21.5°F-5.8°C 57% 6.0 mph NNE9.7 kmh NNE 15.0 mph24.1 kmh 30.36 in1028.1 mb 0.00 in0.0 mm 0.00 in0.0 mm 0.00 in0.0 mm
05:24 AM 35.2°F1.8°C 21.5°F-5.8°C 57% 6.0 mph NE9.7 kmh NE 15.0 mph24.1 kmh 30.36 in1028.1 mb 0.00 in0.0 mm 0.00 in0.0 mm 0.00 in0.0 mm
05:25 AM 35.2°F1.8°C 21.5°F-5.8°C 57% 6.0 mph NE9.7 kmh NE 15.0 mph24.1 kmh 30.36 in1028.1 mb 0.00 in0.0 mm 0.00 in0.0 mm 0.00 in0.0 mm
05:26 AM 35.1°F1.7°C 21.4°F-5.9°C 57% 6.0 mph NE9.7 kmh NE 15.0 mph24.1 kmh 30.37 in1028.4 mb 0.00 in0.0 mm 0.00 in0.0 mm 0.00 in0.0 mm
05:27 AM 35.1°F1.7°C 21.4°F-5.9°C 57% 6.0 mph ENE9.7 kmh ENE 15.0 mph24.1 kmh 30.37 in1028.4 mb 0.00 in0.0 mm 0.00 in0.0 mm 0.00 in0.0 mm
05:28 AM 35.1°F1.7°C 21.4°F-5.9°C 57% 6.0 mph NE9.7 kmh NE 15.0 mph24.1 kmh 30.37 in1028.4 mb 0.00 in0.0 mm 0.00 in0.0 mm 0.00 in0.0 mm
05:29 AM 34.9°F1.6°C 21.2°F-6.0°C 57% 6.0 mph ENE9.7 kmh ENE 15.0 mph24.1 kmh 30.37 in1028.4 mb 0.00 in0.0 mm 0.00 in0.0 mm 0.00 in0.0 mm
05:30 AM 35.1°F1.7°C 21.4°F-5.9°C 57% 6.0 mph NE9.7 kmh NE 15.0 mph24.1 kmh 30.37 in1028.4 mb 0.00 in0.0 mm 0.00 in0.0 mm 0.00 in0.0 mm
05:31 AM 34.9°F1.6°C 20.8°F-6.2°C 56% 4.9 mph ENE7.9 kmh ENE 13.0 mph20.9 kmh 30.37 in1028.4 mb 0.00 in0.0 mm 0.00 in0.0 mm 0.00 in0.0 mm
05:32 AM 34.9°F1.6°C 20.8°F-6.2°C 56% 4.9 mph ENE7.9 kmh ENE 13.0 mph20.9 kmh 30.37 in1028.4 mb 0.00 in0.0 mm 0.00 in0.0 mm 0.00 in0.0 mm
05:33 AM 34.7°F1.5°C 20.6°F-6.3°C 56% 4.9 mph ENE7.9 kmh ENE 13.0 mph20.9 kmh 30.37 in1028.4 mb 0.00 in0.0 mm 0.00 in0.0 mm 0.00 in0.0 mm
05:34 AM 34.5°F1.4°C 20.4°F-6.4°C 56% 4.9 mph E7.9 kmh E 11.0 mph17.7 kmh 30.37 in1028.4 mb 0.00 in0.0 mm 0.00 in0.0 mm 0.00 in0.0 mm
05:35 AM 34.5°F1.4°C 20.4°F-6.4°C 56% 4.0 mph ENE6.4 kmh ENE 11.0 mph17.7 kmh 30.37 in1028.4 mb 0.00 in0.0 mm 0.00 in0.0 mm 0.00 in0.0 mm
05:36 AM 34.3°F1.3°C 20.3°F-6.5°C 56% 4.9 mph NNE7.9 kmh NNE 11.0 mph17.7 kmh 30.37 in1028.4 mb 0.00 in0.0 mm 0.00 in0.0 mm 0.00 in0.0 mm
05:37 AM 34.3°F1.3°C 20.3°F-6.5°C 56% 4.0 mph E6.4 kmh E 11.0 mph17.7 kmh 30.38 in1028.8 mb 0.00 in0.0 mm 0.00 in0.0 mm 0.00 in0.0 mm
05:38 AM 34.3°F1.3°C 20.3°F-6.5°C 56% 4.0 mph NE6.4 kmh NE 11.0 mph17.7 kmh 30.38 in1028.8 mb 0.00 in0.0 mm 0.00 in0.0 mm 0.00 in0.0 mm
05:39 AM 34.2°F1.2°C 20.2°F-6.6°C 56% 4.0 mph E6.4 kmh E 13.0 mph20.9 kmh 30.38 in1028.8 mb 0.00 in0.0 mm 0.00 in0.0 mm 0.00 in0.0 mm
05:40 AM 34.2°F1.2°C 20.2°F-6.6°C 56% 4.0 mph ENE6.4 kmh ENE 13.0 mph20.9 kmh 30.38 in1028.8 mb 0.00 in0.0 mm 0.00 in0.0 mm 0.00 in0.0 mm
05:41 AM 34.0°F1.1°C 20.0°F-6.7°C 56% 4.9 mph ENE7.9 kmh ENE 13.0 mph20.9 kmh 30.38 in1028.8 mb 0.00 in0.0 mm 0.00 in0.0 mm 0.00 in0.0 mm
05:42 AM 34.0°F1.1°C 19.6°F-6.9°C 55% 4.9 mph 7.9 kmh 13.0 mph20.9 kmh 30.38 in1028.8 mb 0.00 in0.0 mm 0.00 in0.0 mm 0.00 in0.0 mm
05:43 AM 33.8°F1.0°C 19.4°F-7.0°C 55% 4.9 mph NE7.9 kmh NE 13.0 mph20.9 kmh 30.39 in1029.1 mb 0.00 in0.0 mm 0.00 in0.0 mm 0.00 in0.0 mm
05:44 AM 33.8°F1.0°C 19.4°F-7.0°C 55% 4.9 mph NNE7.9 kmh NNE 13.0 mph20.9 kmh 30.39 in1029.1 mb 0.00 in0.0 mm 0.00 in0.0 mm 0.00 in0.0 mm
05:45 AM 33.6°F0.9°C 19.2°F-7.1°C 55% 4.9 mph NE7.9 kmh NE 13.0 mph20.9 kmh 30.39 in1029.1 mb 0.00 in0.0 mm 0.00 in0.0 mm 0.00 in0.0 mm
05:46 AM 33.6°F0.9°C 19.2°F-7.1°C 55% 4.9 mph NNE7.9 kmh NNE 13.0 mph20.9 kmh 30.38 in1028.8 mb 0.00 in0.0 mm 0.00 in0.0 mm 0.00 in0.0 mm
05:47 AM 33.6°F0.9°C 19.2°F-7.1°C 55% 4.9 mph NE7.9 kmh NE 13.0 mph20.9 kmh 30.39 in1029.1 mb 0.00 in0.0 mm 0.00 in0.0 mm 0.00 in0.0 mm
05:48 AM 33.4°F0.8°C 18.6°F-7.4°C 54% 4.9 mph E7.9 kmh E 13.0 mph20.9 kmh 30.39 in1029.1 mb 0.00 in0.0 mm 0.00 in0.0 mm 0.00 in0.0 mm
05:49 AM 33.4°F0.8°C 18.6°F-7.4°C 54% 4.9 mph NE7.9 kmh NE 13.0 mph20.9 kmh 30.39 in1029.1 mb 0.00 in0.0 mm 0.00 in0.0 mm 0.00 in0.0 mm
05:50 AM 33.4°F0.8°C 18.6°F-7.4°C 54% 4.9 mph E7.9 kmh E 13.0 mph20.9 kmh 30.39 in1029.1 mb 0.00 in0.0 mm 0.00 in0.0 mm 0.00 in0.0 mm
05:51 AM 33.4°F0.8°C 18.6°F-7.4°C 54% 4.9 mph N7.9 kmh N 13.0 mph20.9 kmh 30.39 in1029.1 mb 0.00 in0.0 mm 0.00 in0.0 mm 0.00 in0.0 mm
05:52 AM 33.3°F0.7°C 18.0°F-7.8°C 53% 4.9 mph NE7.9 kmh NE 13.0 mph20.9 kmh 30.40 in1029.5 mb 0.00 in0.0 mm 0.00 in0.0 mm 0.00 in0.0 mm
05:53 AM 33.3°F0.7°C 18.0°F-7.8°C 53% 4.9 mph NNE7.9 kmh NNE 13.0 mph20.9 kmh 30.40 in1029.5 mb 0.00 in0.0 mm 0.00 in0.0 mm 0.00 in0.0 mm
05:54 AM 33.3°F0.7°C 17.6°F-8.0°C 52% 4.9 mph NE7.9 kmh NE 13.0 mph20.9 kmh 30.40 in1029.5 mb 0.00 in0.0 mm 0.00 in0.0 mm 0.00 in0.0 mm
05:55 AM 33.1°F0.6°C 17.9°F-7.8°C 53% 4.0 mph ENE6.4 kmh ENE 13.0 mph20.9 kmh 30.40 in1029.5 mb 0.00 in0.0 mm 0.00 in0.0 mm 0.00 in0.0 mm
05:56 AM 33.1°F0.6°C 17.4°F-8.1°C 52% 4.0 mph NNE6.4 kmh NNE 13.0 mph20.9 kmh 30.40 in1029.5 mb 0.00 in0.0 mm 0.00 in0.0 mm 0.00 in0.0 mm
05:57 AM 33.1°F0.6°C 17.4°F-8.1°C 52% 4.0 mph NE6.4 kmh NE 13.0 mph20.9 kmh 30.40 in1029.5 mb 0.00 in0.0 mm 0.00 in0.0 mm 0.00 in0.0 mm
05:58 AM 32.9°F0.5°C 17.7°F-7.9°C 53% 4.0 mph ENE6.4 kmh ENE 13.0 mph20.9 kmh 30.40 in1029.5 mb 0.00 in0.0 mm 0.00 in0.0 mm 0.00 in0.0 mm
05:59 AM 32.9°F0.5°C 17.7°F-7.9°C 53% 4.0 mph NE6.4 kmh NE 10.1 mph16.3 kmh 30.40 in1029.5 mb 0.00 in0.0 mm 0.00 in0.0 mm 0.00 in0.0 mm
06:00 AM 32.7°F0.4°C 17.5°F-8.1°C 53% 4.0 mph NNE6.4 kmh NNE 10.1 mph16.3 kmh 30.40 in1029.5 mb 0.00 in0.0 mm 0.00 in0.0 mm 0.00 in0.0 mm
06:01 AM 32.7°F0.4°C 17.5°F-8.1°C 53% 4.0 mph NE6.4 kmh NE 10.1 mph16.3 kmh 30.40 in1029.5 mb 0.00 in0.0 mm 0.00 in0.0 mm 0.00 in0.0 mm
06:02 AM 32.7°F0.4°C 17.5°F-8.1°C 53% 4.0 mph NE6.4 kmh NE 10.1 mph16.3 kmh 30.40 in1029.5 mb 0.00 in0.0 mm 0.00 in0.0 mm 0.00 in0.0 mm
06:03 AM 32.5°F0.3°C 17.3°F-8.2°C 53% 4.0 mph NE6.4 kmh NE 10.1 mph16.3 kmh 30.40 in1029.5 mb 0.00 in0.0 mm 0.00 in0.0 mm 0.00 in0.0 mm
06:04 AM 32.5°F0.3°C 17.3°F-8.2°C 53% 4.0 mph NE6.4 kmh NE 10.1 mph16.3 kmh 30.40 in1029.5 mb 0.00 in0.0 mm 0.00 in0.0 mm 0.00 in0.0 mm
06:05 AM 32.5°F0.3°C 17.3°F-8.2°C 53% 4.0 mph E6.4 kmh E 10.1 mph16.3 kmh 30.41 in1029.8 mb 0.00 in0.0 mm 0.00 in0.0 mm 0.00 in0.0 mm
06:06 AM 32.5°F0.3°C 16.4°F-8.7°C 51% 4.0 mph NNE6.4 kmh NNE 10.1 mph16.3 kmh 30.41 in1029.8 mb 0.00 in0.0 mm 0.00 in0.0 mm 0.00 in0.0 mm
06:07 AM 32.4°F0.2°C 15.4°F-9.2°C 49% 4.0 mph N6.4 kmh N 17.9 mph28.8 kmh 30.41 in1029.8 mb 0.00 in0.0 mm 0.00 in0.0 mm 0.00 in0.0 mm
06:08 AM 32.4°F0.2°C 15.4°F-9.2°C 49% 4.0 mph E6.4 kmh E 17.9 mph28.8 kmh 30.41 in1029.8 mb 0.00 in0.0 mm 0.00 in0.0 mm 0.00 in0.0 mm
06:09 AM 32.4°F0.2°C 15.4°F-9.2°C 49% 4.9 mph ENE7.9 kmh ENE 17.9 mph28.8 kmh 30.41 in1029.8 mb 0.00 in0.0 mm 0.00 in0.0 mm 0.00 in0.0 mm
06:10 AM 32.4°F0.2°C 15.4°F-9.2°C 49% 4.9 mph NE7.9 kmh NE 17.9 mph28.8 kmh 30.41 in1029.8 mb 0.00 in0.0 mm 0.00 in0.0 mm 0.00 in0.0 mm
06:11 AM 32.4°F0.2°C 14.9°F-9.5°C 48% 4.9 mph N7.9 kmh N 17.9 mph28.8 kmh 30.41 in1029.8 mb 0.00 in0.0 mm 0.00 in0.0 mm 0.00 in0.0 mm
06:12 AM 32.2°F0.1°C 14.3°F-9.8°C 47% 4.9 mph NE7.9 kmh NE 17.9 mph28.8 kmh 30.41 in1029.8 mb 0.00 in0.0 mm 0.00 in0.0 mm 0.00 in0.0 mm
06:13 AM 32.2°F0.1°C 13.8°F-10.1°C 46% 4.9 mph NNE7.9 kmh NNE 17.9 mph28.8 kmh 30.41 in1029.8 mb 0.00 in0.0 mm 0.00 in0.0 mm 0.00 in0.0 mm
06:14 AM 32.2°F0.1°C 13.3°F-10.4°C 45% 4.9 mph NE7.9 kmh NE 17.9 mph28.8 kmh 30.42 in1030.1 mb 0.00 in0.0 mm 0.00 in0.0 mm 0.00 in0.0 mm
06:15 AM 32.2°F0.1°C 13.3°F-10.4°C 45% 4.9 mph ENE7.9 kmh ENE 17.9 mph28.8 kmh 30.42 in1030.1 mb 0.00 in0.0 mm 0.00 in0.0 mm 0.00 in0.0 mm
06:16 AM 32.2°F0.1°C 13.3°F-10.4°C 45% 4.9 mph E7.9 kmh E 18.0 mph29.0 kmh 30.42 in1030.1 mb 0.00 in0.0 mm 0.00 in0.0 mm 0.00 in0.0 mm
06:17 AM 32.0°F0.0°C 13.1°F-10.5°C 45% 4.9 mph NE7.9 kmh NE 18.0 mph29.0 kmh 30.42 in1030.1 mb 0.00 in0.0 mm 0.00 in0.0 mm 0.00 in0.0 mm
06:18 AM 31.8°F-0.1°C 12.9°F-10.6°C 45% 4.0 mph NNE6.4 kmh NNE 18.0 mph29.0 kmh 30.42 in1030.1 mb 0.00 in0.0 mm 0.00 in0.0 mm 0.00 in0.0 mm
06:19 AM 31.8°F-0.1°C 12.4°F-10.9°C 44% 4.0 mph NW6.4 kmh NW 18.0 mph29.0 kmh 30.42 in1030.1 mb 0.00 in0.0 mm 0.00 in0.0 mm 0.00 in0.0 mm
06:20 AM 31.8°F-0.1°C 11.9°F-11.2°C 43% 4.0 mph NE6.4 kmh NE 18.0 mph29.0 kmh 30.42 in1030.1 mb 0.00 in0.0 mm 0.00 in0.0 mm 0.00 in0.0 mm
06:21 AM 31.8°F-0.1°C 11.9°F-11.2°C 43% 4.0 mph NNE6.4 kmh NNE 18.0 mph29.0 kmh 30.42 in1030.1 mb 0.00 in0.0 mm 0.00 in0.0 mm 0.00 in0.0 mm
06:22 AM 31.6°F-0.2°C 11.7°F-11.3°C 43% 4.9 mph E7.9 kmh E 18.0 mph29.0 kmh 30.42 in1030.1 mb 0.00 in0.0 mm 0.00 in0.0 mm 0.00 in0.0 mm
06:23 AM 31.8°F-0.1°C 11.9°F-11.2°C 43% 4.9 mph NE7.9 kmh NE 18.0 mph29.0 kmh 30.42 in1030.1 mb 0.00 in0.0 mm 0.00 in0.0 mm 0.00 in0.0 mm
06:24 AM 31.6°F-0.2°C 12.2°F-11.0°C 44% 4.9 mph NE7.9 kmh NE 18.0 mph29.0 kmh 30.42 in1030.1 mb 0.00 in0.0 mm 0.00 in0.0 mm 0.00 in0.0 mm
06:25 AM 31.6°F-0.2°C 12.7°F-10.7°C 45% 4.9 mph NE7.9 kmh NE 18.0 mph29.0 kmh 30.43 in1030.5 mb 0.00 in0.0 mm 0.00 in0.0 mm 0.00 in0.0 mm
06:26 AM 31.6°F-0.2°C 12.7°F-10.7°C 45% 4.9 mph ENE7.9 kmh ENE 11.0 mph17.7 kmh 30.43 in1030.5 mb 0.00 in0.0 mm 0.00 in0.0 mm 0.00 in0.0 mm
06:27 AM 31.6°F-0.2°C 12.2°F-11.0°C 44% 4.9 mph E7.9 kmh E 11.0 mph17.7 kmh 30.43 in1030.5 mb 0.00 in0.0 mm 0.00 in0.0 mm 0.00 in0.0 mm
06:28 AM 31.5°F-0.3°C 12.6°F-10.8°C 45% 4.9 mph NE7.9 kmh NE 11.0 mph17.7 kmh 30.43 in1030.5 mb 0.00 in0.0 mm 0.00 in0.0 mm 0.00 in0.0 mm
06:29 AM 31.5°F-0.3°C 13.1°F-10.5°C 46% 4.9 mph NE7.9 kmh NE 11.0 mph17.7 kmh 30.42 in1030.1 mb 0.00 in0.0 mm 0.00 in0.0 mm 0.00 in0.0 mm
06:30 AM 31.3°F-0.4°C 12.5°F-10.8°C 45% 4.9 mph ENE7.9 kmh ENE 11.0 mph17.7 kmh 30.43 in1030.5 mb 0.00 in0.0 mm 0.00 in0.0 mm 0.00 in0.0 mm
06:31 AM 31.3°F-0.4°C 11.9°F-11.2°C 44% 4.9 mph NNE7.9 kmh NNE 11.0 mph17.7 kmh 30.43 in1030.5 mb 0.00 in0.0 mm 0.00 in0.0 mm 0.00 in0.0 mm
06:32 AM 31.3°F-0.4°C 11.9°F-11.2°C 44% 4.9 mph NE7.9 kmh NE 11.0 mph17.7 kmh 30.43 in1030.5 mb 0.00 in0.0 mm 0.00 in0.0 mm 0.00 in0.0 mm
06:33 AM 31.1°F-0.5°C 11.8°F-11.2°C 44% 4.9 mph NE7.9 kmh NE 11.0 mph17.7 kmh 30.43 in1030.5 mb 0.00 in0.0 mm 0.00 in0.0 mm 0.00 in0.0 mm
06:34 AM 31.1°F-0.5°C 11.8°F-11.2°C 44% 4.9 mph NNE7.9 kmh NNE 11.0 mph17.7 kmh 30.43 in1030.5 mb 0.00 in0.0 mm 0.00 in0.0 mm 0.00 in0.0 mm
06:35 AM 30.9°F-0.6°C 11.6°F-11.3°C 44% 4.9 mph NE7.9 kmh NE 11.0 mph17.7 kmh 30.43 in1030.5 mb 0.00 in0.0 mm 0.00 in0.0 mm 0.00 in0.0 mm
06:36 AM 30.9°F-0.6°C 11.6°F-11.3°C 44% 4.9 mph E7.9 kmh E 11.0 mph17.7 kmh 30.43 in1030.5 mb 0.00 in0.0 mm 0.00 in0.0 mm 0.00 in0.0 mm
06:37 AM 30.7°F-0.7°C 11.4°F-11.4°C 44% 4.9 mph NE7.9 kmh NE 10.1 mph16.3 kmh 30.43 in1030.5 mb 0.00 in0.0 mm 0.00 in0.0 mm 0.00 in0.0 mm
06:38 AM 30.7°F-0.7°C 11.4°F-11.4°C 44% 4.0 mph NE6.4 kmh NE 10.1 mph16.3 kmh 30.43 in1030.5 mb 0.00 in0.0 mm 0.00 in0.0 mm 0.00 in0.0 mm
06:39 AM 30.7°F-0.7°C 10.9°F-11.7°C 43% 4.0 mph NE6.4 kmh NE 10.1 mph16.3 kmh 30.44 in1030.8 mb 0.00 in0.0 mm 0.00 in0.0 mm 0.00 in0.0 mm
06:40 AM 30.6°F-0.8°C 10.8°F-11.8°C 43% 4.0 mph NE6.4 kmh NE 10.1 mph16.3 kmh 30.43 in1030.5 mb 0.00 in0.0 mm 0.00 in0.0 mm 0.00 in0.0 mm
06:41 AM 30.6°F-0.8°C 10.8°F-11.8°C 43% 4.0 mph E6.4 kmh E 11.0 mph17.7 kmh 30.44 in1030.8 mb 0.00 in0.0 mm 0.00 in0.0 mm 0.00 in0.0 mm
06:42 AM 30.6°F-0.8°C 10.3°F-12.1°C 42% 4.0 mph NE6.4 kmh NE 13.0 mph20.9 kmh 30.44 in1030.8 mb 0.00 in0.0 mm 0.00 in0.0 mm 0.00 in0.0 mm
06:43 AM 30.4°F-0.9°C 10.1°F-12.2°C 42% 4.9 mph ENE7.9 kmh ENE 13.0 mph20.9 kmh 30.44 in1030.8 mb 0.00 in0.0 mm 0.00 in0.0 mm 0.00 in0.0 mm
06:44 AM 30.4°F-0.9°C 10.1°F-12.2°C 42% 4.0 mph ESE6.4 kmh ESE 13.0 mph20.9 kmh 30.44 in1030.8 mb 0.00 in0.0 mm 0.00 in0.0 mm 0.00 in0.0 mm
06:45 AM 30.4°F-0.9°C 10.1°F-12.2°C 42% 4.0 mph ENE6.4 kmh ENE 13.0 mph20.9 kmh 30.44 in1030.8 mb 0.00 in0.0 mm 0.00 in0.0 mm 0.00 in0.0 mm
06:46 AM 30.4°F-0.9°C 10.1°F-12.2°C 42% 4.0 mph N6.4 kmh N 13.0 mph20.9 kmh 30.44 in1030.8 mb 0.00 in0.0 mm 0.00 in0.0 mm 0.00 in0.0 mm
06:47 AM 30.2°F-1.0°C 9.9°F-12.3°C 42% 4.0 mph N6.4 kmh N 15.0 mph24.1 kmh 30.44 in1030.8 mb 0.00 in0.0 mm 0.00 in0.0 mm 0.00 in0.0 mm
06:48 AM 30.2°F-1.0°C 9.9°F-12.3°C 42% 4.0 mph NE6.4 kmh NE 15.0 mph24.1 kmh 30.44 in1030.8 mb 0.00 in0.0 mm 0.00 in0.0 mm 0.00 in0.0 mm
06:49 AM 30.0°F-1.1°C 9.7°F-12.4°C 42% 4.9 mph NE7.9 kmh NE 15.0 mph24.1 kmh 30.44 in1030.8 mb 0.00 in0.0 mm 0.00 in0.0 mm 0.00 in0.0 mm
06:50 AM 30.0°F-1.1°C 9.7°F-12.4°C 42% 4.9 mph N7.9 kmh N 15.0 mph24.1 kmh 30.45 in1031.2 mb 0.00 in0.0 mm 0.00 in0.0 mm 0.00 in0.0 mm
06:51 AM 30.0°F-1.1°C 9.7°F-12.4°C 42% 4.9 mph NNE7.9 kmh NNE 15.0 mph24.1 kmh 30.45 in1031.2 mb 0.00 in0.0 mm 0.00 in0.0 mm 0.00 in0.0 mm
06:52 AM 30.0°F-1.1°C 9.7°F-12.4°C 42% 4.9 mph NE7.9 kmh NE 15.0 mph24.1 kmh 30.44 in1030.8 mb 0.00 in0.0 mm 0.00 in0.0 mm 0.00 in0.0 mm
06:53 AM 30.0°F-1.1°C 9.7°F-12.4°C 42% 4.9 mph 7.9 kmh 15.0 mph24.1 kmh 30.45 in1031.2 mb 0.00 in0.0 mm 0.00 in0.0 mm 0.00 in0.0 mm
06:54 AM 30.0°F-1.1°C 9.7°F-12.4°C 42% 4.9 mph N7.9 kmh N 15.0 mph24.1 kmh 30.45 in1031.2 mb 0.00 in0.0 mm 0.00 in0.0 mm 0.00 in0.0 mm
06:55 AM 30.0°F-1.1°C 9.7°F-12.4°C 42% 4.9 mph SE7.9 kmh SE 15.0 mph24.1 kmh 30.45 in1031.2 mb 0.00 in0.0 mm 0.00 in0.0 mm 0.00 in0.0 mm
06:56 AM 30.0°F-1.1°C 9.7°F-12.4°C 42% 4.9 mph NE7.9 kmh NE 15.0 mph24.1 kmh 30.45 in1031.2 mb 0.00 in0.0 mm 0.00 in0.0 mm 0.00 in0.0 mm
06:57 AM 30.0°F-1.1°C 9.7°F-12.4°C 42% 6.0 mph ENE9.7 kmh ENE 15.0 mph24.1 kmh 30.45 in1031.2 mb 0.00 in0.0 mm 0.00 in0.0 mm 0.00 in0.0 mm
06:58 AM 30.0°F-1.1°C 9.7°F-12.4°C 42% 4.9 mph NNE7.9 kmh NNE 15.0 mph24.1 kmh 30.45 in1031.2 mb 0.00 in0.0 mm 0.00 in0.0 mm 0.00 in0.0 mm
06:59 AM 30.0°F-1.1°C 9.7°F-12.4°C 42% 4.9 mph NE7.9 kmh NE 15.0 mph24.1 kmh 30.45 in1031.2 mb 0.00 in0.0 mm 0.00 in0.0 mm 0.00 in0.0 mm
07:00 AM 29.8°F-1.2°C 9.5°F-12.5°C 42% 4.9 mph NE7.9 kmh NE 15.0 mph24.1 kmh 30.45 in1031.2 mb 0.00 in0.0 mm 0.00 in0.0 mm 0.00 in0.0 mm
07:01 AM 29.8°F-1.2°C 9.5°F-12.5°C 42% 4.9 mph NNE7.9 kmh NNE 15.0 mph24.1 kmh 30.45 in1031.2 mb 0.00 in0.0 mm 0.00 in0.0 mm 0.00 in0.0 mm
07:02 AM 29.8°F-1.2°C 9.5°F-12.5°C 42% 4.9 mph NE7.9 kmh NE 15.0 mph24.1 kmh 30.45 in1031.2 mb 0.00 in0.0 mm 0.00 in0.0 mm 0.00 in0.0 mm
07:03 AM 29.8°F-1.2°C 9.5°F-12.5°C 42% 4.9 mph SE7.9 kmh SE 15.0 mph24.1 kmh 30.45 in1031.2 mb 0.00 in0.0 mm 0.00 in0.0 mm 0.00 in0.0 mm
07:04 AM 29.8°F-1.2°C 9.5°F-12.5°C 42% 4.0 mph NNE6.4 kmh NNE 15.0 mph24.1 kmh 30.45 in1031.2 mb 0.00 in0.0 mm 0.00 in0.0 mm 0.00 in0.0 mm
07:05 AM 29.8°F-1.2°C 9.5°F-12.5°C 42% 4.0 mph NE6.4 kmh NE 15.0 mph24.1 kmh 30.45 in1031.2 mb 0.00 in0.0 mm 0.00 in0.0 mm 0.00 in0.0 mm
07:06 AM 29.7°F-1.3°C 8.9°F-12.8°C 41% 4.0 mph NE6.4 kmh NE 15.0 mph24.1 kmh 30.45 in1031.2 mb 0.00 in0.0 mm 0.00 in0.0 mm 0.00 in0.0 mm
07:07 AM 29.7°F-1.3°C 8.9°F-12.8°C 41% 4.0 mph NE6.4 kmh NE 14.1 mph22.7 kmh 30.45 in1031.2 mb 0.00 in0.0 mm 0.00 in0.0 mm 0.00 in0.0 mm
07:08 AM 29.7°F-1.3°C 9.5°F-12.5°C 42% 4.9 mph ENE7.9 kmh ENE 14.1 mph22.7 kmh 30.45 in1031.2 mb 0.00 in0.0 mm 0.00 in0.0 mm 0.00 in0.0 mm
07:09 AM 29.7°F-1.3°C 8.9°F-12.8°C 41% 4.9 mph NE7.9 kmh NE 14.1 mph22.7 kmh 30.45 in1031.2 mb 0.00 in0.0 mm 0.00 in0.0 mm 0.00 in0.0 mm
07:10 AM 29.7°F-1.3°C 9.5°F-12.5°C 42% 4.9 mph ENE7.9 kmh ENE 14.1 mph22.7 kmh 30.46 in1031.5 mb 0.00 in0.0 mm 0.00 in0.0 mm 0.00 in0.0 mm
07:11 AM 29.7°F-1.3°C 9.5°F-12.5°C 42% 4.9 mph NNE7.9 kmh NNE 14.1 mph22.7 kmh 30.46 in1031.5 mb 0.00 in0.0 mm 0.00 in0.0 mm 0.00 in0.0 mm
07:12 AM 29.7°F-1.3°C 9.5°F-12.5°C 42% 4.9 mph NE7.9 kmh NE 13.0 mph20.9 kmh 30.46 in1031.5 mb 0.00 in0.0 mm 0.00 in0.0 mm 0.00 in0.0 mm
07:13 AM 29.7°F-1.3°C 8.9°F-12.8°C 41% 4.9 mph NE7.9 kmh NE 13.0 mph20.9 kmh 30.46 in1031.5 mb 0.00 in0.0 mm 0.00 in0.0 mm 0.00 in0.0 mm
07:14 AM 29.7°F-1.3°C 9.5°F-12.5°C 42% 4.9 mph NNE7.9 kmh NNE 13.0 mph20.9 kmh 30.46 in1031.5 mb 0.00 in0.0 mm 0.00 in0.0 mm 0.00 in0.0 mm
07:15 AM 29.7°F-1.3°C 9.5°F-12.5°C 42% 4.9 mph NW7.9 kmh NW 13.0 mph20.9 kmh 30.46 in1031.5 mb 0.00 in0.0 mm 0.00 in0.0 mm 0.00 in0.0 mm
07:16 AM 29.5°F-1.4°C 8.7°F-12.9°C 41% 4.9 mph NE7.9 kmh NE 13.0 mph20.9 kmh 30.46 in1031.5 mb 0.00 in0.0 mm 0.00 in0.0 mm 0.00 in0.0 mm
07:17 AM 29.5°F-1.4°C 8.7°F-12.9°C 41% 4.9 mph ESE7.9 kmh ESE 13.0 mph20.9 kmh 30.46 in1031.5 mb 0.00 in0.0 mm 0.00 in0.0 mm 0.00 in0.0 mm
07:18 AM 29.7°F-1.3°C 8.9°F-12.8°C 41% 4.9 mph ESE7.9 kmh ESE 13.0 mph20.9 kmh 30.46 in1031.5 mb 0.00 in0.0 mm 0.00 in0.0 mm 0.00 in0.0 mm
07:19 AM 29.5°F-1.4°C 8.7°F-12.9°C 41% 4.9 mph NE7.9 kmh NE 13.0 mph20.9 kmh 30.46 in1031.5 mb 0.00 in0.0 mm 0.00 in0.0 mm 0.00 in0.0 mm
07:20 AM 29.5°F-1.4°C 8.7°F-12.9°C 41% 4.9 mph NE7.9 kmh NE 13.0 mph20.9 kmh 30.46 in1031.5 mb 0.00 in0.0 mm 0.00 in0.0 mm 0.00 in0.0 mm
07:21 AM 29.5°F-1.4°C 8.7°F-12.9°C 41% 6.0 mph ENE9.7 kmh ENE 13.0 mph20.9 kmh 30.46 in1031.5 mb 0.00 in0.0 mm 0.00 in0.0 mm 0.00 in0.0 mm
07:22 AM 29.5°F-1.4°C 8.7°F-12.9°C 41% 6.0 mph NNE9.7 kmh NNE 13.0 mph20.9 kmh 30.46 in1031.5 mb 0.00 in0.0 mm 0.00 in0.0 mm 0.00 in0.0 mm
07:23 AM 29.5°F-1.4°C 8.7°F-12.9°C 41% 6.0 mph NE9.7 kmh NE 13.0 mph20.9 kmh 30.46 in1031.5 mb 0.00 in0.0 mm 0.00 in0.0 mm 0.00 in0.0 mm
07:24 AM 29.5°F-1.4°C 8.7°F-12.9°C 41% 6.0 mph NNE9.7 kmh NNE 13.0 mph20.9 kmh 30.47 in1031.8 mb 0.00 in0.0 mm 0.00 in0.0 mm 0.00 in0.0 mm
07:25 AM 29.5°F-1.4°C 8.7°F-12.9°C 41% 6.0 mph NW9.7 kmh NW 13.0 mph20.9 kmh 30.47 in1031.8 mb 0.00 in0.0 mm 0.00 in0.0 mm 0.00 in0.0 mm
07:26 AM 29.5°F-1.4°C 8.7°F-12.9°C 41% 6.0 mph E9.7 kmh E 13.0 mph20.9 kmh 30.47 in1031.8 mb 0.00 in0.0 mm 0.00 in0.0 mm 0.00 in0.0 mm
07:27 AM 29.5°F-1.4°C 8.7°F-12.9°C 41% 4.9 mph ENE7.9 kmh ENE 13.0 mph20.9 kmh 30.47 in1031.8 mb 0.00 in0.0 mm 0.00 in0.0 mm 0.00 in0.0 mm
07:28 AM 29.5°F-1.4°C 8.7°F-12.9°C 41% 4.9 mph NE7.9 kmh NE 13.0 mph20.9 kmh 30.46 in1031.5 mb 0.00 in0.0 mm 0.00 in0.0 mm 0.00 in0.0 mm
07:29 AM 29.5°F-1.4°C 8.7°F-12.9°C 41% 4.9 mph N7.9 kmh N 13.0 mph20.9 kmh 30.47 in1031.8 mb 0.00 in0.0 mm 0.00 in0.0 mm 0.00 in0.0 mm
07:30 AM 29.5°F-1.4°C 8.7°F-12.9°C 41% 4.9 mph NE7.9 kmh NE 13.0 mph20.9 kmh 30.47 in1031.8 mb 0.00 in0.0 mm 0.00 in0.0 mm 0.00 in0.0 mm
07:31 AM 29.5°F-1.4°C 8.7°F-12.9°C 41% 4.9 mph NE7.9 kmh NE 13.0 mph20.9 kmh 30.47 in1031.8 mb 0.00 in0.0 mm 0.00 in0.0 mm 0.00 in0.0 mm
07:32 AM 29.5°F-1.4°C 8.7°F-12.9°C 41% 4.9 mph NE7.9 kmh NE 12.1 mph19.5 kmh 30.47 in1031.8 mb 0.00 in0.0 mm 0.00 in0.0 mm 0.00 in0.0 mm
07:33 AM 29.5°F-1.4°C 8.7°F-12.9°C 41% 4.9 mph NNE7.9 kmh NNE 12.1 mph19.5 kmh 30.47 in1031.8 mb 0.00 in0.0 mm 0.00 in0.0 mm 0.00 in0.0 mm
07:34 AM 29.5°F-1.4°C 8.7°F-12.9°C 41% 4.9 mph NE7.9 kmh NE 12.1 mph19.5 kmh 30.47 in1031.8 mb 0.00 in0.0 mm 0.00 in0.0 mm 0.00 in0.0 mm
07:35 AM 29.5°F-1.4°C 8.7°F-12.9°C 41% 4.0 mph N6.4 kmh N 12.1 mph19.5 kmh 30.47 in1031.8 mb 0.00 in0.0 mm 0.00 in0.0 mm 0.00 in0.0 mm
07:36 AM 29.5°F-1.4°C 8.7°F-12.9°C 41% 4.9 mph E7.9 kmh E 12.1 mph19.5 kmh 30.47 in1031.8 mb 0.00 in0.0 mm 0.00 in0.0 mm 0.00 in0.0 mm
07:37 AM 29.5°F-1.4°C 9.3°F-12.6°C 42% 4.9 mph E7.9 kmh E 12.1 mph19.5 kmh 30.47 in1031.8 mb 0.00 in0.0 mm 0.00 in0.0 mm 0.00 in0.0 mm
07:38 AM 29.3°F-1.5°C 8.6°F-13.0°C 41% 4.9 mph NE7.9 kmh NE 11.0 mph17.7 kmh 30.47 in1031.8 mb 0.00 in0.0 mm 0.00 in0.0 mm 0.00 in0.0 mm
07:39 AM 29.3°F-1.5°C 8.6°F-13.0°C 41% 4.9 mph NE7.9 kmh NE 11.0 mph17.7 kmh 30.47 in1031.8 mb 0.00 in0.0 mm 0.00 in0.0 mm 0.00 in0.0 mm
07:40 AM 29.3°F-1.5°C 8.6°F-13.0°C 41% 4.9 mph NNE7.9 kmh NNE 11.0 mph17.7 kmh 30.47 in1031.8 mb 0.00 in0.0 mm 0.00 in0.0 mm 0.00 in0.0 mm
07:41 AM 29.3°F-1.5°C 8.6°F-13.0°C 41% 4.9 mph NE7.9 kmh NE 11.0 mph17.7 kmh 30.47 in1031.8 mb 0.00 in0.0 mm 0.00 in0.0 mm 0.00 in0.0 mm
07:42 AM 29.3°F-1.5°C 9.1°F-12.7°C 42% 4.9 mph E7.9 kmh E 11.0 mph17.7 kmh 30.47 in1031.8 mb 0.00 in0.0 mm 0.00 in0.0 mm 0.00 in0.0 mm
07:43 AM 29.3°F-1.5°C 9.1°F-12.7°C 42% 4.9 mph NNE7.9 kmh NNE 11.0 mph17.7 kmh 30.47 in1031.8 mb 0.00 in0.0 mm 0.00 in0.0 mm 0.00 in0.0 mm
07:44 AM 29.3°F-1.5°C 8.6°F-13.0°C 41% 4.9 mph NE7.9 kmh NE 11.0 mph17.7 kmh 30.47 in1031.8 mb 0.00 in0.0 mm 0.00 in0.0 mm 0.00 in0.0 mm
07:45 AM 29.3°F-1.5°C 9.1°F-12.7°C 42% 4.0 mph ESE6.4 kmh ESE 11.0 mph17.7 kmh 30.47 in1031.8 mb 0.00 in0.0 mm 0.00 in0.0 mm 0.00 in0.0 mm
07:46 AM 29.3°F-1.5°C 9.1°F-12.7°C 42% 4.0 mph NE6.4 kmh NE 11.0 mph17.7 kmh 30.47 in1031.8 mb 0.00 in0.0 mm 0.00 in0.0 mm 0.00 in0.0 mm
07:47 AM 29.3°F-1.5°C 9.1°F-12.7°C 42% 4.0 mph NE6.4 kmh NE 11.0 mph17.7 kmh 30.47 in1031.8 mb 0.00 in0.0 mm 0.00 in0.0 mm 0.00 in0.0 mm
07:48 AM 29.3°F-1.5°C 8.6°F-13.0°C 41% 4.9 mph NE7.9 kmh NE 11.0 mph17.7 kmh 30.47 in1031.8 mb 0.00 in0.0 mm 0.00 in0.0 mm 0.00 in0.0 mm
07:49 AM 29.3°F-1.5°C 8.6°F-13.0°C 41% 4.9 mph NNE7.9 kmh NNE 11.0 mph17.7 kmh 30.47 in1031.8 mb 0.00 in0.0 mm 0.00 in0.0 mm 0.00 in0.0 mm
07:51 AM 29.5°F-1.4°C 9.3°F-12.6°C 42% 4.0 mph NNE6.4 kmh NNE 11.0 mph17.7 kmh 30.47 in1031.8 mb 0.00 in0.0 mm 0.00 in0.0 mm 0.00 in0.0 mm
07:52 AM 29.5°F-1.4°C 9.3°F-12.6°C 42% 4.0 mph NE6.4 kmh NE 11.0 mph17.7 kmh 30.47 in1031.8 mb 0.00 in0.0 mm 0.00 in0.0 mm 0.00 in0.0 mm
07:53 AM 29.3°F-1.5°C 8.6°F-13.0°C 41% 4.0 mph NE6.4 kmh NE 12.1 mph19.5 kmh 30.47 in1031.8 mb 0.00 in0.0 mm 0.00 in0.0 mm 0.00 in0.0 mm
07:54 AM 29.5°F-1.4°C 9.3°F-12.6°C 42% 4.0 mph ENE6.4 kmh ENE 12.1 mph19.5 kmh 30.47 in1031.8 mb 0.00 in0.0 mm 0.00 in0.0 mm 0.00 in0.0 mm
07:55 AM 29.5°F-1.4°C 9.3°F-12.6°C 42% 4.0 mph NE6.4 kmh NE 12.1 mph19.5 kmh 30.47 in1031.8 mb 0.00 in0.0 mm 0.00 in0.0 mm 0.00 in0.0 mm
07:56 AM 29.5°F-1.4°C 8.7°F-12.9°C 41% 4.9 mph NE7.9 kmh NE 12.1 mph19.5 kmh 30.47 in1031.8 mb 0.00 in0.0 mm 0.00 in0.0 mm 0.00 in0.0 mm
07:57 AM 29.5°F-1.4°C 8.7°F-12.9°C 41% 4.9 mph NE7.9 kmh NE 12.1 mph19.5 kmh 30.47 in1031.8 mb 0.00 in0.0 mm 0.00 in0.0 mm 0.00 in0.0 mm
07:58 AM 29.5°F-1.4°C 8.7°F-12.9°C 41% 4.9 mph NE7.9 kmh NE 12.1 mph19.5 kmh 30.47 in1031.8 mb 0.00 in0.0 mm 0.00 in0.0 mm 0.00 in0.0 mm
07:59 AM 29.5°F-1.4°C 9.3°F-12.6°C 42% 4.9 mph E7.9 kmh E 12.1 mph19.5 kmh 30.47 in1031.8 mb 0.00 in0.0 mm 0.00 in0.0 mm 0.00 in0.0 mm
08:00 AM 29.5°F-1.4°C 9.3°F-12.6°C 42% 4.9 mph NE7.9 kmh NE 12.1 mph19.5 kmh 30.47 in1031.8 mb 0.00 in0.0 mm 0.00 in0.0 mm 0.00 in0.0 mm
08:01 AM 29.5°F-1.4°C 9.3°F-12.6°C 42% 4.9 mph NNE7.9 kmh NNE 12.1 mph19.5 kmh 30.47 in1031.8 mb 0.00 in0.0 mm 0.00 in0.0 mm 0.00 in0.0 mm
08:02 AM 29.5°F-1.4°C 9.3°F-12.6°C 42% 4.9 mph NE7.9 kmh NE 12.1 mph19.5 kmh 30.47 in1031.8 mb 0.00 in0.0 mm 0.00 in0.0 mm 0.00 in0.0 mm
08:03 AM 29.5°F-1.4°C 9.3°F-12.6°C 42% 4.9 mph NE7.9 kmh NE 12.1 mph19.5 kmh 30.47 in1031.8 mb 0.00 in0.0 mm 0.00 in0.0 mm 0.00 in0.0 mm
08:04 AM 29.5°F-1.4°C 9.3°F-12.6°C 42% 4.9 mph NE7.9 kmh NE 12.1 mph19.5 kmh 30.47 in1031.8 mb 0.00 in0.0 mm 0.00 in0.0 mm 0.00 in0.0 mm
08:05 AM 29.5°F-1.4°C 9.3°F-12.6°C 42% 4.9 mph SE7.9 kmh SE 12.1 mph19.5 kmh 30.47 in1031.8 mb 0.00 in0.0 mm 0.00 in0.0 mm 0.00 in0.0 mm
08:06 AM 29.5°F-1.4°C 8.7°F-12.9°C 41% 4.9 mph E7.9 kmh E 12.1 mph19.5 kmh 30.48 in1032.2 mb 0.00 in0.0 mm 0.00 in0.0 mm 0.00 in0.0 mm
08:07 AM 29.7°F-1.3°C 8.9°F-12.8°C 41% 4.9 mph NE7.9 kmh NE 12.1 mph19.5 kmh 30.47 in1031.8 mb 0.00 in0.0 mm 0.00 in0.0 mm 0.00 in0.0 mm
08:08 AM 29.5°F-1.4°C 8.7°F-12.9°C 41% 4.9 mph NE7.9 kmh NE 12.1 mph19.5 kmh 30.48 in1032.2 mb 0.00 in0.0 mm 0.00 in0.0 mm 0.00 in0.0 mm
08:09 AM 29.7°F-1.3°C 8.9°F-12.8°C 41% 4.9 mph NE7.9 kmh NE 12.1 mph19.5 kmh 30.48 in1032.2 mb 0.00 in0.0 mm 0.00 in0.0 mm 0.00 in0.0 mm
08:10 AM 29.5°F-1.4°C 9.3°F-12.6°C 42% 4.9 mph ENE7.9 kmh ENE 12.1 mph19.5 kmh 30.47 in1031.8 mb 0.00 in0.0 mm 0.00 in0.0 mm 0.00 in0.0 mm
08:11 AM 29.7°F-1.3°C 8.9°F-12.8°C 41% 4.9 mph NE7.9 kmh NE 12.1 mph19.5 kmh 30.48 in1032.2 mb 0.00 in0.0 mm 0.00 in0.0 mm 0.00 in0.0 mm
08:12 AM 29.7°F-1.3°C 8.9°F-12.8°C 41% 4.9 mph NE7.9 kmh NE 12.1 mph19.5 kmh 30.47 in1031.8 mb 0.00 in0.0 mm 0.00 in0.0 mm 0.00 in0.0 mm
08:13 AM 29.7°F-1.3°C 8.9°F-12.8°C 41% 4.9 mph NE7.9 kmh NE 12.1 mph19.5 kmh 30.48 in1032.2 mb 0.00 in0.0 mm 0.00 in0.0 mm 0.00 in0.0 mm
08:14 AM 29.7°F-1.3°C 8.9°F-12.8°C 41% 4.9 mph NNE7.9 kmh NNE 12.1 mph19.5 kmh 30.48 in1032.2 mb 0.00 in0.0 mm 0.00 in0.0 mm 0.00 in0.0 mm
08:15 AM 29.7°F-1.3°C 8.9°F-12.8°C 41% 4.9 mph NNE7.9 kmh NNE 12.1 mph19.5 kmh 30.48 in1032.2 mb 0.00 in0.0 mm 0.00 in0.0 mm 0.00 in0.0 mm
08:16 AM 29.7°F-1.3°C 8.9°F-12.8°C 41% 6.0 mph NE9.7 kmh NE 12.1 mph19.5 kmh 30.48 in1032.2 mb 0.00 in0.0 mm 0.00 in0.0 mm 0.00 in0.0 mm
08:17 AM 29.7°F-1.3°C 8.9°F-12.8°C 41% 4.9 mph NE7.9 kmh NE 12.1 mph19.5 kmh 30.48 in1032.2 mb 0.00 in0.0 mm 0.00 in0.0 mm 0.00 in0.0 mm
08:18 AM 29.7°F-1.3°C 8.9°F-12.8°C 41% 4.9 mph ENE7.9 kmh ENE 12.1 mph19.5 kmh 30.48 in1032.2 mb 0.00 in0.0 mm 0.00 in0.0 mm 0.00 in0.0 mm
08:19 AM 29.8°F-1.2°C 9.0°F-12.8°C 41% 4.9 mph NE7.9 kmh NE 12.1 mph19.5 kmh 30.48 in1032.2 mb 0.00 in0.0 mm 0.00 in0.0 mm 0.00 in0.0 mm
08:20 AM 29.8°F-1.2°C 9.0°F-12.8°C 41% 4.9 mph NE7.9 kmh NE 11.0 mph17.7 kmh 30.48 in1032.2 mb 0.00 in0.0 mm 0.00 in0.0 mm 0.00 in0.0 mm
08:21 AM 30.0°F-1.1°C 8.6°F-13.0°C 40% 4.9 mph NNE7.9 kmh NNE 12.1 mph19.5 kmh 30.48 in1032.2 mb 0.00 in0.0 mm 0.00 in0.0 mm 0.00 in0.0 mm
08:22 AM 30.0°F-1.1°C 9.2°F-12.7°C 41% 4.9 mph NNE7.9 kmh NNE 12.1 mph19.5 kmh 30.48 in1032.2 mb 0.00 in0.0 mm 0.00 in0.0 mm 0.00 in0.0 mm
08:23 AM 30.0°F-1.1°C 9.2°F-12.7°C 41% 4.9 mph NE7.9 kmh NE 12.1 mph19.5 kmh 30.48 in1032.2 mb 0.00 in0.0 mm 0.00 in0.0 mm 0.00 in0.0 mm
08:24 AM 30.0°F-1.1°C 8.6°F-13.0°C 40% 4.9 mph N7.9 kmh N 12.1 mph19.5 kmh 30.48 in1032.2 mb 0.00 in0.0 mm 0.00 in0.0 mm 0.00 in0.0 mm
08:25 AM 30.0°F-1.1°C 8.6°F-13.0°C 40% 4.9 mph NE7.9 kmh NE 12.1 mph19.5 kmh 30.48 in1032.2 mb 0.00 in0.0 mm 0.00 in0.0 mm 0.00 in0.0 mm
08:26 AM 30.0°F-1.1°C 9.2°F-12.7°C 41% 4.9 mph NNE7.9 kmh NNE 12.1 mph19.5 kmh 30.48 in1032.2 mb 0.00 in0.0 mm 0.00 in0.0 mm 0.00 in0.0 mm
08:27 AM 30.0°F-1.1°C 9.2°F-12.7°C 41% 4.9 mph E7.9 kmh E 12.1 mph19.5 kmh 30.48 in1032.2 mb 0.00 in0.0 mm 0.00 in0.0 mm 0.00 in0.0 mm
08:28 AM 30.0°F-1.1°C 9.2°F-12.7°C 41% 4.9 mph E7.9 kmh E 12.1 mph19.5 kmh 30.48 in1032.2 mb 0.00 in0.0 mm 0.00 in0.0 mm 0.00 in0.0 mm
08:29 AM 30.0°F-1.1°C 9.2°F-12.7°C 41% 4.9 mph ENE7.9 kmh ENE 12.1 mph19.5 kmh 30.48 in1032.2 mb 0.00 in0.0 mm 0.00 in0.0 mm 0.00 in0.0 mm
08:30 AM 30.0°F-1.1°C 9.2°F-12.7°C 41% 4.9 mph NE7.9 kmh NE 12.1 mph19.5 kmh 30.48 in1032.2 mb 0.00 in0.0 mm 0.00 in0.0 mm 0.00 in0.0 mm
08:31 AM 30.2°F-1.0°C 9.4°F-12.6°C 41% 4.9 mph NNE7.9 kmh NNE 12.0 mph19.3 kmh 30.48 in1032.2 mb 0.00 in0.0 mm 0.00 in0.0 mm 0.00 in0.0 mm
08:32 AM 30.2°F-1.0°C 9.4°F-12.6°C 41% 4.9 mph NNE7.9 kmh NNE 12.0 mph19.3 kmh 30.48 in1032.2 mb 0.00 in0.0 mm 0.00 in0.0 mm 0.00 in0.0 mm
08:33 AM 30.4°F-0.9°C 9.5°F-12.5°C 41% 4.0 mph E6.4 kmh E 12.0 mph19.3 kmh 30.48 in1032.2 mb 0.00 in0.0 mm 0.00 in0.0 mm 0.00 in0.0 mm
08:34 AM 30.4°F-0.9°C 9.5°F-12.5°C 41% 4.0 mph NE6.4 kmh NE 12.0 mph19.3 kmh 30.48 in1032.2 mb 0.00 in0.0 mm 0.00 in0.0 mm 0.00 in0.0 mm
08:35 AM 30.6°F-0.8°C 9.2°F-12.7°C 40% 4.0 mph NE6.4 kmh NE 12.0 mph19.3 kmh 30.47 in1031.8 mb 0.00 in0.0 mm 0.00 in0.0 mm 0.00 in0.0 mm
08:36 AM 30.6°F-0.8°C 9.7°F-12.4°C 41% 4.0 mph NE6.4 kmh NE 12.0 mph19.3 kmh 30.47 in1031.8 mb 0.00 in0.0 mm 0.00 in0.0 mm 0.00 in0.0 mm
08:37 AM 30.7°F-0.7°C 9.3°F-12.6°C 40% 4.0 mph NNE6.4 kmh NNE 13.0 mph20.9 kmh 30.47 in1031.8 mb 0.00 in0.0 mm 0.00 in0.0 mm 0.00 in0.0 mm
08:38 AM 30.7°F-0.7°C 9.3°F-12.6°C 40% 4.0 mph NE6.4 kmh NE 13.0 mph20.9 kmh 30.47 in1031.8 mb 0.00 in0.0 mm 0.00 in0.0 mm 0.00 in0.0 mm
08:39 AM 30.7°F-0.7°C 8.7°F-12.9°C 39% 4.0 mph E6.4 kmh E 13.0 mph20.9 kmh 30.47 in1031.8 mb 0.00 in0.0 mm 0.00 in0.0 mm 0.00 in0.0 mm
08:40 AM 30.7°F-0.7°C 8.7°F-12.9°C 39% 4.0 mph ENE6.4 kmh ENE 13.0 mph20.9 kmh 30.48 in1032.2 mb 0.00 in0.0 mm 0.00 in0.0 mm 0.00 in0.0 mm
08:41 AM 30.9°F-0.6°C 9.5°F-12.5°C 40% 4.0 mph NNE6.4 kmh NNE 13.0 mph20.9 kmh 30.48 in1032.2 mb 0.00 in0.0 mm 0.00 in0.0 mm 0.00 in0.0 mm
08:42 AM 30.9°F-0.6°C 8.9°F-12.8°C 39% 4.9 mph E7.9 kmh E 13.0 mph20.9 kmh 30.48 in1032.2 mb 0.00 in0.0 mm 0.00 in0.0 mm 0.00 in0.0 mm
08:43 AM 31.1°F-0.5°C 9.6°F-12.4°C 40% 4.9 mph NE7.9 kmh NE 13.0 mph20.9 kmh 30.48 in1032.2 mb 0.00 in0.0 mm 0.00 in0.0 mm 0.00 in0.0 mm
08:44 AM 31.1°F-0.5°C 9.1°F-12.7°C 39% 4.9 mph N7.9 kmh N 13.0 mph20.9 kmh 30.48 in1032.2 mb 0.00 in0.0 mm 0.00 in0.0 mm 0.00 in0.0 mm
08:45 AM 31.3°F-0.4°C 9.2°F-12.7°C 39% 4.9 mph NE7.9 kmh NE 13.0 mph20.9 kmh 30.48 in1032.2 mb 0.00 in0.0 mm 0.00 in0.0 mm 0.00 in0.0 mm
08:46 AM 31.3°F-0.4°C 8.7°F-12.9°C 38% 4.9 mph NNE7.9 kmh NNE 14.1 mph22.7 kmh 30.48 in1032.2 mb 0.00 in0.0 mm 0.00 in0.0 mm 0.00 in0.0 mm
08:47 AM 31.3°F-0.4°C 8.7°F-12.9°C 38% 4.9 mph E7.9 kmh E 14.1 mph22.7 kmh 30.48 in1032.2 mb 0.00 in0.0 mm 0.00 in0.0 mm 0.00 in0.0 mm
08:48 AM 31.3°F-0.4°C 8.7°F-12.9°C 38% 4.9 mph NE7.9 kmh NE 14.1 mph22.7 kmh 30.48 in1032.2 mb 0.00 in0.0 mm 0.00 in0.0 mm 0.00 in0.0 mm
08:49 AM 31.3°F-0.4°C 8.7°F-12.9°C 38% 4.9 mph NE7.9 kmh NE 14.1 mph22.7 kmh 30.48 in1032.2 mb 0.00 in0.0 mm 0.00 in0.0 mm 0.00 in0.0 mm
08:50 AM 31.5°F-0.3°C 8.9°F-12.8°C 38% 4.9 mph ENE7.9 kmh ENE 14.1 mph22.7 kmh 30.48 in1032.2 mb 0.00 in0.0 mm 0.00 in0.0 mm 0.00 in0.0 mm
08:51 AM 31.5°F-0.3°C 8.9°F-12.8°C 38% 4.9 mph NE7.9 kmh NE 14.1 mph22.7 kmh 30.48 in1032.2 mb 0.00 in0.0 mm 0.00 in0.0 mm 0.00 in0.0 mm
08:52 AM 31.5°F-0.3°C 8.9°F-12.8°C 38% 4.9 mph N7.9 kmh N 14.1 mph22.7 kmh 30.48 in1032.2 mb 0.00 in0.0 mm 0.00 in0.0 mm 0.00 in0.0 mm
08:53 AM 31.6°F-0.2°C 8.9°F-12.8°C 38% 4.9 mph NNE7.9 kmh NNE 14.1 mph22.7 kmh 30.48 in1032.2 mb 0.00 in0.0 mm 0.00 in0.0 mm 0.00 in0.0 mm
08:54 AM 31.8°F-0.1°C 8.5°F-13.1°C 37% 4.9 mph NE7.9 kmh NE 14.1 mph22.7 kmh 30.48 in1032.2 mb 0.00 in0.0 mm 0.00 in0.0 mm 0.00 in0.0 mm
08:55 AM 31.8°F-0.1°C 9.1°F-12.7°C 38% 4.9 mph NNE7.9 kmh NNE 14.1 mph22.7 kmh 30.48 in1032.2 mb 0.00 in0.0 mm 0.00 in0.0 mm 0.00 in0.0 mm
08:56 AM 32.0°F0.0°C 9.3°F-12.6°C 38% 4.9 mph N7.9 kmh N 13.0 mph20.9 kmh 30.48 in1032.2 mb 0.00 in0.0 mm 0.00 in0.0 mm 0.00 in0.0 mm
08:57 AM 32.2°F0.1°C 9.5°F-12.5°C 38% 4.0 mph NE6.4 kmh NE 13.0 mph20.9 kmh 30.48 in1032.2 mb 0.00 in0.0 mm 0.00 in0.0 mm 0.00 in0.0 mm
08:58 AM 32.4°F0.2°C 9.1°F-12.7°C 37% 4.0 mph NE6.4 kmh NE 13.0 mph20.9 kmh 30.48 in1032.2 mb 0.00 in0.0 mm 0.00 in0.0 mm 0.00 in0.0 mm
08:59 AM 32.4°F0.2°C 9.7°F-12.4°C 38% 4.0 mph E6.4 kmh E 13.0 mph20.9 kmh 30.48 in1032.2 mb 0.00 in0.0 mm 0.00 in0.0 mm 0.00 in0.0 mm
09:00 AM 32.4°F0.2°C 9.1°F-12.7°C 37% 4.0 mph NE6.4 kmh NE 13.0 mph20.9 kmh 30.48 in1032.2 mb 0.00 in0.0 mm 0.00 in0.0 mm 0.00 in0.0 mm
09:01 AM 32.4°F0.2°C 9.7°F-12.4°C 38% 4.0 mph ENE6.4 kmh ENE 11.0 mph17.7 kmh 30.48 in1032.2 mb 0.00 in0.0 mm 0.00 in0.0 mm 0.00 in0.0 mm
09:02 AM 32.5°F0.3°C 9.7°F-12.4°C 38% 4.0 mph NE6.4 kmh NE 13.0 mph20.9 kmh 30.48 in1032.2 mb 0.00 in0.0 mm 0.00 in0.0 mm 0.00 in0.0 mm
09:03 AM 32.5°F0.3°C 9.7°F-12.4°C 38% 4.0 mph NE6.4 kmh NE 13.0 mph20.9 kmh 30.48 in1032.2 mb 0.00 in0.0 mm 0.00 in0.0 mm 0.00 in0.0 mm
09:04 AM 32.5°F0.3°C 8.5°F-13.1°C 36% 2.9 mph ENE4.7 kmh ENE 13.0 mph20.9 kmh 30.48 in1032.2 mb 0.00 in0.0 mm 0.00 in0.0 mm 0.00 in0.0 mm
09:05 AM 32.5°F0.3°C 9.2°F-12.7°C 37% 2.9 mph NE4.7 kmh NE 13.0 mph20.9 kmh 30.48 in1032.2 mb 0.00 in0.0 mm 0.00 in0.0 mm 0.00 in0.0 mm
09:06 AM 32.5°F0.3°C 8.5°F-13.1°C 36% 4.0 mph NE6.4 kmh NE 14.1 mph22.7 kmh 30.49 in1032.5 mb 0.00 in0.0 mm 0.00 in0.0 mm 0.00 in0.0 mm
09:07 AM 32.5°F0.3°C 8.5°F-13.1°C 36% 4.0 mph NNE6.4 kmh NNE 14.1 mph22.7 kmh 30.48 in1032.2 mb 0.00 in0.0 mm 0.00 in0.0 mm 0.00 in0.0 mm
09:08 AM 32.7°F0.4°C 9.3°F-12.6°C 37% 4.0 mph NE6.4 kmh NE 14.1 mph22.7 kmh 30.48 in1032.2 mb 0.00 in0.0 mm 0.00 in0.0 mm 0.00 in0.0 mm
09:09 AM 32.7°F0.4°C 9.3°F-12.6°C 37% 4.0 mph NNE6.4 kmh NNE 14.1 mph22.7 kmh 30.48 in1032.2 mb 0.00 in0.0 mm 0.00 in0.0 mm 0.00 in0.0 mm
09:10 AM 32.9°F0.5°C 10.1°F-12.2°C 38% 4.0 mph ENE6.4 kmh ENE 14.1 mph22.7 kmh 30.49 in1032.5 mb 0.00 in0.0 mm 0.00 in0.0 mm 0.00 in0.0 mm
09:11 AM 33.1°F0.6°C 9.7°F-12.4°C 37% 4.0 mph ENE6.4 kmh ENE 14.1 mph22.7 kmh 30.48 in1032.2 mb 0.00 in0.0 mm 0.00 in0.0 mm 0.00 in0.0 mm
09:12 AM 33.3°F0.7°C 9.3°F-12.6°C 36% 4.0 mph E6.4 kmh E 14.1 mph22.7 kmh 30.48 in1032.2 mb 0.00 in0.0 mm 0.00 in0.0 mm 0.00 in0.0 mm
09:13 AM 33.3°F0.7°C 9.3°F-12.6°C 36% 4.0 mph NNE6.4 kmh NNE 14.1 mph22.7 kmh 30.48 in1032.2 mb 0.00 in0.0 mm 0.00 in0.0 mm 0.00 in0.0 mm
09:14 AM 33.3°F0.7°C 9.3°F-12.6°C 36% 4.0 mph NE6.4 kmh NE 14.1 mph22.7 kmh 30.49 in1032.5 mb 0.00 in0.0 mm 0.00 in0.0 mm 0.00 in0.0 mm
09:15 AM 33.3°F0.7°C 8.6°F-13.0°C 35% 4.0 mph NE6.4 kmh NE 14.1 mph22.7 kmh 30.48 in1032.2 mb 0.00 in0.0 mm 0.00 in0.0 mm 0.00 in0.0 mm
09:16 AM 33.3°F0.7°C 9.3°F-12.6°C 36% 4.0 mph NE6.4 kmh NE 14.0 mph22.5 kmh 30.48 in1032.2 mb 0.00 in0.0 mm 0.00 in0.0 mm 0.00 in0.0 mm
09:17 AM 33.3°F0.7°C 9.3°F-12.6°C 36% 4.0 mph E6.4 kmh E 14.0 mph22.5 kmh 30.48 in1032.2 mb 0.00 in0.0 mm 0.00 in0.0 mm 0.00 in0.0 mm
09:18 AM 33.3°F0.7°C 8.6°F-13.0°C 35% 4.0 mph NE6.4 kmh NE 14.0 mph22.5 kmh 30.48 in1032.2 mb 0.00 in0.0 mm 0.00 in0.0 mm 0.00 in0.0 mm
09:19 AM 33.4°F0.8°C 10.0°F-12.2°C 37% 4.0 mph NE6.4 kmh NE 14.0 mph22.5 kmh 30.49 in1032.5 mb 0.00 in0.0 mm 0.00 in0.0 mm 0.00 in0.0 mm
09:20 AM 33.4°F0.8°C 9.4°F-12.6°C 36% 4.0 mph ENE6.4 kmh ENE 14.0 mph22.5 kmh 30.48 in1032.2 mb 0.00 in0.0 mm 0.00 in0.0 mm 0.00 in0.0 mm
09:21 AM 33.4°F0.8°C 8.7°F-12.9°C 35% 4.0 mph N6.4 kmh N 14.0 mph22.5 kmh 30.49 in1032.5 mb 0.00 in0.0 mm 0.00 in0.0 mm 0.00 in0.0 mm
09:22 AM 33.4°F0.8°C 9.4°F-12.6°C 36% 4.0 mph NW6.4 kmh NW 14.0 mph22.5 kmh 30.48 in1032.2 mb 0.00 in0.0 mm 0.00 in0.0 mm 0.00 in0.0 mm
09:23 AM 33.4°F0.8°C 8.7°F-12.9°C 35% 4.0 mph NE6.4 kmh NE 14.0 mph22.5 kmh 30.48 in1032.2 mb 0.00 in0.0 mm 0.00 in0.0 mm 0.00 in0.0 mm
09:24 AM 33.4°F0.8°C 8.1°F-13.3°C 34% 4.0 mph NE6.4 kmh NE 14.0 mph22.5 kmh 30.49 in1032.5 mb 0.00 in0.0 mm 0.00 in0.0 mm 0.00 in0.0 mm
09:25 AM 33.4°F0.8°C 7.4°F-13.7°C 33% 4.9 mph ENE7.9 kmh ENE 14.0 mph22.5 kmh 30.48 in1032.2 mb 0.00 in0.0 mm 0.00 in0.0 mm 0.00 in0.0 mm
09:26 AM 33.4°F0.8°C 8.1°F-13.3°C 34% 4.9 mph ENE7.9 kmh ENE 11.0 mph17.7 kmh 30.48 in1032.2 mb 0.00 in0.0 mm 0.00 in0.0 mm 0.00 in0.0 mm
09:27 AM 33.4°F0.8°C 8.7°F-12.9°C 35% 4.0 mph NNE6.4 kmh NNE 11.0 mph17.7 kmh 30.48 in1032.2 mb 0.00 in0.0 mm 0.00 in0.0 mm 0.00 in0.0 mm
09:28 AM 33.4°F0.8°C 8.1°F-13.3°C 34% 4.0 mph NE6.4 kmh NE 11.0 mph17.7 kmh 30.48 in1032.2 mb 0.00 in0.0 mm 0.00 in0.0 mm 0.00 in0.0 mm
09:29 AM 33.6°F0.9°C 8.9°F-12.8°C 35% 4.0 mph E6.4 kmh E 11.0 mph17.7 kmh 30.48 in1032.2 mb 0.00 in0.0 mm 0.00 in0.0 mm 0.00 in0.0 mm
09:30 AM 33.6°F0.9°C 8.9°F-12.8°C 35% 4.0 mph NE6.4 kmh NE 11.0 mph17.7 kmh 30.48 in1032.2 mb 0.00 in0.0 mm 0.00 in0.0 mm 0.00 in0.0 mm
09:31 AM 33.8°F1.0°C 8.4°F-13.1°C 34% 4.0 mph NNE6.4 kmh NNE 11.0 mph17.7 kmh 30.48 in1032.2 mb 0.00 in0.0 mm 0.00 in0.0 mm 0.00 in0.0 mm
09:32 AM 34.0°F1.1°C 8.6°F-13.0°C 34% 4.0 mph NE6.4 kmh NE 11.0 mph17.7 kmh 30.48 in1032.2 mb 0.00 in0.0 mm 0.00 in0.0 mm 0.00 in0.0 mm
09:33 AM 34.0°F1.1°C 8.0°F-13.3°C 33% 4.0 mph ENE6.4 kmh ENE 11.0 mph17.7 kmh 30.48 in1032.2 mb 0.00 in0.0 mm 0.00 in0.0 mm 0.00 in0.0 mm
09:34 AM 33.8°F1.0°C 7.8°F-13.4°C 33% 4.0 mph ENE6.4 kmh ENE 11.0 mph17.7 kmh 30.48 in1032.2 mb 0.00 in0.0 mm 0.00 in0.0 mm 0.00 in0.0 mm
09:35 AM 34.0°F1.1°C 8.6°F-13.0°C 34% 4.0 mph NE6.4 kmh NE 11.0 mph17.7 kmh 30.48 in1032.2 mb 0.00 in0.0 mm 0.00 in0.0 mm 0.00 in0.0 mm
09:36 AM 33.8°F1.0°C 8.4°F-13.1°C 34% 4.0 mph E6.4 kmh E 11.0 mph17.7 kmh 30.48 in1032.2 mb 0.00 in0.0 mm 0.00 in0.0 mm 0.00 in0.0 mm
09:37 AM 34.0°F1.1°C 8.6°F-13.0°C 34% 4.0 mph NE6.4 kmh NE 11.0 mph17.7 kmh 30.48 in1032.2 mb 0.00 in0.0 mm 0.00 in0.0 mm 0.00 in0.0 mm
09:38 AM 33.8°F1.0°C 7.8°F-13.4°C 33% 4.0 mph E6.4 kmh E 11.0 mph17.7 kmh 30.48 in1032.2 mb 0.00 in0.0 mm 0.00 in0.0 mm 0.00 in0.0 mm
09:39 AM 33.8°F1.0°C 7.1°F-13.8°C 32% 4.0 mph NE6.4 kmh NE 11.0 mph17.7 kmh 30.48 in1032.2 mb 0.00 in0.0 mm 0.00 in0.0 mm 0.00 in0.0 mm
09:40 AM 33.6°F0.9°C 6.9°F-13.9°C 32% 4.9 mph ENE7.9 kmh ENE 11.0 mph17.7 kmh 30.49 in1032.5 mb 0.00 in0.0 mm 0.00 in0.0 mm 0.00 in0.0 mm
09:41 AM 33.6°F0.9°C 6.9°F-13.9°C 32% 4.9 mph NNE7.9 kmh NNE 11.0 mph17.7 kmh 30.49 in1032.5 mb 0.00 in0.0 mm 0.00 in0.0 mm 0.00 in0.0 mm
09:42 AM 33.6°F0.9°C 6.9°F-13.9°C 32% 4.9 mph NE7.9 kmh NE 11.0 mph17.7 kmh 30.49 in1032.5 mb 0.00 in0.0 mm 0.00 in0.0 mm 0.00 in0.0 mm
09:43 AM 33.6°F0.9°C 6.9°F-13.9°C 32% 4.9 mph NNE7.9 kmh NNE 11.0 mph17.7 kmh 30.48 in1032.2 mb 0.00 in0.0 mm 0.00 in0.0 mm 0.00 in0.0 mm
09:44 AM 33.6°F0.9°C 7.6°F-13.6°C 33% 4.9 mph E7.9 kmh E 11.0 mph17.7 kmh 30.48 in1032.2 mb 0.00 in0.0 mm 0.00 in0.0 mm 0.00 in0.0 mm
09:45 AM 33.8°F1.0°C 7.1°F-13.8°C 32% 4.9 mph NE7.9 kmh NE 11.0 mph17.7 kmh 30.48 in1032.2 mb 0.00 in0.0 mm 0.00 in0.0 mm 0.00 in0.0 mm
09:46 AM 34.0°F1.1°C 8.0°F-13.3°C 33% 4.9 mph NE7.9 kmh NE 11.0 mph17.7 kmh 30.48 in1032.2 mb 0.00 in0.0 mm 0.00 in0.0 mm 0.00 in0.0 mm
09:47 AM 34.0°F1.1°C 7.3°F-13.7°C 32% 4.9 mph NE7.9 kmh NE 11.0 mph17.7 kmh 30.48 in1032.2 mb 0.00 in0.0 mm 0.00 in0.0 mm 0.00 in0.0 mm
09:48 AM 34.2°F1.2°C 7.5°F-13.6°C 32% 4.9 mph E7.9 kmh E 11.0 mph17.7 kmh 30.48 in1032.2 mb 0.00 in0.0 mm 0.00 in0.0 mm 0.00 in0.0 mm
09:49 AM 34.3°F1.3°C 8.9°F-12.8°C 34% 4.9 mph N7.9 kmh N 11.0 mph17.7 kmh 30.49 in1032.5 mb 0.00 in0.0 mm 0.00 in0.0 mm 0.00 in0.0 mm
09:50 AM 34.3°F1.3°C 7.5°F-13.6°C 32% 4.9 mph N7.9 kmh N 11.0 mph17.7 kmh 30.48 in1032.2 mb 0.00 in0.0 mm 0.00 in0.0 mm 0.00 in0.0 mm
09:51 AM 34.5°F1.4°C 9.1°F-12.7°C 34% 4.0 mph NNE6.4 kmh NNE 11.0 mph17.7 kmh 30.49 in1032.5 mb 0.00 in0.0 mm 0.00 in0.0 mm 0.00 in0.0 mm
09:52 AM 34.7°F1.5°C 7.9°F-13.4°C 32% 4.0 mph ENE6.4 kmh ENE 11.0 mph17.7 kmh 30.48 in1032.2 mb 0.00 in0.0 mm 0.00 in0.0 mm 0.00 in0.0 mm
09:53 AM 34.9°F1.6°C 7.4°F-13.7°C 31% 4.0 mph ENE6.4 kmh ENE 11.0 mph17.7 kmh 30.48 in1032.2 mb 0.00 in0.0 mm 0.00 in0.0 mm 0.00 in0.0 mm
09:54 AM 34.9°F1.6°C 7.4°F-13.7°C 31% 4.0 mph NE6.4 kmh NE 11.0 mph17.7 kmh 30.48 in1032.2 mb 0.00 in0.0 mm 0.00 in0.0 mm 0.00 in0.0 mm
09:55 AM 34.9°F1.6°C 6.6°F-14.1°C 30% 4.0 mph NE6.4 kmh NE 14.1 mph22.7 kmh 30.49 in1032.5 mb 0.00 in0.0 mm 0.00 in0.0 mm 0.00 in0.0 mm
09:56 AM 34.7°F1.5°C 5.7°F-14.6°C 29% 4.9 mph NE7.9 kmh NE 16.1 mph25.9 kmh 30.48 in1032.2 mb 0.00 in0.0 mm 0.00 in0.0 mm 0.00 in0.0 mm
09:57 AM 34.7°F1.5°C 5.7°F-14.6°C 29% 4.9 mph N7.9 kmh N 16.1 mph25.9 kmh 30.48 in1032.2 mb 0.00 in0.0 mm 0.00 in0.0 mm 0.00 in0.0 mm
09:58 AM 34.9°F1.6°C 5.9°F-14.5°C 29% 4.9 mph NE7.9 kmh NE 16.1 mph25.9 kmh 30.48 in1032.2 mb 0.00 in0.0 mm 0.00 in0.0 mm 0.00 in0.0 mm
09:59 AM 34.9°F1.6°C 5.9°F-14.5°C 29% 4.9 mph NNW7.9 kmh NNW 16.1 mph25.9 kmh 30.48 in1032.2 mb 0.00 in0.0 mm 0.00 in0.0 mm 0.00 in0.0 mm
10:00 AM 34.9°F1.6°C 5.1°F-14.9°C 28% 4.9 mph WSW7.9 kmh WSW 16.1 mph25.9 kmh 30.48 in1032.2 mb 0.00 in0.0 mm 0.00 in0.0 mm 0.00 in0.0 mm
10:01 AM 35.1°F1.7°C 5.3°F-14.8°C 28% 4.9 mph E7.9 kmh E 16.1 mph25.9 kmh 30.48 in1032.2 mb 0.00 in0.0 mm 0.00 in0.0 mm 0.00 in0.0 mm
10:02 AM 35.1°F1.7°C 5.3°F-14.8°C 28% 6.0 mph NNE9.7 kmh NNE 16.1 mph25.9 kmh 30.48 in1032.2 mb 0.00 in0.0 mm 0.00 in0.0 mm 0.00 in0.0 mm
10:03 AM 35.1°F1.7°C 4.5°F-15.3°C 27% 6.0 mph NE9.7 kmh NE 16.1 mph25.9 kmh 30.48 in1032.2 mb 0.00 in0.0 mm 0.00 in0.0 mm 0.00 in0.0 mm
10:04 AM 35.1°F1.7°C 5.3°F-14.8°C 28% 6.0 mph NE9.7 kmh NE 16.1 mph25.9 kmh 30.48 in1032.2 mb 0.00 in0.0 mm 0.00 in0.0 mm 0.00 in0.0 mm
10:05 AM 35.1°F1.7°C 5.3°F-14.8°C 28% 6.0 mph NE9.7 kmh NE 16.1 mph25.9 kmh 30.48 in1032.2 mb 0.00 in0.0 mm 0.00 in0.0 mm 0.00 in0.0 mm
10:06 AM 35.2°F1.8°C 6.9°F-13.9°C 30% 4.9 mph NNE7.9 kmh NNE 16.0 mph25.7 kmh 30.48 in1032.2 mb 0.00 in0.0 mm 0.00 in0.0 mm 0.00 in0.0 mm
10:07 AM 35.2°F1.8°C 7.6°F-13.6°C 31% 4.9 mph E7.9 kmh E 16.0 mph25.7 kmh 30.48 in1032.2 mb 0.00 in0.0 mm 0.00 in0.0 mm 0.00 in0.0 mm
10:08 AM 35.4°F1.9°C 7.1°F-13.8°C 30% 4.9 mph NE7.9 kmh NE 16.0 mph25.7 kmh 30.48 in1032.2 mb 0.00 in0.0 mm 0.00 in0.0 mm 0.00 in0.0 mm
10:09 AM 35.4°F1.9°C 7.8°F-13.4°C 31% 4.9 mph NE7.9 kmh NE 16.0 mph25.7 kmh 30.48 in1032.2 mb 0.00 in0.0 mm 0.00 in0.0 mm 0.00 in0.0 mm
10:10 AM 35.6°F2.0°C 6.5°F-14.2°C 29% 4.0 mph E6.4 kmh E 16.0 mph25.7 kmh 30.48 in1032.2 mb 0.00 in0.0 mm 0.00 in0.0 mm 0.00 in0.0 mm
10:11 AM 35.8°F2.1°C 8.9°F-12.8°C 32% 4.0 mph NNE6.4 kmh NNE 16.0 mph25.7 kmh 30.48 in1032.2 mb 0.00 in0.0 mm 0.00 in0.0 mm 0.00 in0.0 mm
10:12 AM 35.8°F2.1°C 5.9°F-14.5°C 28% 4.0 mph E6.4 kmh E 16.0 mph25.7 kmh 30.48 in1032.2 mb 0.00 in0.0 mm 0.00 in0.0 mm 0.00 in0.0 mm
10:13 AM 35.8°F2.1°C 5.9°F-14.5°C 28% 4.0 mph NE6.4 kmh NE 16.0 mph25.7 kmh 30.48 in1032.2 mb 0.00 in0.0 mm 0.00 in0.0 mm 0.00 in0.0 mm
10:14 AM 35.8°F2.1°C 5.1°F-14.9°C 27% 4.0 mph N6.4 kmh N 16.0 mph25.7 kmh 30.48 in1032.2 mb 0.00 in0.0 mm 0.00 in0.0 mm 0.00 in0.0 mm
10:15 AM 35.6°F2.0°C 5.0°F-15.0°C 27% 4.0 mph NNE6.4 kmh NNE 16.0 mph25.7 kmh 30.48 in1032.2 mb 0.00 in0.0 mm 0.00 in0.0 mm 0.00 in0.0 mm
10:16 AM 35.6°F2.0°C 5.7°F-14.6°C 28% 4.9 mph N7.9 kmh N 15.0 mph24.1 kmh 30.48 in1032.2 mb 0.00 in0.0 mm 0.00 in0.0 mm 0.00 in0.0 mm
10:17 AM 35.8°F2.1°C 7.4°F-13.7°C 30% 4.9 mph NNE7.9 kmh NNE 15.0 mph24.1 kmh 30.48 in1032.2 mb 0.00 in0.0 mm 0.00 in0.0 mm 0.00 in0.0 mm
10:18 AM 35.8°F2.1°C 5.9°F-14.5°C 28% 4.9 mph NNE7.9 kmh NNE 15.0 mph24.1 kmh 30.48 in1032.2 mb 0.00 in0.0 mm 0.00 in0.0 mm 0.00 in0.0 mm
10:19 AM 36.0°F2.2°C 6.1°F-14.4°C 28% 4.9 mph NE7.9 kmh NE 15.0 mph24.1 kmh 30.48 in1032.2 mb 0.00 in0.0 mm 0.00 in0.0 mm 0.00 in0.0 mm
10:20 AM 36.0°F2.2°C 5.3°F-14.8°C 27% 4.9 mph ENE7.9 kmh ENE 15.0 mph24.1 kmh 30.48 in1032.2 mb 0.00 in0.0 mm 0.00 in0.0 mm 0.00 in0.0 mm
10:21 AM 35.8°F2.1°C 4.3°F-15.4°C 26% 4.9 mph E7.9 kmh E 15.0 mph24.1 kmh 30.48 in1032.2 mb 0.00 in0.0 mm 0.00 in0.0 mm 0.00 in0.0 mm
10:22 AM 35.8°F2.1°C 4.3°F-15.4°C 26% 6.0 mph NNE9.7 kmh NNE 15.0 mph24.1 kmh 30.48 in1032.2 mb 0.00 in0.0 mm 0.00 in0.0 mm 0.00 in0.0 mm
10:23 AM 35.8°F2.1°C 3.5°F-15.8°C 25% 6.0 mph E9.7 kmh E 15.0 mph24.1 kmh 30.48 in1032.2 mb 0.00 in0.0 mm 0.00 in0.0 mm 0.00 in0.0 mm
10:24 AM 35.6°F2.0°C 4.1°F-15.5°C 26% 6.0 mph NE9.7 kmh NE 15.0 mph24.1 kmh 30.48 in1032.2 mb 0.00 in0.0 mm 0.00 in0.0 mm 0.00 in0.0 mm
10:25 AM 35.6°F2.0°C 4.1°F-15.5°C 26% 4.9 mph ENE7.9 kmh ENE 15.0 mph24.1 kmh 30.48 in1032.2 mb 0.00 in0.0 mm 0.00 in0.0 mm 0.00 in0.0 mm
10:26 AM 35.8°F2.1°C 4.3°F-15.4°C 26% 4.9 mph ENE7.9 kmh ENE 15.0 mph24.1 kmh 30.48 in1032.2 mb 0.00 in0.0 mm 0.00 in0.0 mm 0.00 in0.0 mm
10:27 AM 35.8°F2.1°C 3.5°F-15.8°C 25% 6.0 mph NE9.7 kmh NE 15.0 mph24.1 kmh 30.48 in1032.2 mb 0.00 in0.0 mm 0.00 in0.0 mm 0.00 in0.0 mm
10:28 AM 35.8°F2.1°C 3.5°F-15.8°C 25% 6.0 mph NE9.7 kmh NE 15.0 mph24.1 kmh 30.48 in1032.2 mb 0.00 in0.0 mm 0.00 in0.0 mm 0.00 in0.0 mm
10:29 AM 35.8°F2.1°C 3.5°F-15.8°C 25% 6.0 mph ENE9.7 kmh ENE 15.0 mph24.1 kmh 30.49 in1032.5 mb 0.00 in0.0 mm 0.00 in0.0 mm 0.00 in0.0 mm
10:30 AM 35.8°F2.1°C 3.5°F-15.8°C 25% 6.0 mph NE9.7 kmh NE 15.0 mph24.1 kmh 30.49 in1032.5 mb 0.00 in0.0 mm 0.00 in0.0 mm 0.00 in0.0 mm
10:31 AM 35.8°F2.1°C 3.5°F-15.8°C 25% 6.0 mph NE9.7 kmh NE 14.1 mph22.7 kmh 30.48 in1032.2 mb 0.00 in0.0 mm 0.00 in0.0 mm 0.00 in0.0 mm
10:32 AM 35.6°F2.0°C 2.4°F-16.4°C 24% 6.9 mph N11.1 kmh N 14.1 mph22.7 kmh 30.48 in1032.2 mb 0.00 in0.0 mm 0.00 in0.0 mm 0.00 in0.0 mm
10:33 AM 35.8°F2.1°C 3.5°F-15.8°C 25% 6.0 mph NE9.7 kmh NE 14.1 mph22.7 kmh 30.49 in1032.5 mb 0.00 in0.0 mm 0.00 in0.0 mm 0.00 in0.0 mm
10:34 AM 35.8°F2.1°C 2.6°F-16.3°C 24% 6.0 mph 9.7 kmh 14.1 mph22.7 kmh 30.48 in1032.2 mb 0.00 in0.0 mm 0.00 in0.0 mm 0.00 in0.0 mm
10:35 AM 35.8°F2.1°C 3.5°F-15.8°C 25% 6.9 mph N11.1 kmh N 14.1 mph22.7 kmh 30.49 in1032.5 mb 0.00 in0.0 mm 0.00 in0.0 mm 0.00 in0.0 mm
10:36 AM 36.0°F2.2°C 3.6°F-15.8°C 25% 6.0 mph NE9.7 kmh NE 14.1 mph22.7 kmh 30.49 in1032.5 mb 0.00 in0.0 mm 0.00 in0.0 mm 0.00 in0.0 mm
10:37 AM 36.0°F2.2°C 4.5°F-15.3°C 26% 6.0 mph NNE9.7 kmh NNE 14.1 mph22.7 kmh 30.49 in1032.5 mb 0.00 in0.0 mm 0.00 in0.0 mm 0.00 in0.0 mm
10:38 AM 36.0°F2.2°C 2.8°F-16.2°C 24% 6.0 mph NE9.7 kmh NE 14.1 mph22.7 kmh 30.49 in1032.5 mb 0.00 in0.0 mm 0.00 in0.0 mm 0.00 in0.0 mm
10:39 AM 36.1°F2.3°C 3.7°F-15.7°C 25% 6.0 mph NNE9.7 kmh NNE 14.1 mph22.7 kmh 30.49 in1032.5 mb 0.00 in0.0 mm 0.00 in0.0 mm 0.00 in0.0 mm
10:40 AM 36.1°F2.3°C 4.6°F-15.2°C 26% 6.0 mph ENE9.7 kmh ENE 14.1 mph22.7 kmh 30.48 in1032.2 mb 0.00 in0.0 mm 0.00 in0.0 mm 0.00 in0.0 mm
10:41 AM 36.1°F2.3°C 2.8°F-16.2°C 24% 6.0 mph NE9.7 kmh NE 14.0 mph22.5 kmh 30.48 in1032.2 mb 0.00 in0.0 mm 0.00 in0.0 mm 0.00 in0.0 mm
10:42 AM 36.1°F2.3°C 2.8°F-16.2°C 24% 4.9 mph N7.9 kmh N 14.0 mph22.5 kmh 30.49 in1032.5 mb 0.00 in0.0 mm 0.00 in0.0 mm 0.00 in0.0 mm
10:43 AM 36.1°F2.3°C 2.8°F-16.2°C 24% 4.9 mph ENE7.9 kmh ENE 14.0 mph22.5 kmh 30.48 in1032.2 mb 0.00 in0.0 mm 0.00 in0.0 mm 0.00 in0.0 mm
10:44 AM 36.1°F2.3°C 2.8°F-16.2°C 24% 4.9 mph NE7.9 kmh NE 14.0 mph22.5 kmh 30.49 in1032.5 mb 0.00 in0.0 mm 0.00 in0.0 mm 0.00 in0.0 mm
10:45 AM 36.1°F2.3°C 2.8°F-16.2°C 24% 4.9 mph NNE7.9 kmh NNE 16.1 mph25.9 kmh 30.49 in1032.5 mb 0.00 in0.0 mm 0.00 in0.0 mm 0.00 in0.0 mm
10:46 AM 36.1°F2.3°C 2.8°F-16.2°C 24% 6.0 mph NE9.7 kmh NE 16.1 mph25.9 kmh 30.49 in1032.5 mb 0.00 in0.0 mm 0.00 in0.0 mm 0.00 in0.0 mm
10:47 AM 36.1°F2.3°C 2.8°F-16.2°C 24% 6.0 mph NE9.7 kmh NE 16.1 mph25.9 kmh 30.49 in1032.5 mb 0.00 in0.0 mm 0.00 in0.0 mm 0.00 in0.0 mm
10:48 AM 36.1°F2.3°C 2.8°F-16.2°C 24% 4.9 mph NNE7.9 kmh NNE 16.1 mph25.9 kmh 30.49 in1032.5 mb 0.00 in0.0 mm 0.00 in0.0 mm 0.00 in0.0 mm
10:49 AM 36.1°F2.3°C 2.8°F-16.2°C 24% 6.0 mph NNE9.7 kmh NNE 16.1 mph25.9 kmh 30.49 in1032.5 mb 0.00 in0.0 mm 0.00 in0.0 mm 0.00 in0.0 mm
10:50 AM 36.1°F2.3°C 2.8°F-16.2°C 24% 6.0 mph NE9.7 kmh NE 16.1 mph25.9 kmh 30.49 in1032.5 mb 0.00 in0.0 mm 0.00 in0.0 mm 0.00 in0.0 mm
10:51 AM 36.1°F2.3°C 3.7°F-15.7°C 25% 6.0 mph ENE9.7 kmh ENE 16.1 mph25.9 kmh 30.48 in1032.2 mb 0.00 in0.0 mm 0.00 in0.0 mm 0.00 in0.0 mm
10:52 AM 36.1°F2.3°C 2.8°F-16.2°C 24% 6.0 mph N9.7 kmh N 16.1 mph25.9 kmh 30.49 in1032.5 mb 0.00 in0.0 mm 0.00 in0.0 mm 0.00 in0.0 mm
10:53 AM 36.1°F2.3°C 3.7°F-15.7°C 25% 6.0 mph E9.7 kmh E 16.1 mph25.9 kmh 30.49 in1032.5 mb 0.00 in0.0 mm 0.00 in0.0 mm 0.00 in0.0 mm
10:54 AM 36.1°F2.3°C 3.7°F-15.7°C 25% 6.0 mph ENE9.7 kmh ENE 16.1 mph25.9 kmh 30.49 in1032.5 mb 0.00 in0.0 mm 0.00 in0.0 mm 0.00 in0.0 mm
10:55 AM 36.1°F2.3°C 2.8°F-16.2°C 24% 6.0 mph ENE9.7 kmh ENE 16.0 mph25.7 kmh 30.49 in1032.5 mb 0.00 in0.0 mm 0.00 in0.0 mm 0.00 in0.0 mm
10:56 AM 36.1°F2.3°C 2.8°F-16.2°C 24% 6.0 mph NE9.7 kmh NE 16.0 mph25.7 kmh 30.49 in1032.5 mb 0.00 in0.0 mm 0.00 in0.0 mm 0.00 in0.0 mm
10:57 AM 36.1°F2.3°C 1.9°F-16.7°C 23% 6.0 mph NE9.7 kmh NE 16.0 mph25.7 kmh 30.49 in1032.5 mb 0.00 in0.0 mm 0.00 in0.0 mm 0.00 in0.0 mm
10:58 AM 36.1°F2.3°C 2.8°F-16.2°C 24% 6.0 mph NE9.7 kmh NE 16.0 mph25.7 kmh 30.49 in1032.5 mb 0.00 in0.0 mm 0.00 in0.0 mm 0.00 in0.0 mm
10:59 AM 36.3°F2.4°C 3.9°F-15.6°C 25% 6.0 mph NE9.7 kmh NE 16.0 mph25.7 kmh 30.49 in1032.5 mb 0.00 in0.0 mm 0.00 in0.0 mm 0.00 in0.0 mm
11:00 AM 36.5°F2.5°C 4.1°F-15.5°C 25% 4.9 mph S7.9 kmh S 16.0 mph25.7 kmh 30.48 in1032.2 mb 0.00 in0.0 mm 0.00 in0.0 mm 0.00 in0.0 mm
11:01 AM 36.7°F2.6°C 3.3°F-15.9°C 24% 4.9 mph NE7.9 kmh NE 16.0 mph25.7 kmh 30.48 in1032.2 mb 0.00 in0.0 mm 0.00 in0.0 mm 0.00 in0.0 mm
11:02 AM 36.7°F2.6°C 2.4°F-16.4°C 23% 4.9 mph NNE7.9 kmh NNE 16.0 mph25.7 kmh 30.48 in1032.2 mb 0.00 in0.0 mm 0.00 in0.0 mm 0.00 in0.0 mm
11:03 AM 36.7°F2.6°C 3.3°F-15.9°C 24% 4.9 mph E7.9 kmh E 16.0 mph25.7 kmh 30.48 in1032.2 mb 0.00 in0.0 mm 0.00 in0.0 mm 0.00 in0.0 mm
11:04 AM 36.7°F2.6°C 3.3°F-15.9°C 24% 4.9 mph E7.9 kmh E 16.0 mph25.7 kmh 30.49 in1032.5 mb 0.00 in0.0 mm 0.00 in0.0 mm 0.00 in0.0 mm
11:05 AM 36.7°F2.6°C 3.3°F-15.9°C 24% 4.9 mph NNE7.9 kmh NNE 14.0 mph22.5 kmh 30.48 in1032.2 mb 0.00 in0.0 mm 0.00 in0.0 mm 0.00 in0.0 mm
11:06 AM 36.7°F2.6°C 3.3°F-15.9°C 24% 4.9 mph NE7.9 kmh NE 14.0 mph22.5 kmh 30.48 in1032.2 mb 0.00 in0.0 mm 0.00 in0.0 mm 0.00 in0.0 mm
11:07 AM 36.5°F2.5°C 2.3°F-16.5°C 23% 4.9 mph 7.9 kmh 15.0 mph24.1 kmh 30.49 in1032.5 mb 0.00 in0.0 mm 0.00 in0.0 mm 0.00 in0.0 mm
11:08 AM 36.5°F2.5°C 2.3°F-16.5°C 23% 4.9 mph NE7.9 kmh NE 15.0 mph24.1 kmh 30.48 in1032.2 mb 0.00 in0.0 mm 0.00 in0.0 mm 0.00 in0.0 mm
11:09 AM 36.5°F2.5°C 2.3°F-16.5°C 23% 6.0 mph E9.7 kmh E 15.0 mph24.1 kmh 30.48 in1032.2 mb 0.00 in0.0 mm 0.00 in0.0 mm 0.00 in0.0 mm
11:10 AM 36.3°F2.4°C 2.1°F-16.6°C 23% 6.0 mph N9.7 kmh N 15.0 mph24.1 kmh 30.48 in1032.2 mb 0.00 in0.0 mm 0.00 in0.0 mm 0.00 in0.0 mm
11:11 AM 36.3°F2.4°C 2.1°F-16.6°C 23% 6.9 mph NNE11.1 kmh NNE 15.0 mph24.1 kmh 30.48 in1032.2 mb 0.00 in0.0 mm 0.00 in0.0 mm 0.00 in0.0 mm
11:12 AM 36.5°F2.5°C 4.1°F-15.5°C 25% 6.0 mph E9.7 kmh E 15.0 mph24.1 kmh 30.48 in1032.2 mb 0.00 in0.0 mm 0.00 in0.0 mm 0.00 in0.0 mm
11:13 AM 36.7°F2.6°C 3.3°F-15.9°C 24% 6.0 mph NE9.7 kmh NE 15.0 mph24.1 kmh 30.48 in1032.2 mb 0.00 in0.0 mm 0.00 in0.0 mm 0.00 in0.0 mm
11:14 AM 36.7°F2.6°C 3.3°F-15.9°C 24% 6.0 mph ENE9.7 kmh ENE 15.0 mph24.1 kmh 30.48 in1032.2 mb 0.00 in0.0 mm 0.00 in0.0 mm 0.00 in0.0 mm
11:15 AM 36.9°F2.7°C 3.5°F-15.8°C 24% 4.9 mph NE7.9 kmh NE 15.0 mph24.1 kmh 30.48 in1032.2 mb 0.00 in0.0 mm 0.00 in0.0 mm 0.00 in0.0 mm
11:16 AM 36.9°F2.7°C 4.4°F-15.3°C 25% 4.9 mph NNE7.9 kmh NNE 15.0 mph24.1 kmh 30.48 in1032.2 mb 0.00 in0.0 mm 0.00 in0.0 mm 0.00 in0.0 mm
11:17 AM 37.0°F2.8°C 3.6°F-15.8°C 24% 4.9 mph E7.9 kmh E 15.0 mph24.1 kmh 30.47 in1031.8 mb 0.00 in0.0 mm 0.00 in0.0 mm 0.00 in0.0 mm
11:18 AM 37.0°F2.8°C 5.3°F-14.8°C 26% 4.9 mph E7.9 kmh E 15.0 mph24.1 kmh 30.48 in1032.2 mb 0.00 in0.0 mm 0.00 in0.0 mm 0.00 in0.0 mm
11:19 AM 37.0°F2.8°C 3.6°F-15.8°C 24% 4.0 mph E6.4 kmh E 15.0 mph24.1 kmh 30.48 in1032.2 mb 0.00 in0.0 mm 0.00 in0.0 mm 0.00 in0.0 mm
11:20 AM 37.0°F2.8°C 2.7°F-16.3°C 23% 4.9 mph NNE7.9 kmh NNE 15.0 mph24.1 kmh 30.48 in1032.2 mb 0.00 in0.0 mm 0.00 in0.0 mm 0.00 in0.0 mm
11:21 AM 36.9°F2.7°C 3.5°F-15.8°C 24% 4.9 mph NE7.9 kmh NE 15.0 mph24.1 kmh 30.48 in1032.2 mb 0.00 in0.0 mm 0.00 in0.0 mm 0.00 in0.0 mm
11:22 AM 36.9°F2.7°C 2.6°F-16.3°C 23% 4.9 mph NE7.9 kmh NE 15.0 mph24.1 kmh 30.48 in1032.2 mb 0.00 in0.0 mm 0.00 in0.0 mm 0.00 in0.0 mm
11:23 AM 36.9°F2.7°C 3.5°F-15.8°C 24% 4.9 mph NE7.9 kmh NE 15.0 mph24.1 kmh 30.48 in1032.2 mb 0.00 in0.0 mm 0.00 in0.0 mm 0.00 in0.0 mm
11:24 AM 36.9°F2.7°C 3.5°F-15.8°C 24% 4.9 mph NE7.9 kmh NE 15.0 mph24.1 kmh 30.48 in1032.2 mb 0.00 in0.0 mm 0.00 in0.0 mm 0.00 in0.0 mm
11:25 AM 36.9°F2.7°C 3.5°F-15.8°C 24% 4.9 mph NE7.9 kmh NE 15.0 mph24.1 kmh 30.48 in1032.2 mb 0.00 in0.0 mm 0.00 in0.0 mm 0.00 in0.0 mm
11:26 AM 36.9°F2.7°C 2.6°F-16.3°C 23% 6.0 mph N9.7 kmh N 16.1 mph25.9 kmh 30.48 in1032.2 mb 0.00 in0.0 mm 0.00 in0.0 mm 0.00 in0.0 mm
11:27 AM 36.9°F2.7°C 1.6°F-16.9°C 22% 6.0 mph NE9.7 kmh NE 16.1 mph25.9 kmh 30.48 in1032.2 mb 0.00 in0.0 mm 0.00 in0.0 mm 0.00 in0.0 mm
11:28 AM 36.9°F2.7°C 3.5°F-15.8°C 24% 6.0 mph ENE9.7 kmh ENE 16.1 mph25.9 kmh 30.48 in1032.2 mb 0.00 in0.0 mm 0.00 in0.0 mm 0.00 in0.0 mm
11:29 AM 37.0°F2.8°C 3.6°F-15.8°C 24% 4.9 mph NE7.9 kmh NE 16.1 mph25.9 kmh 30.48 in1032.2 mb 0.00 in0.0 mm 0.00 in0.0 mm 0.00 in0.0 mm
11:30 AM 37.0°F2.8°C 2.7°F-16.3°C 23% 4.9 mph NE7.9 kmh NE 16.1 mph25.9 kmh 30.48 in1032.2 mb 0.00 in0.0 mm 0.00 in0.0 mm 0.00 in0.0 mm
11:31 AM 37.0°F2.8°C 3.6°F-15.8°C 24% 4.9 mph NE7.9 kmh NE 16.1 mph25.9 kmh 30.48 in1032.2 mb 0.00 in0.0 mm 0.00 in0.0 mm 0.00 in0.0 mm
11:32 AM 37.2°F2.9°C 4.7°F-15.2°C 25% 4.9 mph E7.9 kmh E 16.1 mph25.9 kmh 30.48 in1032.2 mb 0.00 in0.0 mm 0.00 in0.0 mm 0.00 in0.0 mm
11:33 AM 37.2°F2.9°C 3.8°F-15.7°C 24% 4.9 mph NNE7.9 kmh NNE 16.1 mph25.9 kmh 30.47 in1031.8 mb 0.00 in0.0 mm 0.00 in0.0 mm 0.00 in0.0 mm
11:34 AM 37.2°F2.9°C 3.8°F-15.7°C 24% 4.9 mph NE7.9 kmh NE 16.1 mph25.9 kmh 30.47 in1031.8 mb 0.00 in0.0 mm 0.00 in0.0 mm 0.00 in0.0 mm
11:35 AM 37.2°F2.9°C 2.9°F-16.2°C 23% 4.9 mph NE7.9 kmh NE 16.1 mph25.9 kmh 30.47 in1031.8 mb 0.00 in0.0 mm 0.00 in0.0 mm 0.00 in0.0 mm
11:36 AM 37.2°F2.9°C 2.9°F-16.2°C 23% 4.9 mph NE7.9 kmh NE 16.1 mph25.9 kmh 30.47 in1031.8 mb 0.00 in0.0 mm 0.00 in0.0 mm 0.00 in0.0 mm
11:37 AM 37.2°F2.9°C 3.8°F-15.7°C 24% 4.0 mph E6.4 kmh E 16.0 mph25.7 kmh 30.47 in1031.8 mb 0.00 in0.0 mm 0.00 in0.0 mm 0.00 in0.0 mm
11:38 AM 37.6°F3.1°C 5.9°F-14.5°C 26% 4.0 mph E6.4 kmh E 16.0 mph25.7 kmh 30.47 in1031.8 mb 0.00 in0.0 mm 0.00 in0.0 mm 0.00 in0.0 mm
11:39 AM 37.6°F3.1°C 5.0°F-15.0°C 25% 4.0 mph E6.4 kmh E 16.0 mph25.7 kmh 30.47 in1031.8 mb 0.00 in0.0 mm 0.00 in0.0 mm 0.00 in0.0 mm
11:40 AM 37.8°F3.2°C 4.3°F-15.4°C 24% 4.0 mph N6.4 kmh N 16.0 mph25.7 kmh 30.47 in1031.8 mb 0.00 in0.0 mm 0.00 in0.0 mm 0.00 in0.0 mm
11:41 AM 37.8°F3.2°C 4.3°F-15.4°C 24% 4.0 mph NE6.4 kmh NE 16.0 mph25.7 kmh 30.48 in1032.2 mb 0.00 in0.0 mm 0.00 in0.0 mm 0.00 in0.0 mm
11:42 AM 37.8°F3.2°C 4.3°F-15.4°C 24% 4.0 mph NE6.4 kmh NE 16.0 mph25.7 kmh 30.47 in1031.8 mb 0.00 in0.0 mm 0.00 in0.0 mm 0.00 in0.0 mm
11:43 AM 37.8°F3.2°C 4.3°F-15.4°C 24% 4.0 mph E6.4 kmh E 16.0 mph25.7 kmh 30.47 in1031.8 mb 0.00 in0.0 mm 0.00 in0.0 mm 0.00 in0.0 mm
11:44 AM 37.8°F3.2°C 3.4°F-15.9°C 23% 4.0 mph NE6.4 kmh NE 16.0 mph25.7 kmh 30.47 in1031.8 mb 0.00 in0.0 mm 0.00 in0.0 mm 0.00 in0.0 mm
11:45 AM 37.8°F3.2°C 3.4°F-15.9°C 23% 4.9 mph NE7.9 kmh NE 16.0 mph25.7 kmh 30.47 in1031.8 mb 0.00 in0.0 mm 0.00 in0.0 mm 0.00 in0.0 mm
11:46 AM 37.8°F3.2°C 5.2°F-14.9°C 25% 4.0 mph ENE6.4 kmh ENE 16.0 mph25.7 kmh 30.47 in1031.8 mb 0.00 in0.0 mm 0.00 in0.0 mm 0.00 in0.0 mm
11:47 AM 37.8°F3.2°C 5.2°F-14.9°C 25% 4.0 mph NNE6.4 kmh NNE 12.1 mph19.5 kmh 30.47 in1031.8 mb 0.00 in0.0 mm 0.00 in0.0 mm 0.00 in0.0 mm
11:48 AM 37.9°F3.3°C 3.5°F-15.8°C 23% 4.0 mph NE6.4 kmh NE 12.1 mph19.5 kmh 30.47 in1031.8 mb 0.00 in0.0 mm 0.00 in0.0 mm 0.00 in0.0 mm
11:49 AM 37.9°F3.3°C 3.5°F-15.8°C 23% 4.0 mph ENE6.4 kmh ENE 12.1 mph19.5 kmh 30.47 in1031.8 mb 0.00 in0.0 mm 0.00 in0.0 mm 0.00 in0.0 mm
11:50 AM 37.9°F3.3°C 3.5°F-15.8°C 23% 4.0 mph ESE6.4 kmh ESE 12.1 mph19.5 kmh 30.47 in1031.8 mb 0.00 in0.0 mm 0.00 in0.0 mm 0.00 in0.0 mm
11:51 AM 37.9°F3.3°C 3.5°F-15.8°C 23% 4.0 mph E6.4 kmh E 12.1 mph19.5 kmh 30.47 in1031.8 mb 0.00 in0.0 mm 0.00 in0.0 mm 0.00 in0.0 mm
11:52 AM 37.9°F3.3°C 3.5°F-15.8°C 23% 4.0 mph ENE6.4 kmh ENE 12.1 mph19.5 kmh 30.47 in1031.8 mb 0.00 in0.0 mm 0.00 in0.0 mm 0.00 in0.0 mm
11:53 AM 37.9°F3.3°C 3.5°F-15.8°C 23% 4.0 mph ENE6.4 kmh ENE 12.1 mph19.5 kmh 30.47 in1031.8 mb 0.00 in0.0 mm 0.00 in0.0 mm 0.00 in0.0 mm
11:54 AM 37.9°F3.3°C 4.4°F-15.3°C 24% 2.9 mph ENE4.7 kmh ENE 12.1 mph19.5 kmh 30.47 in1031.8 mb 0.00 in0.0 mm 0.00 in0.0 mm 0.00 in0.0 mm
11:55 AM 38.1°F3.4°C 4.5°F-15.3°C 24% 2.9 mph NE4.7 kmh NE 12.1 mph19.5 kmh 30.47 in1031.8 mb 0.00 in0.0 mm 0.00 in0.0 mm 0.00 in0.0 mm
11:56 AM 38.1°F3.4°C 4.5°F-15.3°C 24% 4.0 mph NE6.4 kmh NE 12.1 mph19.5 kmh 30.47 in1031.8 mb 0.00 in0.0 mm 0.00 in0.0 mm 0.00 in0.0 mm
11:57 AM 38.1°F3.4°C 3.6°F-15.8°C 23% 4.0 mph NNW6.4 kmh NNW 12.1 mph19.5 kmh 30.47 in1031.8 mb 0.00 in0.0 mm 0.00 in0.0 mm 0.00 in0.0 mm
11:58 AM 38.1°F3.4°C 3.6°F-15.8°C 23% 4.0 mph NE6.4 kmh NE 12.1 mph19.5 kmh 30.47 in1031.8 mb 0.00 in0.0 mm 0.00 in0.0 mm 0.00 in0.0 mm
11:59 AM 38.1°F3.4°C 2.7°F-16.3°C 22% 4.0 mph NNE6.4 kmh NNE 12.1 mph19.5 kmh 30.47 in1031.8 mb 0.00 in0.0 mm 0.00 in0.0 mm 0.00 in0.0 mm
12:00 PM 37.9°F3.3°C 2.5°F-16.4°C 22% 4.9 mph NE7.9 kmh NE 13.0 mph20.9 kmh 30.47 in1031.8 mb 0.00 in0.0 mm 0.00 in0.0 mm 0.00 in0.0 mm
12:01 PM 37.9°F3.3°C 4.4°F-15.3°C 24% 4.9 mph S7.9 kmh S 13.0 mph20.9 kmh 30.47 in1031.8 mb 0.00 in0.0 mm 0.00 in0.0 mm 0.00 in0.0 mm
12:02 PM 37.9°F3.3°C 4.4°F-15.3°C 24% 4.9 mph NNE7.9 kmh NNE 13.0 mph20.9 kmh 30.47 in1031.8 mb 0.00 in0.0 mm 0.00 in0.0 mm 0.00 in0.0 mm
12:03 PM 37.9°F3.3°C 3.5°F-15.8°C 23% 4.9 mph NE7.9 kmh NE 13.0 mph20.9 kmh 30.47 in1031.8 mb 0.00 in0.0 mm 0.00 in0.0 mm 0.00 in0.0 mm
12:04 PM 37.9°F3.3°C 2.5°F-16.4°C 22% 4.9 mph NE7.9 kmh NE 13.0 mph20.9 kmh 30.47 in1031.8 mb 0.00 in0.0 mm 0.00 in0.0 mm 0.00 in0.0 mm
12:05 PM 37.9°F3.3°C 2.5°F-16.4°C 22% 4.9 mph SSE7.9 kmh SSE 13.0 mph20.9 kmh 30.47 in1031.8 mb 0.00 in0.0 mm 0.00 in0.0 mm 0.00 in0.0 mm
12:06 PM 37.9°F3.3°C 4.4°F-15.3°C 24% 4.9 mph SE7.9 kmh SE 13.0 mph20.9 kmh 30.47 in1031.8 mb 0.00 in0.0 mm 0.00 in0.0 mm 0.00 in0.0 mm
12:07 PM 37.9°F3.3°C 3.5°F-15.8°C 23% 4.0 mph ESE6.4 kmh ESE 13.0 mph20.9 kmh 30.47 in1031.8 mb 0.00 in0.0 mm 0.00 in0.0 mm 0.00 in0.0 mm
12:08 PM 37.9°F3.3°C 3.5°F-15.8°C 23% 4.0 mph NE6.4 kmh NE 16.1 mph25.9 kmh 30.47 in1031.8 mb 0.00 in0.0 mm 0.00 in0.0 mm 0.00 in0.0 mm
12:09 PM 37.9°F3.3°C 2.5°F-16.4°C 22% 4.9 mph N7.9 kmh N 16.1 mph25.9 kmh 30.46 in1031.5 mb 0.00 in0.0 mm 0.00 in0.0 mm 0.00 in0.0 mm
12:10 PM 37.9°F3.3°C 2.5°F-16.4°C 22% 4.0 mph E6.4 kmh E 16.1 mph25.9 kmh 30.46 in1031.5 mb 0.00 in0.0 mm 0.00 in0.0 mm 0.00 in0.0 mm
12:11 PM 37.9°F3.3°C 2.5°F-16.4°C 22% 4.0 mph N6.4 kmh N 16.1 mph25.9 kmh 30.46 in1031.5 mb 0.00 in0.0 mm 0.00 in0.0 mm 0.00 in0.0 mm
12:12 PM 38.1°F3.4°C 3.6°F-15.8°C 23% 4.0 mph ENE6.4 kmh ENE 16.1 mph25.9 kmh 30.47 in1031.8 mb 0.00 in0.0 mm 0.00 in0.0 mm 0.00 in0.0 mm
12:13 PM 38.1°F3.4°C 3.6°F-15.8°C 23% 4.9 mph NNE7.9 kmh NNE 16.1 mph25.9 kmh 30.47 in1031.8 mb 0.00 in0.0 mm 0.00 in0.0 mm 0.00 in0.0 mm
12:14 PM 38.1°F3.4°C 3.6°F-15.8°C 23% 4.9 mph ENE7.9 kmh ENE 16.1 mph25.9 kmh 30.47 in1031.8 mb 0.00 in0.0 mm 0.00 in0.0 mm 0.00 in0.0 mm
12:15 PM 38.1°F3.4°C 3.6°F-15.8°C 23% 4.0 mph NE6.4 kmh NE 16.1 mph25.9 kmh 30.47 in1031.8 mb 0.00 in0.0 mm 0.00 in0.0 mm 0.00 in0.0 mm
12:16 PM 38.1°F3.4°C 2.7°F-16.3°C 22% 4.0 mph ENE6.4 kmh ENE 16.1 mph25.9 kmh 30.47 in1031.8 mb 0.00 in0.0 mm 0.00 in0.0 mm 0.00 in0.0 mm
12:17 PM 38.1°F3.4°C 2.7°F-16.3°C 22% 4.9 mph ENE7.9 kmh ENE 16.1 mph25.9 kmh 30.47 in1031.8 mb 0.00 in0.0 mm 0.00 in0.0 mm 0.00 in0.0 mm
12:18 PM 38.3°F3.5°C 3.8°F-15.7°C 23% 4.0 mph NNE6.4 kmh NNE 11.0 mph17.7 kmh 30.47 in1031.8 mb 0.00 in0.0 mm 0.00 in0.0 mm 0.00 in0.0 mm
12:19 PM 38.5°F3.6°C 4.0°F-15.6°C 23% 4.0 mph NE6.4 kmh NE 11.0 mph17.7 kmh 30.47 in1031.8 mb 0.00 in0.0 mm 0.00 in0.0 mm 0.00 in0.0 mm
12:20 PM 38.5°F3.6°C 4.9°F-15.1°C 24% 4.0 mph NE6.4 kmh NE 11.0 mph17.7 kmh 30.47 in1031.8 mb 0.00 in0.0 mm 0.00 in0.0 mm 0.00 in0.0 mm
12:21 PM 38.5°F3.6°C 4.0°F-15.6°C 23% 4.0 mph E6.4 kmh E 13.0 mph20.9 kmh 30.47 in1031.8 mb 0.00 in0.0 mm 0.00 in0.0 mm 0.00 in0.0 mm
12:22 PM 38.7°F3.7°C 5.9°F-14.5°C 25% 4.0 mph NE6.4 kmh NE 13.0 mph20.9 kmh 30.47 in1031.8 mb 0.00 in0.0 mm 0.00 in0.0 mm 0.00 in0.0 mm
12:23 PM 38.7°F3.7°C 4.1°F-15.5°C 23% 4.0 mph NE6.4 kmh NE 13.0 mph20.9 kmh 30.47 in1031.8 mb 0.00 in0.0 mm 0.00 in0.0 mm 0.00 in0.0 mm
12:24 PM 38.7°F3.7°C 3.2°F-16.0°C 22% 4.0 mph NE6.4 kmh NE 13.0 mph20.9 kmh 30.47 in1031.8 mb 0.00 in0.0 mm 0.00 in0.0 mm 0.00 in0.0 mm
12:25 PM 38.5°F3.6°C 2.0°F-16.7°C 21% 4.0 mph NNE6.4 kmh NNE 13.0 mph20.9 kmh 30.47 in1031.8 mb 0.00 in0.0 mm 0.00 in0.0 mm 0.00 in0.0 mm
12:26 PM 38.5°F3.6°C 2.0°F-16.7°C 21% 4.0 mph NE6.4 kmh NE 13.0 mph20.9 kmh 30.47 in1031.8 mb 0.00 in0.0 mm 0.00 in0.0 mm 0.00 in0.0 mm
12:27 PM 38.1°F3.4°C 2.7°F-16.3°C 22% 4.0 mph NNE6.4 kmh NNE 13.0 mph20.9 kmh 30.47 in1031.8 mb 0.00 in0.0 mm 0.00 in0.0 mm 0.00 in0.0 mm
12:28 PM 38.1°F3.4°C 2.7°F-16.3°C 22% 4.9 mph E7.9 kmh E 13.0 mph20.9 kmh 30.47 in1031.8 mb 0.00 in0.0 mm 0.00 in0.0 mm 0.00 in0.0 mm
12:29 PM 38.1°F3.4°C 1.7°F-16.8°C 21% 4.9 mph NE7.9 kmh NE 13.0 mph20.9 kmh 30.47 in1031.8 mb 0.00 in0.0 mm 0.00 in0.0 mm 0.00 in0.0 mm
12:30 PM 38.1°F3.4°C 2.7°F-16.3°C 22% 4.9 mph NE7.9 kmh NE 13.0 mph20.9 kmh 30.47 in1031.8 mb 0.00 in0.0 mm 0.00 in0.0 mm 0.00 in0.0 mm
12:31 PM 38.1°F3.4°C 3.6°F-15.8°C 23% 4.9 mph NE7.9 kmh NE 13.0 mph20.9 kmh 30.47 in1031.8 mb 0.00 in0.0 mm 0.00 in0.0 mm 0.00 in0.0 mm
12:32 PM 38.3°F3.5°C 3.8°F-15.7°C 23% 4.9 mph NE7.9 kmh NE 13.0 mph20.9 kmh 30.47 in1031.8 mb 0.00 in0.0 mm 0.00 in0.0 mm 0.00 in0.0 mm
12:33 PM 38.5°F3.6°C 4.0°F-15.6°C 23% 4.9 mph NE7.9 kmh NE 13.0 mph20.9 kmh 30.47 in1031.8 mb 0.00 in0.0 mm 0.00 in0.0 mm 0.00 in0.0 mm
12:34 PM 38.5°F3.6°C 3.0°F-16.1°C 22% 4.0 mph NE6.4 kmh NE 13.0 mph20.9 kmh 30.47 in1031.8 mb 0.00 in0.0 mm 0.00 in0.0 mm 0.00 in0.0 mm
12:35 PM 38.5°F3.6°C 3.0°F-16.1°C 22% 4.0 mph NE6.4 kmh NE 13.0 mph20.9 kmh 30.47 in1031.8 mb 0.00 in0.0 mm 0.00 in0.0 mm 0.00 in0.0 mm
12:36 PM 38.5°F3.6°C 2.0°F-16.7°C 21% 4.0 mph NNE6.4 kmh NNE 13.0 mph20.9 kmh 30.47 in1031.8 mb 0.00 in0.0 mm 0.00 in0.0 mm 0.00 in0.0 mm
12:37 PM 38.5°F3.6°C 3.0°F-16.1°C 22% 4.0 mph NNE6.4 kmh NNE 13.0 mph20.9 kmh 30.47 in1031.8 mb 0.00 in0.0 mm 0.00 in0.0 mm 0.00 in0.0 mm
12:38 PM 38.5°F3.6°C 3.0°F-16.1°C 22% 4.0 mph NE6.4 kmh NE 13.0 mph20.9 kmh 30.47 in1031.8 mb 0.00 in0.0 mm 0.00 in0.0 mm 0.00 in0.0 mm
12:39 PM 38.5°F3.6°C 4.0°F-15.6°C 23% 4.0 mph NNE6.4 kmh NNE 13.0 mph20.9 kmh 30.47 in1031.8 mb 0.00 in0.0 mm 0.00 in0.0 mm 0.00 in0.0 mm
12:40 PM 38.5°F3.6°C 4.9°F-15.1°C 24% 4.0 mph NE6.4 kmh NE 13.0 mph20.9 kmh 30.47 in1031.8 mb 0.00 in0.0 mm 0.00 in0.0 mm 0.00 in0.0 mm
12:41 PM 38.7°F3.7°C 3.2°F-16.0°C 22% 4.0 mph NNE6.4 kmh NNE 12.1 mph19.5 kmh 30.47 in1031.8 mb 0.00 in0.0 mm 0.00 in0.0 mm 0.00 in0.0 mm
12:42 PM 38.7°F3.7°C 3.2°F-16.0°C 22% 4.0 mph N6.4 kmh N 12.1 mph19.5 kmh 30.47 in1031.8 mb 0.00 in0.0 mm 0.00 in0.0 mm 0.00 in0.0 mm
12:43 PM 38.7°F3.7°C 2.2°F-16.6°C 21% 4.0 mph ENE6.4 kmh ENE 12.1 mph19.5 kmh 30.47 in1031.8 mb 0.00 in0.0 mm 0.00 in0.0 mm 0.00 in0.0 mm
12:44 PM 38.7°F3.7°C 2.2°F-16.6°C 21% 4.0 mph NE6.4 kmh NE 12.1 mph19.5 kmh 30.47 in1031.8 mb 0.00 in0.0 mm 0.00 in0.0 mm 0.00 in0.0 mm
12:45 PM 38.7°F3.7°C 2.2°F-16.6°C 21% 4.9 mph E7.9 kmh E 12.1 mph19.5 kmh 30.47 in1031.8 mb 0.00 in0.0 mm 0.00 in0.0 mm 0.00 in0.0 mm
12:46 PM 38.7°F3.7°C 2.2°F-16.6°C 21% 4.0 mph NNE6.4 kmh NNE 12.1 mph19.5 kmh 30.47 in1031.8 mb 0.00 in0.0 mm 0.00 in0.0 mm 0.00 in0.0 mm
12:47 PM 38.5°F3.6°C 3.0°F-16.1°C 22% 4.0 mph ESE6.4 kmh ESE 13.0 mph20.9 kmh 30.47 in1031.8 mb 0.00 in0.0 mm 0.00 in0.0 mm 0.00 in0.0 mm
12:48 PM 38.5°F3.6°C 2.0°F-16.7°C 21% 4.9 mph NNE7.9 kmh NNE 13.0 mph20.9 kmh 30.47 in1031.8 mb 0.00 in0.0 mm 0.00 in0.0 mm 0.00 in0.0 mm
12:49 PM 38.5°F3.6°C 2.0°F-16.7°C 21% 4.9 mph E7.9 kmh E 13.0 mph20.9 kmh 30.47 in1031.8 mb 0.00 in0.0 mm 0.00 in0.0 mm 0.00 in0.0 mm
12:50 PM 38.5°F3.6°C 4.0°F-15.6°C 23% 4.9 mph E7.9 kmh E 13.0 mph20.9 kmh 30.47 in1031.8 mb 0.00 in0.0 mm 0.00 in0.0 mm 0.00 in0.0 mm
12:51 PM 38.5°F3.6°C 3.0°F-16.1°C 22% 4.9 mph NE7.9 kmh NE 13.0 mph20.9 kmh 30.47 in1031.8 mb 0.00 in0.0 mm 0.00 in0.0 mm 0.00 in0.0 mm
12:52 PM 38.3°F3.5°C 2.8°F-16.2°C 22% 4.9 mph N7.9 kmh N 13.0 mph20.9 kmh 30.46 in1031.5 mb 0.00 in0.0 mm 0.00 in0.0 mm 0.00 in0.0 mm
12:53 PM 38.5°F3.6°C 2.0°F-16.7°C 21% 4.9 mph NE7.9 kmh NE 13.0 mph20.9 kmh 30.47 in1031.8 mb 0.00 in0.0 mm 0.00 in0.0 mm 0.00 in0.0 mm
12:54 PM 38.5°F3.6°C 4.0°F-15.6°C 23% 4.9 mph E7.9 kmh E 13.0 mph20.9 kmh 30.47 in1031.8 mb 0.00 in0.0 mm 0.00 in0.0 mm 0.00 in0.0 mm
12:55 PM 38.5°F3.6°C 3.0°F-16.1°C 22% 4.0 mph ENE6.4 kmh ENE 13.0 mph20.9 kmh 30.47 in1031.8 mb 0.00 in0.0 mm 0.00 in0.0 mm 0.00 in0.0 mm
12:56 PM 38.7°F3.7°C 2.2°F-16.6°C 21% 4.0 mph NE6.4 kmh NE 13.0 mph20.9 kmh 30.47 in1031.8 mb 0.00 in0.0 mm 0.00 in0.0 mm 0.00 in0.0 mm
12:57 PM 38.7°F3.7°C 5.1°F-14.9°C 24% 4.0 mph NE6.4 kmh NE 13.0 mph20.9 kmh 30.46 in1031.5 mb 0.00 in0.0 mm 0.00 in0.0 mm 0.00 in0.0 mm
12:58 PM 38.8°F3.8°C 4.2°F-15.4°C 23% 4.0 mph N6.4 kmh N 13.0 mph20.9 kmh 30.47 in1031.8 mb 0.00 in0.0 mm 0.00 in0.0 mm 0.00 in0.0 mm
12:59 PM 38.7°F3.7°C 3.2°F-16.0°C 22% 4.0 mph NNE6.4 kmh NNE 14.1 mph22.7 kmh 30.46 in1031.5 mb 0.00 in0.0 mm 0.00 in0.0 mm 0.00 in0.0 mm
01:00 PM 38.7°F3.7°C 4.1°F-15.5°C 23% 4.0 mph NNE6.4 kmh NNE 14.1 mph22.7 kmh 30.46 in1031.5 mb 0.00 in0.0 mm 0.00 in0.0 mm 0.00 in0.0 mm
01:01 PM 38.7°F3.7°C 2.2°F-16.6°C 21% 4.0 mph NNE6.4 kmh NNE 14.1 mph22.7 kmh 30.46 in1031.5 mb 0.00 in0.0 mm 0.00 in0.0 mm 0.00 in0.0 mm
01:02 PM 38.7°F3.7°C 2.2°F-16.6°C 21% 4.0 mph E6.4 kmh E 14.1 mph22.7 kmh 30.47 in1031.8 mb 0.00 in0.0 mm 0.00 in0.0 mm 0.00 in0.0 mm
01:03 PM 38.7°F3.7°C 4.1°F-15.5°C 23% 4.0 mph ENE6.4 kmh ENE 14.1 mph22.7 kmh 30.46 in1031.5 mb 0.00 in0.0 mm 0.00 in0.0 mm 0.00 in0.0 mm
01:04 PM 38.7°F3.7°C 3.2°F-16.0°C 22% 4.0 mph NNE6.4 kmh NNE 14.1 mph22.7 kmh 30.47 in1031.8 mb 0.00 in0.0 mm 0.00 in0.0 mm 0.00 in0.0 mm
01:05 PM 38.7°F3.7°C 3.2°F-16.0°C 22% 4.0 mph ENE6.4 kmh ENE 14.1 mph22.7 kmh 30.47 in1031.8 mb 0.00 in0.0 mm 0.00 in0.0 mm 0.00 in0.0 mm
01:06 PM 38.7°F3.7°C 2.2°F-16.6°C 21% 4.0 mph NE6.4 kmh NE 14.1 mph22.7 kmh 30.46 in1031.5 mb 0.00 in0.0 mm 0.00 in0.0 mm 0.00 in0.0 mm
01:07 PM 38.7°F3.7°C 2.2°F-16.6°C 21% 4.9 mph NNE7.9 kmh NNE 14.1 mph22.7 kmh 30.46 in1031.5 mb 0.00 in0.0 mm 0.00 in0.0 mm 0.00 in0.0 mm
01:08 PM 38.8°F3.8°C 2.3°F-16.5°C 21% 4.9 mph NE7.9 kmh NE 14.1 mph22.7 kmh 30.46 in1031.5 mb 0.00 in0.0 mm 0.00 in0.0 mm 0.00 in0.0 mm
01:09 PM 38.8°F3.8°C 1.2°F-17.1°C 20% 4.0 mph NE6.4 kmh NE 8.9 mph14.3 kmh 30.46 in1031.5 mb 0.00 in0.0 mm 0.00 in0.0 mm 0.00 in0.0 mm
01:10 PM 38.8°F3.8°C 2.3°F-16.5°C 21% 4.0 mph NE6.4 kmh NE 8.9 mph14.3 kmh 30.46 in1031.5 mb 0.00 in0.0 mm 0.00 in0.0 mm 0.00 in0.0 mm
01:11 PM 38.8°F3.8°C 3.3°F-15.9°C 22% 4.0 mph NE6.4 kmh NE 8.9 mph14.3 kmh 30.46 in1031.5 mb 0.00 in0.0 mm 0.00 in0.0 mm 0.00 in0.0 mm
01:12 PM 39.0°F3.9°C 2.4°F-16.4°C 21% 4.0 mph NE6.4 kmh NE 8.9 mph14.3 kmh 30.46 in1031.5 mb 0.00 in0.0 mm 0.00 in0.0 mm 0.00 in0.0 mm
01:13 PM 38.8°F3.8°C 2.3°F-16.5°C 21% 4.0 mph NE6.4 kmh NE 8.9 mph14.3 kmh 30.46 in1031.5 mb 0.00 in0.0 mm 0.00 in0.0 mm 0.00 in0.0 mm
01:14 PM 39.0°F3.9°C 3.4°F-15.9°C 22% 4.0 mph NE6.4 kmh NE 8.9 mph14.3 kmh 30.46 in1031.5 mb 0.00 in0.0 mm 0.00 in0.0 mm 0.00 in0.0 mm
01:15 PM 39.0°F3.9°C 1.4°F-17.0°C 20% 4.0 mph NE6.4 kmh NE 8.9 mph14.3 kmh 30.46 in1031.5 mb 0.00 in0.0 mm 0.00 in0.0 mm 0.00 in0.0 mm
01:16 PM 39.0°F3.9°C 1.4°F-17.0°C 20% 4.0 mph S6.4 kmh S 10.1 mph16.3 kmh 30.46 in1031.5 mb 0.00 in0.0 mm 0.00 in0.0 mm 0.00 in0.0 mm
01:17 PM 39.0°F3.9°C 3.4°F-15.9°C 22% 4.0 mph NE6.4 kmh NE 10.1 mph16.3 kmh 30.46 in1031.5 mb 0.00 in0.0 mm 0.00 in0.0 mm 0.00 in0.0 mm
01:18 PM 39.0°F3.9°C 3.4°F-15.9°C 22% 4.0 mph NE6.4 kmh NE 10.1 mph16.3 kmh 30.46 in1031.5 mb 0.00 in0.0 mm 0.00 in0.0 mm 0.00 in0.0 mm
01:19 PM 39.2°F4.0°C 3.6°F-15.8°C 22% 2.9 mph ENE4.7 kmh ENE 10.1 mph16.3 kmh 30.46 in1031.5 mb 0.00 in0.0 mm 0.00 in0.0 mm 0.00 in0.0 mm
01:20 PM 39.4°F4.1°C 5.6°F-14.7°C 24% 2.9 mph E4.7 kmh E 10.1 mph16.3 kmh 30.46 in1031.5 mb 0.00 in0.0 mm 0.00 in0.0 mm 0.00 in0.0 mm
01:21 PM 39.4°F4.1°C 3.8°F-15.7°C 22% 2.9 mph NE4.7 kmh NE 10.1 mph16.3 kmh 30.46 in1031.5 mb 0.00 in0.0 mm 0.00 in0.0 mm 0.00 in0.0 mm
01:22 PM 39.6°F4.2°C 3.9°F-15.6°C 22% 2.9 mph NE4.7 kmh NE 10.1 mph16.3 kmh 30.46 in1031.5 mb 0.00 in0.0 mm 0.00 in0.0 mm 0.00 in0.0 mm
01:23 PM 39.6°F4.2°C 4.9°F-15.1°C 23% 2.9 mph NE4.7 kmh NE 10.1 mph16.3 kmh 30.46 in1031.5 mb 0.00 in0.0 mm 0.00 in0.0 mm 0.00 in0.0 mm
01:24 PM 39.6°F4.2°C 1.9°F-16.7°C 20% 4.0 mph ENE6.4 kmh ENE 12.1 mph19.5 kmh 30.46 in1031.5 mb 0.00 in0.0 mm 0.00 in0.0 mm 0.00 in0.0 mm
01:25 PM 39.4°F4.1°C 1.7°F-16.8°C 20% 4.0 mph N6.4 kmh N 12.1 mph19.5 kmh 30.46 in1031.5 mb 0.00 in0.0 mm 0.00 in0.0 mm 0.00 in0.0 mm
01:26 PM 39.4°F4.1°C 2.8°F-16.2°C 21% 4.0 mph NE6.4 kmh NE 12.1 mph19.5 kmh 30.46 in1031.5 mb 0.00 in0.0 mm 0.00 in0.0 mm 0.00 in0.0 mm
01:27 PM 39.4°F4.1°C 1.7°F-16.8°C 20% 2.9 mph NE4.7 kmh NE 12.1 mph19.5 kmh 30.46 in1031.5 mb 0.00 in0.0 mm 0.00 in0.0 mm 0.00 in0.0 mm
01:28 PM 39.4°F4.1°C 1.7°F-16.8°C 20% 4.0 mph NE6.4 kmh NE 12.1 mph19.5 kmh 30.46 in1031.5 mb 0.00 in0.0 mm 0.00 in0.0 mm 0.00 in0.0 mm
01:29 PM 39.4°F4.1°C 3.8°F-15.7°C 22% 4.0 mph E6.4 kmh E 12.1 mph19.5 kmh 30.45 in1031.2 mb 0.00 in0.0 mm 0.00 in0.0 mm 0.00 in0.0 mm
01:30 PM 39.4°F4.1°C 3.8°F-15.7°C 22% 4.0 mph NE6.4 kmh NE 12.1 mph19.5 kmh 30.45 in1031.2 mb 0.00 in0.0 mm 0.00 in0.0 mm 0.00 in0.0 mm
01:31 PM 39.4°F4.1°C 2.8°F-16.2°C 21% 4.0 mph NE6.4 kmh NE 12.1 mph19.5 kmh 30.45 in1031.2 mb 0.00 in0.0 mm 0.00 in0.0 mm 0.00 in0.0 mm
01:32 PM 39.4°F4.1°C 1.7°F-16.8°C 20% 4.0 mph NNE6.4 kmh NNE 12.1 mph19.5 kmh 30.45 in1031.2 mb 0.00 in0.0 mm 0.00 in0.0 mm 0.00 in0.0 mm
01:33 PM 39.4°F4.1°C 1.7°F-16.8°C 20% 4.0 mph NE6.4 kmh NE 12.1 mph19.5 kmh 30.45 in1031.2 mb 0.00 in0.0 mm 0.00 in0.0 mm 0.00 in0.0 mm
01:34 PM 39.4°F4.1°C 1.7°F-16.8°C 20% 4.0 mph NNE6.4 kmh NNE 11.0 mph17.7 kmh 30.45 in1031.2 mb 0.00 in0.0 mm 0.00 in0.0 mm 0.00 in0.0 mm
01:35 PM 39.4°F4.1°C 1.7°F-16.8°C 20% 4.0 mph NE6.4 kmh NE 11.0 mph17.7 kmh 30.45 in1031.2 mb 0.00 in0.0 mm 0.00 in0.0 mm 0.00 in0.0 mm
01:36 PM 39.4°F4.1°C 2.8°F-16.2°C 21% 4.0 mph NE6.4 kmh NE 11.0 mph17.7 kmh 30.45 in1031.2 mb 0.00 in0.0 mm 0.00 in0.0 mm 0.00 in0.0 mm
01:37 PM 39.4°F4.1°C 2.8°F-16.2°C 21% 4.0 mph NE6.4 kmh NE 11.0 mph17.7 kmh 30.45 in1031.2 mb 0.00 in0.0 mm 0.00 in0.0 mm 0.00 in0.0 mm
01:38 PM 39.4°F4.1°C 3.8°F-15.7°C 22% 4.0 mph ENE6.4 kmh ENE 11.0 mph17.7 kmh 30.45 in1031.2 mb 0.00 in0.0 mm 0.00 in0.0 mm 0.00 in0.0 mm
01:39 PM 39.6°F4.2°C 3.9°F-15.6°C 22% 4.0 mph NE6.4 kmh NE 11.0 mph17.7 kmh 30.45 in1031.2 mb 0.00 in0.0 mm 0.00 in0.0 mm 0.00 in0.0 mm
01:40 PM 39.6°F4.2°C 2.9°F-16.2°C 21% 4.0 mph N6.4 kmh N 11.0 mph17.7 kmh 30.45 in1031.2 mb 0.00 in0.0 mm 0.00 in0.0 mm 0.00 in0.0 mm
01:41 PM 39.7°F4.3°C 3.0°F-16.1°C 21% 4.0 mph NE6.4 kmh NE 11.0 mph17.7 kmh 30.45 in1031.2 mb 0.00 in0.0 mm 0.00 in0.0 mm 0.00 in0.0 mm
01:42 PM 39.7°F4.3°C 3.0°F-16.1°C 21% 4.0 mph NNE6.4 kmh NNE 11.0 mph17.7 kmh 30.45 in1031.2 mb 0.00 in0.0 mm 0.00 in0.0 mm 0.00 in0.0 mm
01:43 PM 39.7°F4.3°C 3.0°F-16.1°C 21% 4.0 mph NNE6.4 kmh NNE 11.0 mph17.7 kmh 30.45 in1031.2 mb 0.00 in0.0 mm 0.00 in0.0 mm 0.00 in0.0 mm
01:44 PM 39.7°F4.3°C 2.0°F-16.7°C 20% 4.0 mph NNE6.4 kmh NNE 11.0 mph17.7 kmh 30.45 in1031.2 mb 0.00 in0.0 mm 0.00 in0.0 mm 0.00 in0.0 mm
01:45 PM 39.7°F4.3°C 2.0°F-16.7°C 20% 4.0 mph NNE6.4 kmh NNE 11.0 mph17.7 kmh 30.45 in1031.2 mb 0.00 in0.0 mm 0.00 in0.0 mm 0.00 in0.0 mm
01:46 PM 39.6°F4.2°C 1.9°F-16.7°C 20% 4.0 mph NNE6.4 kmh NNE 11.0 mph17.7 kmh 30.45 in1031.2 mb 0.00 in0.0 mm 0.00 in0.0 mm 0.00 in0.0 mm
01:47 PM 39.6°F4.2°C 2.9°F-16.2°C 21% 4.0 mph NNE6.4 kmh NNE 10.1 mph16.3 kmh 30.45 in1031.2 mb 0.00 in0.0 mm 0.00 in0.0 mm 0.00 in0.0 mm
01:48 PM 39.6°F4.2°C 2.9°F-16.2°C 21% 4.0 mph NNE6.4 kmh NNE 10.1 mph16.3 kmh 30.44 in1030.8 mb 0.00 in0.0 mm 0.00 in0.0 mm 0.00 in0.0 mm
01:49 PM 39.4°F4.1°C 3.8°F-15.7°C 22% 4.0 mph NE6.4 kmh NE 10.1 mph16.3 kmh 30.44 in1030.8 mb 0.00 in0.0 mm 0.00 in0.0 mm 0.00 in0.0 mm
01:50 PM 39.6°F4.2°C 3.9°F-15.6°C 22% 4.0 mph ENE6.4 kmh ENE 10.1 mph16.3 kmh 30.45 in1031.2 mb 0.00 in0.0 mm 0.00 in0.0 mm 0.00 in0.0 mm
01:51 PM 39.6°F4.2°C 3.9°F-15.6°C 22% 4.0 mph E6.4 kmh E 10.1 mph16.3 kmh 30.45 in1031.2 mb 0.00 in0.0 mm 0.00 in0.0 mm 0.00 in0.0 mm
01:52 PM 39.6°F4.2°C 1.9°F-16.7°C 20% 4.0 mph ESE6.4 kmh ESE 10.1 mph16.3 kmh 30.45 in1031.2 mb 0.00 in0.0 mm 0.00 in0.0 mm 0.00 in0.0 mm
01:53 PM 39.6°F4.2°C 1.9°F-16.7°C 20% 4.0 mph ENE6.4 kmh ENE 10.1 mph16.3 kmh 30.45 in1031.2 mb 0.00 in0.0 mm 0.00 in0.0 mm 0.00 in0.0 mm
01:54 PM 39.6°F4.2°C 2.9°F-16.2°C 21% 4.0 mph NE6.4 kmh NE 10.1 mph16.3 kmh 30.44 in1030.8 mb 0.00 in0.0 mm 0.00 in0.0 mm 0.00 in0.0 mm
01:55 PM 39.4°F4.1°C 2.8°F-16.2°C 21% 4.0 mph NNE6.4 kmh NNE 10.0 mph16.1 kmh 30.44 in1030.8 mb 0.00 in0.0 mm 0.00 in0.0 mm 0.00 in0.0 mm
01:56 PM 39.4°F4.1°C 1.7°F-16.8°C 20% 4.0 mph NE6.4 kmh NE 11.0 mph17.7 kmh 30.45 in1031.2 mb 0.00 in0.0 mm 0.00 in0.0 mm 0.00 in0.0 mm
01:57 PM 39.4°F4.1°C 1.7°F-16.8°C 20% 4.0 mph NE6.4 kmh NE 11.0 mph17.7 kmh 30.45 in1031.2 mb 0.00 in0.0 mm 0.00 in0.0 mm 0.00 in0.0 mm
01:58 PM 39.2°F4.0°C 2.6°F-16.3°C 21% 4.0 mph ENE6.4 kmh ENE 11.0 mph17.7 kmh 30.45 in1031.2 mb 0.00 in0.0 mm 0.00 in0.0 mm 0.00 in0.0 mm
01:59 PM 39.0°F3.9°C 1.4°F-17.0°C 20% 4.0 mph NE6.4 kmh NE 11.0 mph17.7 kmh 30.45 in1031.2 mb 0.00 in0.0 mm 0.00 in0.0 mm 0.00 in0.0 mm
02:01 PM 39.2°F4.0°C 2.6°F-16.3°C 21% 4.9 mph NE7.9 kmh NE 11.0 mph17.7 kmh 30.44 in1030.8 mb 0.00 in0.0 mm 0.00 in0.0 mm 0.00 in0.0 mm
02:03 PM 39.4°F4.1°C 3.8°F-15.7°C 22% 4.0 mph NE6.4 kmh NE 11.0 mph17.7 kmh 30.44 in1030.8 mb 0.00 in0.0 mm 0.00 in0.0 mm 0.00 in0.0 mm
02:04 PM 39.4°F4.1°C 2.8°F-16.2°C 21% 4.0 mph ENE6.4 kmh ENE 11.0 mph17.7 kmh 30.44 in1030.8 mb 0.00 in0.0 mm 0.00 in0.0 mm 0.00 in0.0 mm
02:05 PM 39.6°F4.2°C 2.9°F-16.2°C 21% 4.0 mph ENE6.4 kmh ENE 11.0 mph17.7 kmh 30.44 in1030.8 mb 0.00 in0.0 mm 0.00 in0.0 mm 0.00 in0.0 mm
02:06 PM 39.6°F4.2°C 3.9°F-15.6°C 22% 4.0 mph ENE6.4 kmh ENE 11.0 mph17.7 kmh 30.44 in1030.8 mb 0.00 in0.0 mm 0.00 in0.0 mm 0.00 in0.0 mm
02:07 PM 39.6°F4.2°C 1.9°F-16.7°C 20% 4.0 mph NE6.4 kmh NE 10.1 mph16.3 kmh 30.44 in1030.8 mb 0.00 in0.0 mm 0.00 in0.0 mm 0.00 in0.0 mm
02:08 PM 39.6°F4.2°C 2.9°F-16.2°C 21% 2.9 mph NE4.7 kmh NE 10.0 mph16.1 kmh 30.45 in1031.2 mb 0.00 in0.0 mm 0.00 in0.0 mm 0.00 in0.0 mm
02:09 PM 39.6°F4.2°C 2.9°F-16.2°C 21% 2.9 mph ENE4.7 kmh ENE 10.0 mph16.1 kmh 30.44 in1030.8 mb 0.00 in0.0 mm 0.00 in0.0 mm 0.00 in0.0 mm
02:10 PM 39.6°F4.2°C 1.9°F-16.7°C 20% 2.9 mph NE4.7 kmh NE 10.0 mph16.1 kmh 30.44 in1030.8 mb 0.00 in0.0 mm 0.00 in0.0 mm 0.00 in0.0 mm
02:11 PM 39.6°F4.2°C 1.9°F-16.7°C 20% 2.0 mph NE3.2 kmh NE 10.0 mph16.1 kmh 30.44 in1030.8 mb 0.00 in0.0 mm 0.00 in0.0 mm 0.00 in0.0 mm
02:12 PM 39.6°F4.2°C 1.9°F-16.7°C 20% 2.9 mph NE4.7 kmh NE 10.0 mph16.1 kmh 30.44 in1030.8 mb 0.00 in0.0 mm 0.00 in0.0 mm 0.00 in0.0 mm
02:13 PM 39.6°F4.2°C 3.9°F-15.6°C 22% 2.9 mph NE4.7 kmh NE 10.0 mph16.1 kmh 30.44 in1030.8 mb 0.00 in0.0 mm 0.00 in0.0 mm 0.00 in0.0 mm
02:14 PM 39.7°F4.3°C 3.0°F-16.1°C 21% 2.9 mph N4.7 kmh N 10.0 mph16.1 kmh 30.45 in1031.2 mb 0.00 in0.0 mm 0.00 in0.0 mm 0.00 in0.0 mm
02:15 PM 39.7°F4.3°C 4.0°F-15.6°C 22% 2.9 mph NE4.7 kmh NE 10.0 mph16.1 kmh 30.44 in1030.8 mb 0.00 in0.0 mm 0.00 in0.0 mm 0.00 in0.0 mm
02:16 PM 39.7°F4.3°C 4.0°F-15.6°C 22% 2.9 mph NE4.7 kmh NE 10.0 mph16.1 kmh 30.44 in1030.8 mb 0.00 in0.0 mm 0.00 in0.0 mm 0.00 in0.0 mm
02:17 PM 39.7°F4.3°C 4.0°F-15.6°C 22% 2.9 mph E4.7 kmh E 10.0 mph16.1 kmh 30.44 in1030.8 mb 0.00 in0.0 mm 0.00 in0.0 mm 0.00 in0.0 mm
02:18 PM 39.7°F4.3°C 4.0°F-15.6°C 22% 2.9 mph E4.7 kmh E 6.9 mph11.1 kmh 30.44 in1030.8 mb 0.00 in0.0 mm 0.00 in0.0 mm 0.00 in0.0 mm
02:19 PM 39.7°F4.3°C 3.0°F-16.1°C 21% 2.9 mph E4.7 kmh E 6.9 mph11.1 kmh 30.44 in1030.8 mb 0.00 in0.0 mm 0.00 in0.0 mm 0.00 in0.0 mm
02:20 PM 39.7°F4.3°C 3.0°F-16.1°C 21% 2.9 mph NE4.7 kmh NE 6.9 mph11.1 kmh 30.44 in1030.8 mb 0.00 in0.0 mm 0.00 in0.0 mm 0.00 in0.0 mm
02:21 PM 39.7°F4.3°C 2.0°F-16.7°C 20% 2.9 mph NE4.7 kmh NE 6.9 mph11.1 kmh 30.45 in1031.2 mb 0.00 in0.0 mm 0.00 in0.0 mm 0.00 in0.0 mm
02:22 PM 39.7°F4.3°C 2.0°F-16.7°C 20% 2.9 mph NE4.7 kmh NE 6.9 mph11.1 kmh 30.45 in1031.2 mb 0.00 in0.0 mm 0.00 in0.0 mm 0.00 in0.0 mm
02:23 PM 39.7°F4.3°C 2.0°F-16.7°C 20% 2.9 mph NE4.7 kmh NE 8.1 mph13.0 kmh 30.45 in1031.2 mb 0.00 in0.0 mm 0.00 in0.0 mm 0.00 in0.0 mm
02:24 PM 39.7°F4.3°C 2.0°F-16.7°C 20% 2.9 mph NE4.7 kmh NE 8.1 mph13.0 kmh 30.45 in1031.2 mb 0.00 in0.0 mm 0.00 in0.0 mm 0.00 in0.0 mm
02:25 PM 39.6°F4.2°C 1.9°F-16.7°C 20% 2.9 mph NE4.7 kmh NE 8.1 mph13.0 kmh 30.45 in1031.2 mb 0.00 in0.0 mm 0.00 in0.0 mm 0.00 in0.0 mm
02:26 PM 39.6°F4.2°C 2.9°F-16.2°C 21% 2.9 mph NE4.7 kmh NE 8.1 mph13.0 kmh 30.44 in1030.8 mb 0.00 in0.0 mm 0.00 in0.0 mm 0.00 in0.0 mm
02:27 PM 39.6°F4.2°C 3.9°F-15.6°C 22% 2.9 mph 4.7 kmh 8.1 mph13.0 kmh 30.44 in1030.8 mb 0.00 in0.0 mm 0.00 in0.0 mm 0.00 in0.0 mm
02:28 PM 39.7°F4.3°C 3.0°F-16.1°C 21% 2.9 mph NE4.7 kmh NE 8.1 mph13.0 kmh 30.44 in1030.8 mb 0.00 in0.0 mm 0.00 in0.0 mm 0.00 in0.0 mm
02:29 PM 39.7°F4.3°C 2.0°F-16.7°C 20% 2.9 mph NE4.7 kmh NE 8.1 mph13.0 kmh 30.44 in1030.8 mb 0.00 in0.0 mm 0.00 in0.0 mm 0.00 in0.0 mm
02:30 PM 39.7°F4.3°C 3.0°F-16.1°C 21% 2.9 mph NE4.7 kmh NE 8.1 mph13.0 kmh 30.44 in1030.8 mb 0.00 in0.0 mm 0.00 in0.0 mm 0.00 in0.0 mm
02:31 PM 39.7°F4.3°C 4.0°F-15.6°C 22% 2.9 mph NNE4.7 kmh NNE 8.1 mph13.0 kmh 30.44 in1030.8 mb 0.00 in0.0 mm 0.00 in0.0 mm 0.00 in0.0 mm
02:32 PM 39.7°F4.3°C 4.0°F-15.6°C 22% 2.9 mph 4.7 kmh 8.1 mph13.0 kmh 30.45 in1031.2 mb 0.00 in0.0 mm 0.00 in0.0 mm 0.00 in0.0 mm
02:33 PM 39.7°F4.3°C 3.0°F-16.1°C 21% 2.9 mph NE4.7 kmh NE 8.1 mph13.0 kmh 30.45 in1031.2 mb 0.00 in0.0 mm 0.00 in0.0 mm 0.00 in0.0 mm
02:34 PM 39.7°F4.3°C 3.0°F-16.1°C 21% 2.9 mph E4.7 kmh E 11.0 mph17.7 kmh 30.45 in1031.2 mb 0.00 in0.0 mm 0.00 in0.0 mm 0.00 in0.0 mm
02:35 PM 39.7°F4.3°C 4.0°F-15.6°C 22% 2.9 mph NE4.7 kmh NE 11.0 mph17.7 kmh 30.45 in1031.2 mb 0.00 in0.0 mm 0.00 in0.0 mm 0.00 in0.0 mm
02:36 PM 39.7°F4.3°C 3.0°F-16.1°C 21% 2.9 mph NE4.7 kmh NE 11.0 mph17.7 kmh 30.45 in1031.2 mb 0.00 in0.0 mm 0.00 in0.0 mm 0.00 in0.0 mm
02:37 PM 39.7°F4.3°C 2.0°F-16.7°C 20% 2.9 mph ENE4.7 kmh ENE 11.0 mph17.7 kmh 30.44 in1030.8 mb 0.00 in0.0 mm 0.00 in0.0 mm 0.00 in0.0 mm
02:38 PM 39.7°F4.3°C 3.0°F-16.1°C 21% 2.9 mph ENE4.7 kmh ENE 11.0 mph17.7 kmh 30.45 in1031.2 mb 0.00 in0.0 mm 0.00 in0.0 mm 0.00 in0.0 mm
02:39 PM 39.7°F4.3°C 3.0°F-16.1°C 21% 2.9 mph NE4.7 kmh NE 11.0 mph17.7 kmh 30.45 in1031.2 mb 0.00 in0.0 mm 0.00 in0.0 mm 0.00 in0.0 mm
02:40 PM 39.7°F4.3°C 4.0°F-15.6°C 22% 2.9 mph NE4.7 kmh NE 11.0 mph17.7 kmh 30.45 in1031.2 mb 0.00 in0.0 mm 0.00 in0.0 mm 0.00 in0.0 mm
02:41 PM 39.7°F4.3°C 4.0°F-15.6°C 22% 2.9 mph NE4.7 kmh NE 11.0 mph17.7 kmh 30.45 in1031.2 mb 0.00 in0.0 mm 0.00 in0.0 mm 0.00 in0.0 mm
02:42 PM 39.7°F4.3°C 5.0°F-15.0°C 23% 2.9 mph ESE4.7 kmh ESE 11.0 mph17.7 kmh 30.45 in1031.2 mb 0.00 in0.0 mm 0.00 in0.0 mm 0.00 in0.0 mm
02:43 PM 39.7°F4.3°C 5.0°F-15.0°C 23% 2.9 mph NE4.7 kmh NE 11.0 mph17.7 kmh 30.45 in1031.2 mb 0.00 in0.0 mm 0.00 in0.0 mm 0.00 in0.0 mm
02:44 PM 39.7°F4.3°C 5.9°F-14.5°C 24% 2.9 mph SSW4.7 kmh SSW 11.0 mph17.7 kmh 30.45 in1031.2 mb 0.00 in0.0 mm 0.00 in0.0 mm 0.00 in0.0 mm
02:45 PM 39.6°F4.2°C 3.9°F-15.6°C 22% 2.0 mph SSW3.2 kmh SSW 11.0 mph17.7 kmh 30.45 in1031.2 mb 0.00 in0.0 mm 0.00 in0.0 mm 0.00 in0.0 mm
02:46 PM 39.6°F4.2°C 3.9°F-15.6°C 22% 2.0 mph NE3.2 kmh NE 11.0 mph17.7 kmh 30.45 in1031.2 mb 0.00 in0.0 mm 0.00 in0.0 mm 0.00 in0.0 mm
02:47 PM 39.6°F4.2°C 3.9°F-15.6°C 22% 2.0 mph NE3.2 kmh NE 11.0 mph17.7 kmh 30.45 in1031.2 mb 0.00 in0.0 mm 0.00 in0.0 mm 0.00 in0.0 mm
02:48 PM 39.6°F4.2°C 3.9°F-15.6°C 22% 2.0 mph NE3.2 kmh NE 11.0 mph17.7 kmh 30.45 in1031.2 mb 0.00 in0.0 mm 0.00 in0.0 mm 0.00 in0.0 mm
02:49 PM 39.4°F4.1°C 3.8°F-15.7°C 22% 2.0 mph NE3.2 kmh NE 11.0 mph17.7 kmh 30.45 in1031.2 mb 0.00 in0.0 mm 0.00 in0.0 mm 0.00 in0.0 mm
02:50 PM 39.4°F4.1°C 3.8°F-15.7°C 22% 2.0 mph NE3.2 kmh NE 11.0 mph17.7 kmh 30.45 in1031.2 mb 0.00 in0.0 mm 0.00 in0.0 mm 0.00 in0.0 mm
02:51 PM 39.2°F4.0°C 3.6°F-15.8°C 22% 2.0 mph ENE3.2 kmh ENE 11.0 mph17.7 kmh 30.45 in1031.2 mb 0.00 in0.0 mm 0.00 in0.0 mm 0.00 in0.0 mm
02:52 PM 39.4°F4.1°C 3.8°F-15.7°C 22% 2.0 mph ENE3.2 kmh ENE 11.0 mph17.7 kmh 30.45 in1031.2 mb 0.00 in0.0 mm 0.00 in0.0 mm 0.00 in0.0 mm
02:53 PM 39.2°F4.0°C 4.6°F-15.2°C 23% 2.0 mph NE3.2 kmh NE 11.0 mph17.7 kmh 30.45 in1031.2 mb 0.00 in0.0 mm 0.00 in0.0 mm 0.00 in0.0 mm
02:54 PM 39.2°F4.0°C 4.6°F-15.2°C 23% 2.0 mph NE3.2 kmh NE 6.0 mph9.7 kmh 30.45 in1031.2 mb 0.00 in0.0 mm 0.00 in0.0 mm 0.00 in0.0 mm
02:55 PM 39.2°F4.0°C 4.6°F-15.2°C 23% 2.0 mph NE3.2 kmh NE 6.0 mph9.7 kmh 30.45 in1031.2 mb 0.00 in0.0 mm 0.00 in0.0 mm 0.00 in0.0 mm
02:56 PM 39.2°F4.0°C 3.6°F-15.8°C 22% 2.0 mph SW3.2 kmh SW 6.0 mph9.7 kmh 30.45 in1031.2 mb 0.00 in0.0 mm 0.00 in0.0 mm 0.00 in0.0 mm
02:57 PM 39.2°F4.0°C 3.6°F-15.8°C 22% 2.0 mph NE3.2 kmh NE 6.0 mph9.7 kmh 30.45 in1031.2 mb 0.00 in0.0 mm 0.00 in0.0 mm 0.00 in0.0 mm
02:58 PM 39.4°F4.1°C 3.8°F-15.7°C 22% 2.0 mph N3.2 kmh N 6.0 mph9.7 kmh 30.45 in1031.2 mb 0.00 in0.0 mm 0.00 in0.0 mm 0.00 in0.0 mm
02:59 PM 39.4°F4.1°C 3.8°F-15.7°C 22% 2.0 mph N3.2 kmh N 6.0 mph9.7 kmh 30.45 in1031.2 mb 0.00 in0.0 mm 0.00 in0.0 mm 0.00 in0.0 mm
03:00 PM 39.4°F4.1°C 3.8°F-15.7°C 22% 2.0 mph N3.2 kmh N 6.0 mph9.7 kmh 30.45 in1031.2 mb 0.00 in0.0 mm 0.00 in0.0 mm 0.00 in0.0 mm
03:01 PM 39.4°F4.1°C 3.8°F-15.7°C 22% 2.0 mph NE3.2 kmh NE 6.0 mph9.7 kmh 30.45 in1031.2 mb 0.00 in0.0 mm 0.00 in0.0 mm 0.00 in0.0 mm
03:02 PM 39.4°F4.1°C 3.8°F-15.7°C 22% 2.0 mph SSW3.2 kmh SSW 6.0 mph9.7 kmh 30.45 in1031.2 mb 0.00 in0.0 mm 0.00 in0.0 mm 0.00 in0.0 mm
03:03 PM 39.4°F4.1°C 2.8°F-16.2°C 21% 2.0 mph SSW3.2 kmh SSW 4.9 mph7.9 kmh 30.45 in1031.2 mb 0.00 in0.0 mm 0.00 in0.0 mm 0.00 in0.0 mm
03:04 PM 39.4°F4.1°C 3.8°F-15.7°C 22% 2.0 mph NE3.2 kmh NE 4.9 mph7.9 kmh 30.45 in1031.2 mb 0.00 in0.0 mm 0.00 in0.0 mm 0.00 in0.0 mm
03:05 PM 39.4°F4.1°C 3.8°F-15.7°C 22% 2.0 mph NE3.2 kmh NE 4.9 mph7.9 kmh 30.45 in1031.2 mb 0.00 in0.0 mm 0.00 in0.0 mm 0.00 in0.0 mm
03:06 PM 39.2°F4.0°C 4.6°F-15.2°C 23% 2.0 mph NE3.2 kmh NE 4.9 mph7.9 kmh 30.45 in1031.2 mb 0.00 in0.0 mm 0.00 in0.0 mm 0.00 in0.0 mm
03:07 PM 39.0°F3.9°C 4.4°F-15.3°C 23% 2.0 mph ENE3.2 kmh ENE 4.9 mph7.9 kmh 30.45 in1031.2 mb 0.00 in0.0 mm 0.00 in0.0 mm 0.00 in0.0 mm
03:08 PM 39.0°F3.9°C 4.4°F-15.3°C 23% 2.0 mph S3.2 kmh S 6.0 mph9.7 kmh 30.45 in1031.2 mb 0.00 in0.0 mm 0.00 in0.0 mm 0.00 in0.0 mm
03:09 PM 39.0°F3.9°C 3.4°F-15.9°C 22% 2.0 mph ENE3.2 kmh ENE 6.0 mph9.7 kmh 30.45 in1031.2 mb 0.00 in0.0 mm 0.00 in0.0 mm 0.00 in0.0 mm
03:10 PM 39.0°F3.9°C 4.4°F-15.3°C 23% 2.0 mph NE3.2 kmh NE 6.0 mph9.7 kmh 30.45 in1031.2 mb 0.00 in0.0 mm 0.00 in0.0 mm 0.00 in0.0 mm
03:11 PM 39.0°F3.9°C 4.4°F-15.3°C 23% 2.0 mph NE3.2 kmh NE 6.0 mph9.7 kmh 30.45 in1031.2 mb 0.00 in0.0 mm 0.00 in0.0 mm 0.00 in0.0 mm
03:12 PM 38.8°F3.8°C 3.3°F-15.9°C 22% 2.0 mph NE3.2 kmh NE 7.0 mph11.3 kmh 30.45 in1031.2 mb 0.00 in0.0 mm 0.00 in0.0 mm 0.00 in0.0 mm
03:13 PM 38.8°F3.8°C 2.3°F-16.5°C 21% 2.0 mph NNE3.2 kmh NNE 7.0 mph11.3 kmh 30.45 in1031.2 mb 0.00 in0.0 mm 0.00 in0.0 mm 0.00 in0.0 mm
03:14 PM 38.8°F3.8°C 3.3°F-15.9°C 22% 2.0 mph NE3.2 kmh NE 7.0 mph11.3 kmh 30.45 in1031.2 mb 0.00 in0.0 mm 0.00 in0.0 mm 0.00 in0.0 mm
03:15 PM 38.8°F3.8°C 4.2°F-15.4°C 23% 2.0 mph NE3.2 kmh NE 7.0 mph11.3 kmh 30.45 in1031.2 mb 0.00 in0.0 mm 0.00 in0.0 mm 0.00 in0.0 mm
03:16 PM 38.7°F3.7°C 3.2°F-16.0°C 22% 2.0 mph NE3.2 kmh NE 7.0 mph11.3 kmh 30.45 in1031.2 mb 0.00 in0.0 mm 0.00 in0.0 mm 0.00 in0.0 mm
03:17 PM 38.7°F3.7°C 3.2°F-16.0°C 22% 2.9 mph ENE4.7 kmh ENE 7.0 mph11.3 kmh 30.45 in1031.2 mb 0.00 in0.0 mm 0.00 in0.0 mm 0.00 in0.0 mm
03:18 PM 38.7°F3.7°C 3.2°F-16.0°C 22% 2.9 mph ENE4.7 kmh ENE 7.0 mph11.3 kmh 30.45 in1031.2 mb 0.00 in0.0 mm 0.00 in0.0 mm 0.00 in0.0 mm
03:19 PM 38.7°F3.7°C 4.1°F-15.5°C 23% 2.9 mph ENE4.7 kmh ENE 7.0 mph11.3 kmh 30.45 in1031.2 mb 0.00 in0.0 mm 0.00 in0.0 mm 0.00 in0.0 mm
03:20 PM 38.7°F3.7°C 4.1°F-15.5°C 23% 2.9 mph ENE4.7 kmh ENE 7.0 mph11.3 kmh 30.45 in1031.2 mb 0.00 in0.0 mm 0.00 in0.0 mm 0.00 in0.0 mm
03:21 PM 38.7°F3.7°C 4.1°F-15.5°C 23% 2.9 mph NNE4.7 kmh NNE 7.0 mph11.3 kmh 30.45 in1031.2 mb 0.00 in0.0 mm 0.00 in0.0 mm 0.00 in0.0 mm
03:22 PM 38.5°F3.6°C 3.0°F-16.1°C 22% 2.9 mph E4.7 kmh E 6.0 mph9.7 kmh 30.46 in1031.5 mb 0.00 in0.0 mm 0.00 in0.0 mm 0.00 in0.0 mm
03:23 PM 38.5°F3.6°C 3.0°F-16.1°C 22% 2.0 mph SE3.2 kmh SE 6.0 mph9.7 kmh 30.46 in1031.5 mb 0.00 in0.0 mm 0.00 in0.0 mm 0.00 in0.0 mm
03:24 PM 38.5°F3.6°C 2.0°F-16.7°C 21% 2.0 mph S3.2 kmh S 6.0 mph9.7 kmh 30.46 in1031.5 mb 0.00 in0.0 mm 0.00 in0.0 mm 0.00 in0.0 mm
03:25 PM 38.5°F3.6°C 3.0°F-16.1°C 22% 2.0 mph S3.2 kmh S 6.0 mph9.7 kmh 30.46 in1031.5 mb 0.00 in0.0 mm 0.00 in0.0 mm 0.00 in0.0 mm
03:26 PM 38.5°F3.6°C 3.0°F-16.1°C 22% 2.0 mph NNE3.2 kmh NNE 6.0 mph9.7 kmh 30.46 in1031.5 mb 0.00 in0.0 mm 0.00 in0.0 mm 0.00 in0.0 mm
03:27 PM 38.3°F3.5°C 2.8°F-16.2°C 22% 2.0 mph NE3.2 kmh NE 6.0 mph9.7 kmh 30.46 in1031.5 mb 0.00 in0.0 mm 0.00 in0.0 mm 0.00 in0.0 mm
03:28 PM 38.3°F3.5°C 3.8°F-15.7°C 23% 2.0 mph NE3.2 kmh NE 6.0 mph9.7 kmh 30.46 in1031.5 mb 0.00 in0.0 mm 0.00 in0.0 mm 0.00 in0.0 mm
03:29 PM 38.3°F3.5°C 3.8°F-15.7°C 23% 2.0 mph NNE3.2 kmh NNE 6.0 mph9.7 kmh 30.46 in1031.5 mb 0.00 in0.0 mm 0.00 in0.0 mm 0.00 in0.0 mm
03:30 PM 38.1°F3.4°C 3.6°F-15.8°C 23% 2.0 mph NE3.2 kmh NE 6.0 mph9.7 kmh 30.46 in1031.5 mb 0.00 in0.0 mm 0.00 in0.0 mm 0.00 in0.0 mm
03:31 PM 38.1°F3.4°C 3.6°F-15.8°C 23% 2.0 mph NE3.2 kmh NE 6.0 mph9.7 kmh 30.46 in1031.5 mb 0.00 in0.0 mm 0.00 in0.0 mm 0.00 in0.0 mm
03:32 PM 38.1°F3.4°C 3.6°F-15.8°C 23% 2.0 mph NE3.2 kmh NE 6.0 mph9.7 kmh 30.46 in1031.5 mb 0.00 in0.0 mm 0.00 in0.0 mm 0.00 in0.0 mm
03:33 PM 38.1°F3.4°C 4.5°F-15.3°C 24% 2.0 mph ENE3.2 kmh ENE 6.0 mph9.7 kmh 30.46 in1031.5 mb 0.00 in0.0 mm 0.00 in0.0 mm 0.00 in0.0 mm
03:34 PM 38.1°F3.4°C 4.5°F-15.3°C 24% 2.0 mph ENE3.2 kmh ENE 6.0 mph9.7 kmh 30.46 in1031.5 mb 0.00 in0.0 mm 0.00 in0.0 mm 0.00 in0.0 mm
03:35 PM 38.1°F3.4°C 4.5°F-15.3°C 24% 2.0 mph ENE3.2 kmh ENE 6.0 mph9.7 kmh 30.46 in1031.5 mb 0.00 in0.0 mm 0.00 in0.0 mm 0.00 in0.0 mm
03:36 PM 38.1°F3.4°C 3.6°F-15.8°C 23% 2.0 mph NE3.2 kmh NE 6.0 mph9.7 kmh 30.46 in1031.5 mb 0.00 in0.0 mm 0.00 in0.0 mm 0.00 in0.0 mm
03:37 PM 38.1°F3.4°C 4.5°F-15.3°C 24% 2.0 mph ENE3.2 kmh ENE 6.0 mph9.7 kmh 30.46 in1031.5 mb 0.00 in0.0 mm 0.00 in0.0 mm 0.00 in0.0 mm
03:38 PM 37.9°F3.3°C 4.4°F-15.3°C 24% 2.0 mph ENE3.2 kmh ENE 6.0 mph9.7 kmh 30.46 in1031.5 mb 0.00 in0.0 mm 0.00 in0.0 mm 0.00 in0.0 mm
03:39 PM 37.9°F3.3°C 4.4°F-15.3°C 24% 2.0 mph E3.2 kmh E 6.0 mph9.7 kmh 30.46 in1031.5 mb 0.00 in0.0 mm 0.00 in0.0 mm 0.00 in0.0 mm
03:40 PM 37.9°F3.3°C 4.4°F-15.3°C 24% 2.0 mph NE3.2 kmh NE 7.0 mph11.3 kmh 30.46 in1031.5 mb 0.00 in0.0 mm 0.00 in0.0 mm 0.00 in0.0 mm
03:41 PM 37.9°F3.3°C 3.5°F-15.8°C 23% 2.0 mph NE3.2 kmh NE 7.0 mph11.3 kmh 30.46 in1031.5 mb 0.00 in0.0 mm 0.00 in0.0 mm 0.00 in0.0 mm
03:42 PM 37.9°F3.3°C 3.5°F-15.8°C 23% 2.0 mph NE3.2 kmh NE 7.0 mph11.3 kmh 30.46 in1031.5 mb 0.00 in0.0 mm 0.00 in0.0 mm 0.00 in0.0 mm
03:43 PM 37.9°F3.3°C 3.5°F-15.8°C 23% 2.9 mph NE4.7 kmh NE 7.0 mph11.3 kmh 30.46 in1031.5 mb 0.00 in0.0 mm 0.00 in0.0 mm 0.00 in0.0 mm
03:44 PM 37.9°F3.3°C 3.5°F-15.8°C 23% 2.9 mph NE4.7 kmh NE 7.0 mph11.3 kmh 30.46 in1031.5 mb 0.00 in0.0 mm 0.00 in0.0 mm 0.00 in0.0 mm
03:45 PM 37.9°F3.3°C 3.5°F-15.8°C 23% 2.9 mph E4.7 kmh E 7.0 mph11.3 kmh 30.46 in1031.5 mb 0.00 in0.0 mm 0.00 in0.0 mm 0.00 in0.0 mm
03:46 PM 37.9°F3.3°C 3.5°F-15.8°C 23% 2.9 mph N4.7 kmh N 7.0 mph11.3 kmh 30.46 in1031.5 mb 0.00 in0.0 mm 0.00 in0.0 mm 0.00 in0.0 mm
03:47 PM 37.9°F3.3°C 3.5°F-15.8°C 23% 2.9 mph NE4.7 kmh NE 7.0 mph11.3 kmh 30.46 in1031.5 mb 0.00 in0.0 mm 0.00 in0.0 mm 0.00 in0.0 mm
03:48 PM 37.9°F3.3°C 3.5°F-15.8°C 23% 2.9 mph NE4.7 kmh NE 7.0 mph11.3 kmh 30.46 in1031.5 mb 0.00 in0.0 mm 0.00 in0.0 mm 0.00 in0.0 mm
03:49 PM 37.9°F3.3°C 3.5°F-15.8°C 23% 2.9 mph NE4.7 kmh NE 7.0 mph11.3 kmh 30.46 in1031.5 mb 0.00 in0.0 mm 0.00 in0.0 mm 0.00 in0.0 mm
03:50 PM 37.8°F3.2°C 4.3°F-15.4°C 24% 2.9 mph NE4.7 kmh NE 6.0 mph9.7 kmh 30.46 in1031.5 mb 0.00 in0.0 mm 0.00 in0.0 mm 0.00 in0.0 mm
03:51 PM 37.8°F3.2°C 5.2°F-14.9°C 25% 2.9 mph NE4.7 kmh NE 6.0 mph9.7 kmh 30.46 in1031.5 mb 0.00 in0.0 mm 0.00 in0.0 mm 0.00 in0.0 mm
03:52 PM 37.8°F3.2°C 5.2°F-14.9°C 25% 2.9 mph NE4.7 kmh NE 6.0 mph9.7 kmh 30.46 in1031.5 mb 0.00 in0.0 mm 0.00 in0.0 mm 0.00 in0.0 mm
03:53 PM 37.8°F3.2°C 5.2°F-14.9°C 25% 2.9 mph NE4.7 kmh NE 6.0 mph9.7 kmh 30.45 in1031.2 mb 0.00 in0.0 mm 0.00 in0.0 mm 0.00 in0.0 mm
03:54 PM 37.8°F3.2°C 5.2°F-14.9°C 25% 2.9 mph ENE4.7 kmh ENE 6.0 mph9.7 kmh 30.45 in1031.2 mb 0.00 in0.0 mm 0.00 in0.0 mm 0.00 in0.0 mm
03:55 PM 37.8°F3.2°C 6.0°F-14.4°C 26% 2.0 mph NE3.2 kmh NE 6.0 mph9.7 kmh 30.45 in1031.2 mb 0.00 in0.0 mm 0.00 in0.0 mm 0.00 in0.0 mm
03:56 PM 37.6°F3.1°C 5.9°F-14.5°C 26% 2.9 mph ENE4.7 kmh ENE 6.0 mph9.7 kmh 30.46 in1031.5 mb 0.00 in0.0 mm 0.00 in0.0 mm 0.00 in0.0 mm
03:57 PM 37.6°F3.1°C 6.7°F-14.1°C 27% 2.9 mph NE4.7 kmh NE 6.0 mph9.7 kmh 30.46 in1031.5 mb 0.00 in0.0 mm 0.00 in0.0 mm 0.00 in0.0 mm
03:58 PM 37.6°F3.1°C 5.9°F-14.5°C 26% 2.0 mph ENE3.2 kmh ENE 6.0 mph9.7 kmh 30.46 in1031.5 mb 0.00 in0.0 mm 0.00 in0.0 mm 0.00 in0.0 mm
03:59 PM 37.2°F2.9°C 5.5°F-14.7°C 26% 2.0 mph NE3.2 kmh NE 8.9 mph14.3 kmh 30.46 in1031.5 mb 0.00 in0.0 mm 0.00 in0.0 mm 0.00 in0.0 mm
04:00 PM 37.2°F2.9°C 5.5°F-14.7°C 26% 2.0 mph NE3.2 kmh NE 10.0 mph16.1 kmh 30.46 in1031.5 mb 0.00 in0.0 mm 0.00 in0.0 mm 0.00 in0.0 mm
04:01 PM 37.2°F2.9°C 5.5°F-14.7°C 26% 2.9 mph E4.7 kmh E 10.0 mph16.1 kmh 30.46 in1031.5 mb 0.00 in0.0 mm 0.00 in0.0 mm 0.00 in0.0 mm
04:02 PM 37.2°F2.9°C 5.5°F-14.7°C 26% 2.9 mph E4.7 kmh E 10.0 mph16.1 kmh 30.46 in1031.5 mb 0.00 in0.0 mm 0.00 in0.0 mm 0.00 in0.0 mm
04:03 PM 37.2°F2.9°C 6.3°F-14.3°C 27% 2.9 mph E4.7 kmh E 10.0 mph16.1 kmh 30.46 in1031.5 mb 0.00 in0.0 mm 0.00 in0.0 mm 0.00 in0.0 mm
04:04 PM 37.0°F2.8°C 6.2°F-14.3°C 27% 2.0 mph E3.2 kmh E 10.0 mph16.1 kmh 30.46 in1031.5 mb 0.00 in0.0 mm 0.00 in0.0 mm 0.00 in0.0 mm
04:05 PM 37.0°F2.8°C 7.0°F-13.9°C 28% 2.0 mph E3.2 kmh E 10.0 mph16.1 kmh 30.46 in1031.5 mb 0.00 in0.0 mm 0.00 in0.0 mm 0.00 in0.0 mm
04:06 PM 37.0°F2.8°C 7.0°F-13.9°C 28% 2.0 mph NNE3.2 kmh NNE 10.0 mph16.1 kmh 30.46 in1031.5 mb 0.00 in0.0 mm 0.00 in0.0 mm 0.00 in0.0 mm
04:07 PM 37.0°F2.8°C 6.2°F-14.3°C 27% 2.0 mph NE3.2 kmh NE 10.0 mph16.1 kmh 30.46 in1031.5 mb 0.00 in0.0 mm 0.00 in0.0 mm 0.00 in0.0 mm
04:08 PM 36.9°F2.7°C 6.1°F-14.4°C 27% 2.0 mph ENE3.2 kmh ENE 10.0 mph16.1 kmh 30.46 in1031.5 mb 0.00 in0.0 mm 0.00 in0.0 mm 0.00 in0.0 mm
04:09 PM 36.9°F2.7°C 6.1°F-14.4°C 27% 2.0 mph E3.2 kmh E 8.1 mph13.0 kmh 30.46 in1031.5 mb 0.00 in0.0 mm 0.00 in0.0 mm 0.00 in0.0 mm
04:10 PM 36.9°F2.7°C 6.1°F-14.4°C 27% 2.0 mph E3.2 kmh E 4.9 mph7.9 kmh 30.46 in1031.5 mb 0.00 in0.0 mm 0.00 in0.0 mm 0.00 in0.0 mm
04:11 PM 36.9°F2.7°C 6.1°F-14.4°C 27% 2.0 mph E3.2 kmh E 4.9 mph7.9 kmh 30.46 in1031.5 mb 0.00 in0.0 mm 0.00 in0.0 mm 0.00 in0.0 mm
04:12 PM 36.7°F2.6°C 5.9°F-14.5°C 27% 2.0 mph NE3.2 kmh NE 4.9 mph7.9 kmh 30.46 in1031.5 mb 0.00 in0.0 mm 0.00 in0.0 mm 0.00 in0.0 mm
04:13 PM 36.7°F2.6°C 5.9°F-14.5°C 27% 2.0 mph NE3.2 kmh NE 8.1 mph13.0 kmh 30.46 in1031.5 mb 0.00 in0.0 mm 0.00 in0.0 mm 0.00 in0.0 mm
04:14 PM 36.7°F2.6°C 5.9°F-14.5°C 27% 2.0 mph ENE3.2 kmh ENE 8.1 mph13.0 kmh 30.46 in1031.5 mb 0.00 in0.0 mm 0.00 in0.0 mm 0.00 in0.0 mm
04:15 PM 36.7°F2.6°C 5.9°F-14.5°C 27% 2.9 mph E4.7 kmh E 8.1 mph13.0 kmh 30.46 in1031.5 mb 0.00 in0.0 mm 0.00 in0.0 mm 0.00 in0.0 mm
04:16 PM 36.7°F2.6°C 6.7°F-14.1°C 28% 2.9 mph E4.7 kmh E 8.1 mph13.0 kmh 30.46 in1031.5 mb 0.00 in0.0 mm 0.00 in0.0 mm 0.00 in0.0 mm
04:17 PM 36.5°F2.5°C 5.7°F-14.6°C 27% 2.9 mph ENE4.7 kmh ENE 8.1 mph13.0 kmh 30.46 in1031.5 mb 0.00 in0.0 mm 0.00 in0.0 mm 0.00 in0.0 mm
04:18 PM 36.5°F2.5°C 5.7°F-14.6°C 27% 2.0 mph ENE3.2 kmh ENE 8.1 mph13.0 kmh 30.46 in1031.5 mb 0.00 in0.0 mm 0.00 in0.0 mm 0.00 in0.0 mm
04:19 PM 36.3°F2.4°C 6.4°F-14.2°C 28% 2.9 mph ENE4.7 kmh ENE 8.1 mph13.0 kmh 30.46 in1031.5 mb 0.00 in0.0 mm 0.00 in0.0 mm 0.00 in0.0 mm
04:20 PM 36.3°F2.4°C 5.6°F-14.7°C 27% 2.9 mph ENE4.7 kmh ENE 8.1 mph13.0 kmh 30.46 in1031.5 mb 0.00 in0.0 mm 0.00 in0.0 mm 0.00 in0.0 mm
04:21 PM 36.3°F2.4°C 6.4°F-14.2°C 28% 2.0 mph ENE3.2 kmh ENE 8.1 mph13.0 kmh 30.46 in1031.5 mb 0.00 in0.0 mm 0.00 in0.0 mm 0.00 in0.0 mm
04:22 PM 36.3°F2.4°C 6.4°F-14.2°C 28% 2.0 mph E3.2 kmh E 8.1 mph13.0 kmh 30.46 in1031.5 mb 0.00 in0.0 mm 0.00 in0.0 mm 0.00 in0.0 mm
04:23 PM 36.3°F2.4°C 6.4°F-14.2°C 28% 2.0 mph E3.2 kmh E 8.0 mph12.9 kmh 30.46 in1031.5 mb 0.00 in0.0 mm 0.00 in0.0 mm 0.00 in0.0 mm
04:24 PM 36.1°F2.3°C 7.0°F-13.9°C 29% 2.0 mph E3.2 kmh E 8.0 mph12.9 kmh 30.46 in1031.5 mb 0.00 in0.0 mm 0.00 in0.0 mm 0.00 in0.0 mm
04:25 PM 36.1°F2.3°C 6.2°F-14.3°C 28% 2.0 mph NE3.2 kmh NE 8.0 mph12.9 kmh 30.46 in1031.5 mb 0.00 in0.0 mm 0.00 in0.0 mm 0.00 in0.0 mm
04:26 PM 36.1°F2.3°C 6.2°F-14.3°C 28% 2.0 mph NE3.2 kmh NE 8.0 mph12.9 kmh 30.46 in1031.5 mb 0.00 in0.0 mm 0.00 in0.0 mm 0.00 in0.0 mm
04:27 PM 36.0°F2.2°C 6.9°F-13.9°C 29% 2.0 mph NE3.2 kmh NE 8.0 mph12.9 kmh 30.46 in1031.5 mb 0.00 in0.0 mm 0.00 in0.0 mm 0.00 in0.0 mm
04:28 PM 36.0°F2.2°C 6.1°F-14.4°C 28% 2.0 mph NE3.2 kmh NE 8.0 mph12.9 kmh 30.46 in1031.5 mb 0.00 in0.0 mm 0.00 in0.0 mm 0.00 in0.0 mm
04:29 PM 36.0°F2.2°C 6.1°F-14.4°C 28% 2.0 mph ENE3.2 kmh ENE 8.0 mph12.9 kmh 30.46 in1031.5 mb 0.00 in0.0 mm 0.00 in0.0 mm 0.00 in0.0 mm
04:30 PM 36.0°F2.2°C 6.9°F-13.9°C 29% 2.0 mph ENE3.2 kmh ENE 8.0 mph12.9 kmh 30.46 in1031.5 mb 0.00 in0.0 mm 0.00 in0.0 mm 0.00 in0.0 mm
04:31 PM 36.0°F2.2°C 6.9°F-13.9°C 29% 2.0 mph ENE3.2 kmh ENE 8.0 mph12.9 kmh 30.46 in1031.5 mb 0.00 in0.0 mm 0.00 in0.0 mm 0.00 in0.0 mm
04:32 PM 35.8°F2.1°C 6.7°F-14.1°C 29% 2.0 mph ENE3.2 kmh ENE 8.0 mph12.9 kmh 30.46 in1031.5 mb 0.00 in0.0 mm 0.00 in0.0 mm 0.00 in0.0 mm
04:33 PM 35.8°F2.1°C 6.7°F-14.1°C 29% 2.0 mph E3.2 kmh E 5.0 mph8.0 kmh 30.46 in1031.5 mb 0.00 in0.0 mm 0.00 in0.0 mm 0.00 in0.0 mm
04:34 PM 35.8°F2.1°C 6.7°F-14.1°C 29% 0.9 mph ENE1.4 kmh ENE 5.0 mph8.0 kmh 30.46 in1031.5 mb 0.00 in0.0 mm 0.00 in0.0 mm 0.00 in0.0 mm
04:35 PM 35.8°F2.1°C 6.7°F-14.1°C 29% 0.9 mph ENE1.4 kmh ENE 5.0 mph8.0 kmh 30.46 in1031.5 mb 0.00 in0.0 mm 0.00 in0.0 mm 0.00 in0.0 mm
04:36 PM 35.6°F2.0°C 6.5°F-14.2°C 29% 0.9 mph ENE1.4 kmh ENE 5.0 mph8.0 kmh 30.46 in1031.5 mb 0.00 in0.0 mm 0.00 in0.0 mm 0.00 in0.0 mm
04:37 PM 35.6°F2.0°C 6.5°F-14.2°C 29% 0.9 mph N1.4 kmh N 5.0 mph8.0 kmh 30.46 in1031.5 mb 0.00 in0.0 mm 0.00 in0.0 mm 0.00 in0.0 mm
04:38 PM 35.4°F1.9°C 6.3°F-14.3°C 29% 0.9 mph NE1.4 kmh NE 5.0 mph8.0 kmh 30.46 in1031.5 mb 0.00 in0.0 mm 0.00 in0.0 mm 0.00 in0.0 mm
04:39 PM 35.4°F1.9°C 6.3°F-14.3°C 29% 0.9 mph NE1.4 kmh NE 5.0 mph8.0 kmh 30.46 in1031.5 mb 0.00 in0.0 mm 0.00 in0.0 mm 0.00 in0.0 mm
04:40 PM 35.4°F1.9°C 6.3°F-14.3°C 29% 0.9 mph NE1.4 kmh NE 5.0 mph8.0 kmh 30.46 in1031.5 mb 0.00 in0.0 mm 0.00 in0.0 mm 0.00 in0.0 mm
04:41 PM 35.4°F1.9°C 7.1°F-13.8°C 30% 0.9 mph NE1.4 kmh NE 5.0 mph8.0 kmh 30.46 in1031.5 mb 0.00 in0.0 mm 0.00 in0.0 mm 0.00 in0.0 mm
04:42 PM 35.4°F1.9°C 7.1°F-13.8°C 30% 0.9 mph NE1.4 kmh NE 5.0 mph8.0 kmh 30.46 in1031.5 mb 0.00 in0.0 mm 0.00 in0.0 mm 0.00 in0.0 mm
04:43 PM 35.2°F1.8°C 6.2°F-14.3°C 29% 0.9 mph NE1.4 kmh NE 4.9 mph7.9 kmh 30.46 in1031.5 mb 0.00 in0.0 mm 0.00 in0.0 mm 0.00 in0.0 mm
04:44 PM 35.2°F1.8°C 6.2°F-14.3°C 29% 0.9 mph NE1.4 kmh NE 4.9 mph7.9 kmh 30.46 in1031.5 mb 0.00 in0.0 mm 0.00 in0.0 mm 0.00 in0.0 mm
04:45 PM 35.2°F1.8°C 6.9°F-13.9°C 30% 0.9 mph NE1.4 kmh NE 4.9 mph7.9 kmh 30.46 in1031.5 mb 0.00 in0.0 mm 0.00 in0.0 mm 0.00 in0.0 mm
04:46 PM 35.2°F1.8°C 6.2°F-14.3°C 29% 0.9 mph NE1.4 kmh NE 4.9 mph7.9 kmh 30.46 in1031.5 mb 0.00 in0.0 mm 0.00 in0.0 mm 0.00 in0.0 mm
04:47 PM 35.1°F1.7°C 6.1°F-14.4°C 29% 0.9 mph NNE1.4 kmh NNE 4.9 mph7.9 kmh 30.46 in1031.5 mb 0.00 in0.0 mm 0.00 in0.0 mm 0.00 in0.0 mm
04:48 PM 35.1°F1.7°C 6.1°F-14.4°C 29% 2.0 mph NNE3.2 kmh NNE 4.9 mph7.9 kmh 30.46 in1031.5 mb 0.00 in0.0 mm 0.00 in0.0 mm 0.00 in0.0 mm
04:49 PM 35.1°F1.7°C 6.8°F-14.0°C 30% 0.9 mph NNE1.4 kmh NNE 4.9 mph7.9 kmh 30.46 in1031.5 mb 0.00 in0.0 mm 0.00 in0.0 mm 0.00 in0.0 mm
04:50 PM 35.1°F1.7°C 6.1°F-14.4°C 29% 0.9 mph NE1.4 kmh NE 4.9 mph7.9 kmh 30.46 in1031.5 mb 0.00 in0.0 mm 0.00 in0.0 mm 0.00 in0.0 mm
04:51 PM 35.1°F1.7°C 6.8°F-14.0°C 30% 2.0 mph NNE3.2 kmh NNE 4.9 mph7.9 kmh 30.46 in1031.5 mb 0.00 in0.0 mm 0.00 in0.0 mm 0.00 in0.0 mm
04:52 PM 35.1°F1.7°C 6.8°F-14.0°C 30% 2.0 mph NE3.2 kmh NE 4.9 mph7.9 kmh 30.46 in1031.5 mb 0.00 in0.0 mm 0.00 in0.0 mm 0.00 in0.0 mm
04:53 PM 34.9°F1.6°C 5.9°F-14.5°C 29% 2.0 mph NE3.2 kmh NE 4.9 mph7.9 kmh 30.46 in1031.5 mb 0.00 in0.0 mm 0.00 in0.0 mm 0.00 in0.0 mm
04:54 PM 34.9°F1.6°C 6.6°F-14.1°C 30% 2.0 mph NE3.2 kmh NE 4.9 mph7.9 kmh 30.47 in1031.8 mb 0.00 in0.0 mm 0.00 in0.0 mm 0.00 in0.0 mm
04:56 PM 34.9°F1.6°C 6.6°F-14.1°C 30% 2.0 mph ENE3.2 kmh ENE 4.9 mph7.9 kmh 30.46 in1031.5 mb 0.00 in0.0 mm 0.00 in0.0 mm 0.00 in0.0 mm
04:57 PM 34.9°F1.6°C 6.6°F-14.1°C 30% 2.0 mph ENE3.2 kmh ENE 4.0 mph6.4 kmh 30.46 in1031.5 mb 0.00 in0.0 mm 0.00 in0.0 mm 0.00 in0.0 mm
04:59 PM 34.9°F1.6°C 6.6°F-14.1°C 30% 0.9 mph ENE1.4 kmh ENE 4.0 mph6.4 kmh 30.46 in1031.5 mb 0.00 in0.0 mm 0.00 in0.0 mm 0.00 in0.0 mm
05:00 PM 34.7°F1.5°C 6.5°F-14.2°C 30% 2.0 mph ENE3.2 kmh ENE 4.0 mph6.4 kmh 30.46 in1031.5 mb 0.00 in0.0 mm 0.00 in0.0 mm 0.00 in0.0 mm
05:01 PM 34.5°F1.4°C 7.0°F-13.9°C 31% 2.0 mph ENE3.2 kmh ENE 4.0 mph6.4 kmh 30.46 in1031.5 mb 0.00 in0.0 mm 0.00 in0.0 mm 0.00 in0.0 mm
05:02 PM 34.5°F1.4°C 6.3°F-14.3°C 30% 0.9 mph ENE1.4 kmh ENE 4.0 mph6.4 kmh 30.46 in1031.5 mb 0.00 in0.0 mm 0.00 in0.0 mm 0.00 in0.0 mm
05:03 PM 34.5°F1.4°C 6.3°F-14.3°C 30% 0.9 mph ENE1.4 kmh ENE 4.0 mph6.4 kmh 30.46 in1031.5 mb 0.00 in0.0 mm 0.00 in0.0 mm 0.00 in0.0 mm
05:04 PM 34.5°F1.4°C 6.3°F-14.3°C 30% 0.9 mph ENE1.4 kmh ENE 2.9 mph4.7 kmh 30.46 in1031.5 mb 0.00 in0.0 mm 0.00 in0.0 mm 0.00 in0.0 mm
05:05 PM 34.3°F1.3°C 6.1°F-14.4°C 30% 0.9 mph ENE1.4 kmh ENE 4.0 mph6.4 kmh 30.46 in1031.5 mb 0.00 in0.0 mm 0.00 in0.0 mm 0.00 in0.0 mm
05:06 PM 34.3°F1.3°C 6.1°F-14.4°C 30% 0.9 mph NE1.4 kmh NE 4.0 mph6.4 kmh 30.46 in1031.5 mb 0.00 in0.0 mm 0.00 in0.0 mm 0.00 in0.0 mm
05:07 PM 34.3°F1.3°C 6.1°F-14.4°C 30% 0.9 mph NE1.4 kmh NE 4.0 mph6.4 kmh 30.46 in1031.5 mb 0.00 in0.0 mm 0.00 in0.0 mm 0.00 in0.0 mm
05:08 PM 34.3°F1.3°C 6.8°F-14.0°C 31% 0.9 mph NE1.4 kmh NE 4.0 mph6.4 kmh 30.47 in1031.8 mb 0.00 in0.0 mm 0.00 in0.0 mm 0.00 in0.0 mm
05:09 PM 34.3°F1.3°C 6.8°F-14.0°C 31% 0.9 mph NE1.4 kmh NE 4.0 mph6.4 kmh 30.47 in1031.8 mb 0.00 in0.0 mm 0.00 in0.0 mm 0.00 in0.0 mm
05:10 PM 34.2°F1.2°C 6.8°F-14.0°C 31% 0.9 mph NE1.4 kmh NE 4.0 mph6.4 kmh 30.46 in1031.5 mb 0.00 in0.0 mm 0.00 in0.0 mm 0.00 in0.0 mm
05:11 PM 34.2°F1.2°C 6.8°F-14.0°C 31% 0.9 mph NE1.4 kmh NE 4.0 mph6.4 kmh 30.46 in1031.5 mb 0.00 in0.0 mm 0.00 in0.0 mm 0.00 in0.0 mm
05:12 PM 34.2°F1.2°C 6.8°F-14.0°C 31% 0.9 mph NE1.4 kmh NE 4.0 mph6.4 kmh 30.46 in1031.5 mb 0.00 in0.0 mm 0.00 in0.0 mm 0.00 in0.0 mm
05:13 PM 34.2°F1.2°C 6.8°F-14.0°C 31% 0.9 mph NE1.4 kmh NE 4.0 mph6.4 kmh 30.46 in1031.5 mb 0.00 in0.0 mm 0.00 in0.0 mm 0.00 in0.0 mm
05:14 PM 34.2°F1.2°C 6.8°F-14.0°C 31% 0.9 mph NE1.4 kmh NE 4.0 mph6.4 kmh 30.46 in1031.5 mb 0.00 in0.0 mm 0.00 in0.0 mm 0.00 in0.0 mm
05:15 PM 34.0°F1.1°C 6.6°F-14.1°C 31% 0.9 mph NE1.4 kmh NE 4.0 mph6.4 kmh 30.46 in1031.5 mb 0.00 in0.0 mm 0.00 in0.0 mm 0.00 in0.0 mm
05:16 PM 34.0°F1.1°C 6.6°F-14.1°C 31% 0.9 mph NE1.4 kmh NE 4.0 mph6.4 kmh 30.46 in1031.5 mb 0.00 in0.0 mm 0.00 in0.0 mm 0.00 in0.0 mm
05:17 PM 34.0°F1.1°C 7.3°F-13.7°C 32% 0.9 mph NE1.4 kmh NE 4.0 mph6.4 kmh 30.46 in1031.5 mb 0.00 in0.0 mm 0.00 in0.0 mm 0.00 in0.0 mm
05:18 PM 34.0°F1.1°C 7.3°F-13.7°C 32% 0.9 mph NNE1.4 kmh NNE 4.0 mph6.4 kmh 30.46 in1031.5 mb 0.00 in0.0 mm 0.00 in0.0 mm 0.00 in0.0 mm
05:19 PM 33.8°F1.0°C 6.4°F-14.2°C 31% 0.9 mph NE1.4 kmh NE 4.0 mph6.4 kmh 30.46 in1031.5 mb 0.00 in0.0 mm 0.00 in0.0 mm 0.00 in0.0 mm
05:20 PM 33.8°F1.0°C 6.4°F-14.2°C 31% 0.9 mph NE1.4 kmh NE 4.0 mph6.4 kmh 30.46 in1031.5 mb 0.00 in0.0 mm 0.00 in0.0 mm 0.00 in0.0 mm
05:21 PM 33.8°F1.0°C 6.4°F-14.2°C 31% 0.9 mph NE1.4 kmh NE 4.0 mph6.4 kmh 30.46 in1031.5 mb 0.00 in0.0 mm 0.00 in0.0 mm 0.00 in0.0 mm
05:22 PM 33.8°F1.0°C 6.4°F-14.2°C 31% 0.9 mph NE1.4 kmh NE 4.0 mph6.4 kmh 30.46 in1031.5 mb 0.00 in0.0 mm 0.00 in0.0 mm 0.00 in0.0 mm
05:23 PM 33.8°F1.0°C 6.4°F-14.2°C 31% 0.9 mph NE1.4 kmh NE 4.0 mph6.4 kmh 30.46 in1031.5 mb 0.00 in0.0 mm 0.00 in0.0 mm 0.00 in0.0 mm
05:24 PM 33.8°F1.0°C 7.1°F-13.8°C 32% 0.9 mph NE1.4 kmh NE 4.0 mph6.4 kmh 30.46 in1031.5 mb 0.00 in0.0 mm 0.00 in0.0 mm 0.00 in0.0 mm
05:25 PM 33.8°F1.0°C 7.1°F-13.8°C 32% 0.9 mph NE1.4 kmh NE 4.0 mph6.4 kmh 30.46 in1031.5 mb 0.00 in0.0 mm 0.00 in0.0 mm 0.00 in0.0 mm
05:26 PM 33.6°F0.9°C 6.9°F-13.9°C 32% 0.9 mph E1.4 kmh E 4.0 mph6.4 kmh 30.46 in1031.5 mb 0.00 in0.0 mm 0.00 in0.0 mm 0.00 in0.0 mm
05:27 PM 33.6°F0.9°C 6.2°F-14.3°C 31% 0.9 mph E1.4 kmh E 4.0 mph6.4 kmh 30.46 in1031.5 mb 0.00 in0.0 mm 0.00 in0.0 mm 0.00 in0.0 mm
05:28 PM 33.6°F0.9°C 6.9°F-13.9°C 32% 0.9 mph E1.4 kmh E 4.0 mph6.4 kmh 30.46 in1031.5 mb 0.00 in0.0 mm 0.00 in0.0 mm 0.00 in0.0 mm
05:29 PM 33.4°F0.8°C 6.7°F-14.1°C 32% 0.9 mph E1.4 kmh E 4.0 mph6.4 kmh 30.46 in1031.5 mb 0.00 in0.0 mm 0.00 in0.0 mm 0.00 in0.0 mm
05:30 PM 33.4°F0.8°C 6.1°F-14.4°C 31% 0.9 mph ENE1.4 kmh ENE 4.0 mph6.4 kmh 30.46 in1031.5 mb 0.00 in0.0 mm 0.00 in0.0 mm 0.00 in0.0 mm
05:31 PM 33.4°F0.8°C 6.1°F-14.4°C 31% 0.9 mph ENE1.4 kmh ENE 4.0 mph6.4 kmh 30.46 in1031.5 mb 0.00 in0.0 mm 0.00 in0.0 mm 0.00 in0.0 mm
05:32 PM 33.4°F0.8°C 6.1°F-14.4°C 31% 0.9 mph NE1.4 kmh NE 4.0 mph6.4 kmh 30.46 in1031.5 mb 0.00 in0.0 mm 0.00 in0.0 mm 0.00 in0.0 mm
05:33 PM 33.4°F0.8°C 6.1°F-14.4°C 31% 0.9 mph NE1.4 kmh NE 4.0 mph6.4 kmh 30.46 in1031.5 mb 0.00 in0.0 mm 0.00 in0.0 mm 0.00 in0.0 mm
05:34 PM 33.4°F0.8°C 6.1°F-14.4°C 31% 0.9 mph NE1.4 kmh NE 4.0 mph6.4 kmh 30.47 in1031.8 mb 0.00 in0.0 mm 0.00 in0.0 mm 0.00 in0.0 mm
05:35 PM 33.4°F0.8°C 6.1°F-14.4°C 31% 0.9 mph NE1.4 kmh NE 4.0 mph6.4 kmh 30.46 in1031.5 mb 0.00 in0.0 mm 0.00 in0.0 mm 0.00 in0.0 mm
05:36 PM 33.4°F0.8°C 6.1°F-14.4°C 31% 0.9 mph NE1.4 kmh NE 4.9 mph7.9 kmh 30.46 in1031.5 mb 0.00 in0.0 mm 0.00 in0.0 mm 0.00 in0.0 mm
05:37 PM 33.4°F0.8°C 6.1°F-14.4°C 31% 0.9 mph NE1.4 kmh NE 6.9 mph11.1 kmh 30.47 in1031.8 mb 0.00 in0.0 mm 0.00 in0.0 mm 0.00 in0.0 mm
05:38 PM 33.4°F0.8°C 6.1°F-14.4°C 31% 2.0 mph NE3.2 kmh NE 6.9 mph11.1 kmh 30.46 in1031.5 mb 0.00 in0.0 mm 0.00 in0.0 mm 0.00 in0.0 mm
05:39 PM 33.4°F0.8°C 6.1°F-14.4°C 31% 2.0 mph NE3.2 kmh NE 6.9 mph11.1 kmh 30.46 in1031.5 mb 0.00 in0.0 mm 0.00 in0.0 mm 0.00 in0.0 mm
05:40 PM 33.4°F0.8°C 6.1°F-14.4°C 31% 2.0 mph ENE3.2 kmh ENE 6.9 mph11.1 kmh 30.46 in1031.5 mb 0.00 in0.0 mm 0.00 in0.0 mm 0.00 in0.0 mm
05:41 PM 33.4°F0.8°C 6.1°F-14.4°C 31% 2.0 mph ENE3.2 kmh ENE 6.9 mph11.1 kmh 30.47 in1031.8 mb 0.00 in0.0 mm 0.00 in0.0 mm 0.00 in0.0 mm
05:42 PM 33.4°F0.8°C 6.7°F-14.1°C 32% 2.0 mph ENE3.2 kmh ENE 6.9 mph11.1 kmh 30.47 in1031.8 mb 0.00 in0.0 mm 0.00 in0.0 mm 0.00 in0.0 mm
05:43 PM 33.3°F0.7°C 6.7°F-14.1°C 32% 2.0 mph NE3.2 kmh NE 6.9 mph11.1 kmh 30.47 in1031.8 mb 0.00 in0.0 mm 0.00 in0.0 mm 0.00 in0.0 mm
05:44 PM 33.3°F0.7°C 6.0°F-14.4°C 31% 2.0 mph NE3.2 kmh NE 6.9 mph11.1 kmh 30.46 in1031.5 mb 0.00 in0.0 mm 0.00 in0.0 mm 0.00 in0.0 mm
05:45 PM 33.3°F0.7°C 6.0°F-14.4°C 31% 2.0 mph NE3.2 kmh NE 6.9 mph11.1 kmh 30.47 in1031.8 mb 0.00 in0.0 mm 0.00 in0.0 mm 0.00 in0.0 mm
05:46 PM 33.3°F0.7°C 6.0°F-14.4°C 31% 2.0 mph NE3.2 kmh NE 6.9 mph11.1 kmh 30.47 in1031.8 mb 0.00 in0.0 mm 0.00 in0.0 mm 0.00 in0.0 mm
05:47 PM 33.3°F0.7°C 6.0°F-14.4°C 31% 0.9 mph NE1.4 kmh NE 4.0 mph6.4 kmh 30.47 in1031.8 mb 0.00 in0.0 mm 0.00 in0.0 mm 0.00 in0.0 mm
05:48 PM 33.1°F0.6°C 6.5°F-14.2°C 32% 0.9 mph NE1.4 kmh NE 4.0 mph6.4 kmh 30.46 in1031.5 mb 0.00 in0.0 mm 0.00 in0.0 mm 0.00 in0.0 mm
05:49 PM 33.1°F0.6°C 5.8°F-14.6°C 31% 0.9 mph NE1.4 kmh NE 4.0 mph6.4 kmh 30.46 in1031.5 mb 0.00 in0.0 mm 0.00 in0.0 mm 0.00 in0.0 mm
05:50 PM 33.1°F0.6°C 6.5°F-14.2°C 32% 0.9 mph E1.4 kmh E 4.0 mph6.4 kmh 30.46 in1031.5 mb 0.00 in0.0 mm 0.00 in0.0 mm 0.00 in0.0 mm
05:51 PM 33.1°F0.6°C 6.5°F-14.2°C 32% 0.9 mph NE1.4 kmh NE 4.0 mph6.4 kmh 30.47 in1031.8 mb 0.00 in0.0 mm 0.00 in0.0 mm 0.00 in0.0 mm
05:52 PM 33.1°F0.6°C 6.5°F-14.2°C 32% 0.9 mph NE1.4 kmh NE 4.0 mph6.4 kmh 30.47 in1031.8 mb 0.00 in0.0 mm 0.00 in0.0 mm 0.00 in0.0 mm
05:53 PM 32.9°F0.5°C 5.6°F-14.7°C 31% 2.0 mph NE3.2 kmh NE 4.0 mph6.4 kmh 30.47 in1031.8 mb 0.00 in0.0 mm 0.00 in0.0 mm 0.00 in0.0 mm
05:54 PM 32.9°F0.5°C 5.6°F-14.7°C 31% 2.0 mph NE3.2 kmh NE 4.0 mph6.4 kmh 30.47 in1031.8 mb 0.00 in0.0 mm 0.00 in0.0 mm 0.00 in0.0 mm
05:55 PM 32.9°F0.5°C 6.3°F-14.3°C 32% 2.0 mph NE3.2 kmh NE 4.0 mph6.4 kmh 30.47 in1031.8 mb 0.00 in0.0 mm 0.00 in0.0 mm 0.00 in0.0 mm
05:56 PM 32.9°F0.5°C 6.3°F-14.3°C 32% 2.0 mph ENE3.2 kmh ENE 4.0 mph6.4 kmh 30.47 in1031.8 mb 0.00 in0.0 mm 0.00 in0.0 mm 0.00 in0.0 mm
05:57 PM 32.9°F0.5°C 6.3°F-14.3°C 32% 2.0 mph NE3.2 kmh NE 4.0 mph6.4 kmh 30.47 in1031.8 mb 0.00 in0.0 mm 0.00 in0.0 mm 0.00 in0.0 mm
05:58 PM 32.9°F0.5°C 6.3°F-14.3°C 32% 2.0 mph NE3.2 kmh NE 4.0 mph6.4 kmh 30.47 in1031.8 mb 0.00 in0.0 mm 0.00 in0.0 mm 0.00 in0.0 mm
05:59 PM 32.7°F0.4°C 6.1°F-14.4°C 32% 2.0 mph NE3.2 kmh NE 4.0 mph6.4 kmh 30.47 in1031.8 mb 0.00 in0.0 mm 0.00 in0.0 mm 0.00 in0.0 mm
06:00 PM 32.7°F0.4°C 6.1°F-14.4°C 32% 2.0 mph NNE3.2 kmh NNE 4.0 mph6.4 kmh 30.47 in1031.8 mb 0.00 in0.0 mm 0.00 in0.0 mm 0.00 in0.0 mm
06:01 PM 32.7°F0.4°C 6.8°F-14.0°C 33% 2.0 mph NE3.2 kmh NE 4.0 mph6.4 kmh 30.47 in1031.8 mb 0.00 in0.0 mm 0.00 in0.0 mm 0.00 in0.0 mm
06:02 PM 32.7°F0.4°C 6.8°F-14.0°C 33% 2.0 mph ENE3.2 kmh ENE 5.0 mph8.0 kmh 30.47 in1031.8 mb 0.00 in0.0 mm 0.00 in0.0 mm 0.00 in0.0 mm
06:03 PM 32.7°F0.4°C 6.1°F-14.4°C 32% 2.0 mph NE3.2 kmh NE 5.0 mph8.0 kmh 30.47 in1031.8 mb 0.00 in0.0 mm 0.00 in0.0 mm 0.00 in0.0 mm
06:04 PM 32.7°F0.4°C 6.1°F-14.4°C 32% 2.0 mph NE3.2 kmh NE 5.0 mph8.0 kmh 30.47 in1031.8 mb 0.00 in0.0 mm 0.00 in0.0 mm 0.00 in0.0 mm
06:05 PM 32.7°F0.4°C 6.1°F-14.4°C 32% 2.0 mph NE3.2 kmh NE 5.0 mph8.0 kmh 30.47 in1031.8 mb 0.00 in0.0 mm 0.00 in0.0 mm 0.00 in0.0 mm
06:06 PM 32.7°F0.4°C 6.8°F-14.0°C 33% 2.0 mph NE3.2 kmh NE 5.0 mph8.0 kmh 30.47 in1031.8 mb 0.00 in0.0 mm 0.00 in0.0 mm 0.00 in0.0 mm
06:07 PM 32.7°F0.4°C 6.8°F-14.0°C 33% 2.0 mph NE3.2 kmh NE 5.0 mph8.0 kmh 30.47 in1031.8 mb 0.00 in0.0 mm 0.00 in0.0 mm 0.00 in0.0 mm
06:08 PM 32.7°F0.4°C 6.8°F-14.0°C 33% 2.0 mph NE3.2 kmh NE 5.0 mph8.0 kmh 30.47 in1031.8 mb 0.00 in0.0 mm 0.00 in0.0 mm 0.00 in0.0 mm
06:09 PM 32.7°F0.4°C 6.8°F-14.0°C 33% 2.0 mph NE3.2 kmh NE 5.0 mph8.0 kmh 30.47 in1031.8 mb 0.00 in0.0 mm 0.00 in0.0 mm 0.00 in0.0 mm
06:10 PM 32.7°F0.4°C 6.8°F-14.0°C 33% 2.0 mph N3.2 kmh N 6.0 mph9.7 kmh 30.47 in1031.8 mb 0.00 in0.0 mm 0.00 in0.0 mm 0.00 in0.0 mm
06:11 PM 32.7°F0.4°C 6.8°F-14.0°C 33% 2.0 mph NE3.2 kmh NE 6.0 mph9.7 kmh 30.47 in1031.8 mb 0.00 in0.0 mm 0.00 in0.0 mm 0.00 in0.0 mm
06:12 PM 32.7°F0.4°C 6.8°F-14.0°C 33% 2.0 mph NE3.2 kmh NE 6.0 mph9.7 kmh 30.47 in1031.8 mb 0.00 in0.0 mm 0.00 in0.0 mm 0.00 in0.0 mm
06:13 PM 32.5°F0.3°C 6.6°F-14.1°C 33% 2.0 mph NE3.2 kmh NE 6.0 mph9.7 kmh 30.47 in1031.8 mb 0.00 in0.0 mm 0.00 in0.0 mm 0.00 in0.0 mm
06:14 PM 32.7°F0.4°C 6.8°F-14.0°C 33% 2.0 mph NE3.2 kmh NE 6.0 mph9.7 kmh 30.47 in1031.8 mb 0.00 in0.0 mm 0.00 in0.0 mm 0.00 in0.0 mm
06:15 PM 32.5°F0.3°C 6.6°F-14.1°C 33% 2.0 mph E3.2 kmh E 6.0 mph9.7 kmh 30.47 in1031.8 mb 0.00 in0.0 mm 0.00 in0.0 mm 0.00 in0.0 mm
06:16 PM 32.5°F0.3°C 6.6°F-14.1°C 33% 2.9 mph NE4.7 kmh NE 6.0 mph9.7 kmh 30.47 in1031.8 mb 0.00 in0.0 mm 0.00 in0.0 mm 0.00 in0.0 mm
06:17 PM 32.5°F0.3°C 6.6°F-14.1°C 33% 2.9 mph NE4.7 kmh NE 6.0 mph9.7 kmh 30.47 in1031.8 mb 0.00 in0.0 mm 0.00 in0.0 mm 0.00 in0.0 mm
06:18 PM 32.5°F0.3°C 6.6°F-14.1°C 33% 2.9 mph ENE4.7 kmh ENE 6.0 mph9.7 kmh 30.47 in1031.8 mb 0.00 in0.0 mm 0.00 in0.0 mm 0.00 in0.0 mm
06:19 PM 32.5°F0.3°C 6.6°F-14.1°C 33% 2.9 mph NE4.7 kmh NE 6.0 mph9.7 kmh 30.47 in1031.8 mb 0.00 in0.0 mm 0.00 in0.0 mm 0.00 in0.0 mm
06:20 PM 32.5°F0.3°C 6.6°F-14.1°C 33% 2.9 mph NNE4.7 kmh NNE 6.0 mph9.7 kmh 30.48 in1032.2 mb 0.00 in0.0 mm 0.00 in0.0 mm 0.00 in0.0 mm
06:21 PM 32.5°F0.3°C 6.6°F-14.1°C 33% 2.9 mph NNE4.7 kmh NNE 6.0 mph9.7 kmh 30.48 in1032.2 mb 0.00 in0.0 mm 0.00 in0.0 mm 0.00 in0.0 mm
06:22 PM 32.5°F0.3°C 6.6°F-14.1°C 33% 2.9 mph NE4.7 kmh NE 6.0 mph9.7 kmh 30.48 in1032.2 mb 0.00 in0.0 mm 0.00 in0.0 mm 0.00 in0.0 mm
06:23 PM 32.5°F0.3°C 7.3°F-13.7°C 34% 2.9 mph ENE4.7 kmh ENE 6.0 mph9.7 kmh 30.48 in1032.2 mb 0.00 in0.0 mm 0.00 in0.0 mm 0.00 in0.0 mm
06:24 PM 32.4°F0.2°C 7.2°F-13.8°C 34% 2.9 mph E4.7 kmh E 6.0 mph9.7 kmh 30.48 in1032.2 mb 0.00 in0.0 mm 0.00 in0.0 mm 0.00 in0.0 mm
06:25 PM 32.5°F0.3°C 7.3°F-13.7°C 34% 2.9 mph NE4.7 kmh NE 6.0 mph9.7 kmh 30.48 in1032.2 mb 0.00 in0.0 mm 0.00 in0.0 mm 0.00 in0.0 mm
06:26 PM 32.4°F0.2°C 7.2°F-13.8°C 34% 2.9 mph ENE4.7 kmh ENE 6.0 mph9.7 kmh 30.48 in1032.2 mb 0.00 in0.0 mm 0.00 in0.0 mm 0.00 in0.0 mm
06:27 PM 32.4°F0.2°C 7.2°F-13.8°C 34% 2.9 mph E4.7 kmh E 6.0 mph9.7 kmh 30.48 in1032.2 mb 0.00 in0.0 mm 0.00 in0.0 mm 0.00 in0.0 mm
06:28 PM 32.4°F0.2°C 7.2°F-13.8°C 34% 2.9 mph ENE4.7 kmh ENE 6.0 mph9.7 kmh 30.48 in1032.2 mb 0.00 in0.0 mm 0.00 in0.0 mm 0.00 in0.0 mm
06:29 PM 32.4°F0.2°C 7.2°F-13.8°C 34% 2.9 mph ENE4.7 kmh ENE 6.0 mph9.7 kmh 30.48 in1032.2 mb 0.00 in0.0 mm 0.00 in0.0 mm 0.00 in0.0 mm
06:30 PM 32.4°F0.2°C 7.2°F-13.8°C 34% 2.0 mph ENE3.2 kmh ENE 6.0 mph9.7 kmh 30.49 in1032.5 mb 0.00 in0.0 mm 0.00 in0.0 mm 0.00 in0.0 mm
06:31 PM 32.4°F0.2°C 7.2°F-13.8°C 34% 2.0 mph NE3.2 kmh NE 6.0 mph9.7 kmh 30.49 in1032.5 mb 0.00 in0.0 mm 0.00 in0.0 mm 0.00 in0.0 mm
06:32 PM 32.4°F0.2°C 7.2°F-13.8°C 34% 2.0 mph NE3.2 kmh NE 6.0 mph9.7 kmh 30.48 in1032.2 mb 0.00 in0.0 mm 0.00 in0.0 mm 0.00 in0.0 mm
06:33 PM 32.2°F0.1°C 7.7°F-13.5°C 35% 2.0 mph NE3.2 kmh NE 8.1 mph13.0 kmh 30.48 in1032.2 mb 0.00 in0.0 mm 0.00 in0.0 mm 0.00 in0.0 mm
06:34 PM 32.2°F0.1°C 7.7°F-13.5°C 35% 2.0 mph NE3.2 kmh NE 8.1 mph13.0 kmh 30.49 in1032.5 mb 0.00 in0.0 mm 0.00 in0.0 mm 0.00 in0.0 mm
06:35 PM 32.2°F0.1°C 7.7°F-13.5°C 35% 2.0 mph NE3.2 kmh NE 8.1 mph13.0 kmh 30.48 in1032.2 mb 0.00 in0.0 mm 0.00 in0.0 mm 0.00 in0.0 mm
06:36 PM 32.2°F0.1°C 7.7°F-13.5°C 35% 2.0 mph 3.2 kmh 8.1 mph13.0 kmh 30.49 in1032.5 mb 0.00 in0.0 mm 0.00 in0.0 mm 0.00 in0.0 mm
06:37 PM 32.2°F0.1°C 7.7°F-13.5°C 35% 2.0 mph NNE3.2 kmh NNE 8.1 mph13.0 kmh 30.48 in1032.2 mb 0.00 in0.0 mm 0.00 in0.0 mm 0.00 in0.0 mm
06:38 PM 32.2°F0.1°C 8.3°F-13.2°C 36% 2.0 mph ENE3.2 kmh ENE 8.1 mph13.0 kmh 30.49 in1032.5 mb 0.00 in0.0 mm 0.00 in0.0 mm 0.00 in0.0 mm
06:39 PM 32.2°F0.1°C 8.9°F-12.8°C 37% 2.0 mph NE3.2 kmh NE 8.1 mph13.0 kmh 30.49 in1032.5 mb 0.00 in0.0 mm 0.00 in0.0 mm 0.00 in0.0 mm
06:40 PM 32.0°F0.0°C 8.1°F-13.3°C 36% 2.0 mph NE3.2 kmh NE 8.1 mph13.0 kmh 30.48 in1032.2 mb 0.00 in0.0 mm 0.00 in0.0 mm 0.00 in0.0 mm
06:41 PM 32.0°F0.0°C 8.7°F-12.9°C 37% 2.9 mph NE4.7 kmh NE 8.1 mph13.0 kmh 30.49 in1032.5 mb 0.00 in0.0 mm 0.00 in0.0 mm 0.00 in0.0 mm
06:42 PM 31.8°F-0.1°C 8.5°F-13.1°C 37% 2.0 mph NE3.2 kmh NE 8.1 mph13.0 kmh 30.49 in1032.5 mb 0.00 in0.0 mm 0.00 in0.0 mm 0.00 in0.0 mm
06:43 PM 31.8°F-0.1°C 8.5°F-13.1°C 37% 2.0 mph NNE3.2 kmh NNE 8.0 mph12.9 kmh 30.48 in1032.2 mb 0.00 in0.0 mm 0.00 in0.0 mm 0.00 in0.0 mm
06:44 PM 31.8°F-0.1°C 8.5°F-13.1°C 37% 2.9 mph NE4.7 kmh NE 8.0 mph12.9 kmh 30.48 in1032.2 mb 0.00 in0.0 mm 0.00 in0.0 mm 0.00 in0.0 mm
06:45 PM 31.8°F-0.1°C 8.5°F-13.1°C 37% 2.9 mph NE4.7 kmh NE 8.0 mph12.9 kmh 30.48 in1032.2 mb 0.00 in0.0 mm 0.00 in0.0 mm 0.00 in0.0 mm
06:46 PM 31.8°F-0.1°C 8.5°F-13.1°C 37% 2.9 mph NNE4.7 kmh NNE 8.0 mph12.9 kmh 30.49 in1032.5 mb 0.00 in0.0 mm 0.00 in0.0 mm 0.00 in0.0 mm
06:47 PM 31.8°F-0.1°C 8.5°F-13.1°C 37% 2.9 mph NE4.7 kmh NE 8.0 mph12.9 kmh 30.49 in1032.5 mb 0.00 in0.0 mm 0.00 in0.0 mm 0.00 in0.0 mm
06:48 PM 31.8°F-0.1°C 8.5°F-13.1°C 37% 2.9 mph NE4.7 kmh NE 8.0 mph12.9 kmh 30.49 in1032.5 mb 0.00 in0.0 mm 0.00 in0.0 mm 0.00 in0.0 mm
06:49 PM 31.8°F-0.1°C 9.1°F-12.7°C 38% 2.9 mph N4.7 kmh N 8.0 mph12.9 kmh 30.49 in1032.5 mb 0.00 in0.0 mm 0.00 in0.0 mm 0.00 in0.0 mm
06:50 PM 31.8°F-0.1°C 9.1°F-12.7°C 38% 2.9 mph NE4.7 kmh NE 8.0 mph12.9 kmh 30.49 in1032.5 mb 0.00 in0.0 mm 0.00 in0.0 mm 0.00 in0.0 mm
06:51 PM 31.8°F-0.1°C 9.1°F-12.7°C 38% 2.9 mph NNE4.7 kmh NNE 8.1 mph13.0 kmh 30.49 in1032.5 mb 0.00 in0.0 mm 0.00 in0.0 mm 0.00 in0.0 mm
06:52 PM 31.8°F-0.1°C 9.1°F-12.7°C 38% 4.0 mph NE6.4 kmh NE 8.1 mph13.0 kmh 30.49 in1032.5 mb 0.00 in0.0 mm 0.00 in0.0 mm 0.00 in0.0 mm
06:53 PM 31.8°F-0.1°C 9.1°F-12.7°C 38% 4.0 mph N6.4 kmh N 8.1 mph13.0 kmh 30.49 in1032.5 mb 0.00 in0.0 mm 0.00 in0.0 mm 0.00 in0.0 mm
06:54 PM 31.8°F-0.1°C 9.1°F-12.7°C 38% 2.9 mph NE4.7 kmh NE 8.1 mph13.0 kmh 30.49 in1032.5 mb 0.00 in0.0 mm 0.00 in0.0 mm 0.00 in0.0 mm
06:55 PM 31.8°F-0.1°C 9.7°F-12.4°C 39% 2.9 mph E4.7 kmh E 8.1 mph13.0 kmh 30.49 in1032.5 mb 0.00 in0.0 mm 0.00 in0.0 mm 0.00 in0.0 mm
06:56 PM 31.6°F-0.2°C 9.5°F-12.5°C 39% 2.9 mph NE4.7 kmh NE 8.1 mph13.0 kmh 30.49 in1032.5 mb 0.00 in0.0 mm 0.00 in0.0 mm 0.00 in0.0 mm
06:57 PM 31.6°F-0.2°C 9.5°F-12.5°C 39% 2.9 mph NNE4.7 kmh NNE 8.1 mph13.0 kmh 30.49 in1032.5 mb 0.00 in0.0 mm 0.00 in0.0 mm 0.00 in0.0 mm
06:58 PM 31.6°F-0.2°C 9.5°F-12.5°C 39% 2.9 mph NE4.7 kmh NE 8.1 mph13.0 kmh 30.49 in1032.5 mb 0.00 in0.0 mm 0.00 in0.0 mm 0.00 in0.0 mm
06:59 PM 31.6°F-0.2°C 9.5°F-12.5°C 39% 2.9 mph NE4.7 kmh NE 8.1 mph13.0 kmh 30.49 in1032.5 mb 0.00 in0.0 mm 0.00 in0.0 mm 0.00 in0.0 mm
07:00 PM 31.6°F-0.2°C 9.5°F-12.5°C 39% 2.9 mph ENE4.7 kmh ENE 8.1 mph13.0 kmh 30.49 in1032.5 mb 0.00 in0.0 mm 0.00 in0.0 mm 0.00 in0.0 mm
07:01 PM 31.6°F-0.2°C 9.5°F-12.5°C 39% 2.9 mph NNE4.7 kmh NNE 6.9 mph11.1 kmh 30.49 in1032.5 mb 0.00 in0.0 mm 0.00 in0.0 mm 0.00 in0.0 mm
07:02 PM 31.5°F-0.3°C 9.4°F-12.6°C 39% 2.0 mph ENE3.2 kmh ENE 6.9 mph11.1 kmh 30.49 in1032.5 mb 0.00 in0.0 mm 0.00 in0.0 mm 0.00 in0.0 mm
07:03 PM 31.5°F-0.3°C 9.4°F-12.6°C 39% 2.0 mph E3.2 kmh E 6.9 mph11.1 kmh 30.49 in1032.5 mb 0.00 in0.0 mm 0.00 in0.0 mm 0.00 in0.0 mm
07:04 PM 31.5°F-0.3°C 9.4°F-12.6°C 39% 2.9 mph SSE4.7 kmh SSE 8.1 mph13.0 kmh 30.49 in1032.5 mb 0.00 in0.0 mm 0.00 in0.0 mm 0.00 in0.0 mm
07:05 PM 31.5°F-0.3°C 9.4°F-12.6°C 39% 2.9 mph ENE4.7 kmh ENE 8.1 mph13.0 kmh 30.49 in1032.5 mb 0.00 in0.0 mm 0.00 in0.0 mm 0.00 in0.0 mm
07:06 PM 31.5°F-0.3°C 10.0°F-12.2°C 40% 2.9 mph NNE4.7 kmh NNE 8.1 mph13.0 kmh 30.49 in1032.5 mb 0.00 in0.0 mm 0.00 in0.0 mm 0.00 in0.0 mm
07:07 PM 31.5°F-0.3°C 10.0°F-12.2°C 40% 2.9 mph NE4.7 kmh NE 8.1 mph13.0 kmh 30.49 in1032.5 mb 0.00 in0.0 mm 0.00 in0.0 mm 0.00 in0.0 mm
07:08 PM 31.3°F-0.4°C 9.8°F-12.3°C 40% 2.9 mph ENE4.7 kmh ENE 8.1 mph13.0 kmh 30.49 in1032.5 mb 0.00 in0.0 mm 0.00 in0.0 mm 0.00 in0.0 mm
07:09 PM 31.3°F-0.4°C 9.8°F-12.3°C 40% 2.0 mph NE3.2 kmh NE 8.1 mph13.0 kmh 30.49 in1032.5 mb 0.00 in0.0 mm 0.00 in0.0 mm 0.00 in0.0 mm
07:10 PM 31.3°F-0.4°C 9.8°F-12.3°C 40% 2.0 mph NE3.2 kmh NE 8.1 mph13.0 kmh 30.49 in1032.5 mb 0.00 in0.0 mm 0.00 in0.0 mm 0.00 in0.0 mm
07:11 PM 31.3°F-0.4°C 9.8°F-12.3°C 40% 2.0 mph NE3.2 kmh NE 8.1 mph13.0 kmh 30.49 in1032.5 mb 0.00 in0.0 mm 0.00 in0.0 mm 0.00 in0.0 mm
07:12 PM 31.3°F-0.4°C 9.8°F-12.3°C 40% 2.0 mph NE3.2 kmh NE 8.1 mph13.0 kmh 30.49 in1032.5 mb 0.00 in0.0 mm 0.00 in0.0 mm 0.00 in0.0 mm
07:13 PM 31.1°F-0.5°C 9.6°F-12.4°C 40% 2.0 mph ESE3.2 kmh ESE 8.1 mph13.0 kmh 30.49 in1032.5 mb 0.00 in0.0 mm 0.00 in0.0 mm 0.00 in0.0 mm
07:14 PM 31.1°F-0.5°C 9.6°F-12.4°C 40% 2.0 mph NE3.2 kmh NE 8.0 mph12.9 kmh 30.49 in1032.5 mb 0.00 in0.0 mm 0.00 in0.0 mm 0.00 in0.0 mm
07:15 PM 31.1°F-0.5°C 9.6°F-12.4°C 40% 2.0 mph NNE3.2 kmh NNE 8.0 mph12.9 kmh 30.49 in1032.5 mb 0.00 in0.0 mm 0.00 in0.0 mm 0.00 in0.0 mm
07:16 PM 30.9°F-0.6°C 10.0°F-12.2°C 41% 2.0 mph NE3.2 kmh NE 8.0 mph12.9 kmh 30.49 in1032.5 mb 0.00 in0.0 mm 0.00 in0.0 mm 0.00 in0.0 mm
07:17 PM 30.9°F-0.6°C 9.5°F-12.5°C 40% 2.0 mph NE3.2 kmh NE 8.0 mph12.9 kmh 30.49 in1032.5 mb 0.00 in0.0 mm 0.00 in0.0 mm 0.00 in0.0 mm
07:18 PM 30.9°F-0.6°C 9.5°F-12.5°C 40% 2.0 mph E3.2 kmh E 8.0 mph12.9 kmh 30.49 in1032.5 mb 0.00 in0.0 mm 0.00 in0.0 mm 0.00 in0.0 mm
07:19 PM 30.9°F-0.6°C 10.0°F-12.2°C 41% 2.0 mph NE3.2 kmh NE 8.0 mph12.9 kmh 30.49 in1032.5 mb 0.00 in0.0 mm 0.00 in0.0 mm 0.00 in0.0 mm
07:20 PM 30.9°F-0.6°C 10.0°F-12.2°C 41% 2.0 mph NE3.2 kmh NE 8.0 mph12.9 kmh 30.49 in1032.5 mb 0.00 in0.0 mm 0.00 in0.0 mm 0.00 in0.0 mm
07:21 PM 30.9°F-0.6°C 10.0°F-12.2°C 41% 2.0 mph NE3.2 kmh NE 8.0 mph12.9 kmh 30.49 in1032.5 mb 0.00 in0.0 mm 0.00 in0.0 mm 0.00 in0.0 mm
07:22 PM 30.9°F-0.6°C 10.0°F-12.2°C 41% 2.0 mph NE3.2 kmh NE 8.0 mph12.9 kmh 30.49 in1032.5 mb 0.00 in0.0 mm 0.00 in0.0 mm 0.00 in0.0 mm
07:23 PM 30.9°F-0.6°C 10.0°F-12.2°C 41% 2.0 mph NE3.2 kmh NE 8.0 mph12.9 kmh 30.49 in1032.5 mb 0.00 in0.0 mm 0.00 in0.0 mm 0.00 in0.0 mm
07:24 PM 30.7°F-0.7°C 9.8°F-12.3°C 41% 2.0 mph NNE3.2 kmh NNE 6.0 mph9.7 kmh 30.49 in1032.5 mb 0.00 in0.0 mm 0.00 in0.0 mm 0.00 in0.0 mm
07:25 PM 30.7°F-0.7°C 9.8°F-12.3°C 41% 2.0 mph NE3.2 kmh NE 6.0 mph9.7 kmh 30.48 in1032.2 mb 0.00 in0.0 mm 0.00 in0.0 mm 0.00 in0.0 mm
07:26 PM 30.7°F-0.7°C 9.8°F-12.3°C 41% 2.0 mph NE3.2 kmh NE 6.0 mph9.7 kmh 30.49 in1032.5 mb 0.00 in0.0 mm 0.00 in0.0 mm 0.00 in0.0 mm
07:27 PM 30.7°F-0.7°C 9.8°F-12.3°C 41% 2.0 mph E3.2 kmh E 6.0 mph9.7 kmh 30.49 in1032.5 mb 0.00 in0.0 mm 0.00 in0.0 mm 0.00 in0.0 mm
07:28 PM 30.7°F-0.7°C 9.8°F-12.3°C 41% 2.0 mph NNE3.2 kmh NNE 6.0 mph9.7 kmh 30.49 in1032.5 mb 0.00 in0.0 mm 0.00 in0.0 mm 0.00 in0.0 mm
07:29 PM 30.6°F-0.8°C 9.7°F-12.4°C 41% 2.0 mph ENE3.2 kmh ENE 6.0 mph9.7 kmh 30.49 in1032.5 mb 0.00 in0.0 mm 0.00 in0.0 mm 0.00 in0.0 mm
07:30 PM 30.6°F-0.8°C 9.7°F-12.4°C 41% 2.0 mph NE3.2 kmh NE 6.0 mph9.7 kmh 30.49 in1032.5 mb 0.00 in0.0 mm 0.00 in0.0 mm 0.00 in0.0 mm
07:31 PM 30.6°F-0.8°C 9.7°F-12.4°C 41% 2.0 mph NE3.2 kmh NE 6.0 mph9.7 kmh 30.49 in1032.5 mb 0.00 in0.0 mm 0.00 in0.0 mm 0.00 in0.0 mm
07:32 PM 30.6°F-0.8°C 9.7°F-12.4°C 41% 2.0 mph NE3.2 kmh NE 6.0 mph9.7 kmh 30.49 in1032.5 mb 0.00 in0.0 mm 0.00 in0.0 mm 0.00 in0.0 mm
07:33 PM 30.6°F-0.8°C 9.7°F-12.4°C 41% 2.0 mph NE3.2 kmh NE 6.0 mph9.7 kmh 30.49 in1032.5 mb 0.00 in0.0 mm 0.00 in0.0 mm 0.00 in0.0 mm
07:34 PM 30.6°F-0.8°C 9.7°F-12.4°C 41% 2.0 mph NE3.2 kmh NE 6.0 mph9.7 kmh 30.49 in1032.5 mb 0.00 in0.0 mm 0.00 in0.0 mm 0.00 in0.0 mm
07:35 PM 30.6°F-0.8°C 9.7°F-12.4°C 41% 2.0 mph NE3.2 kmh NE 6.0 mph9.7 kmh 30.49 in1032.5 mb 0.00 in0.0 mm 0.00 in0.0 mm 0.00 in0.0 mm
07:36 PM 30.6°F-0.8°C 9.7°F-12.4°C 41% 2.0 mph NE3.2 kmh NE 6.0 mph9.7 kmh 30.49 in1032.5 mb 0.00 in0.0 mm 0.00 in0.0 mm 0.00 in0.0 mm
07:37 PM 30.6°F-0.8°C 9.7°F-12.4°C 41% 2.0 mph NNE3.2 kmh NNE 6.9 mph11.1 kmh 30.49 in1032.5 mb 0.00 in0.0 mm 0.00 in0.0 mm 0.00 in0.0 mm
07:39 PM 30.6°F-0.8°C 9.7°F-12.4°C 41% 2.0 mph NE3.2 kmh NE 8.1 mph13.0 kmh 30.49 in1032.5 mb 0.00 in0.0 mm 0.00 in0.0 mm 0.00 in0.0 mm
07:40 PM 30.6°F-0.8°C 9.7°F-12.4°C 41% 2.0 mph NE3.2 kmh NE 8.1 mph13.0 kmh 30.49 in1032.5 mb 0.00 in0.0 mm 0.00 in0.0 mm 0.00 in0.0 mm
07:42 PM 30.6°F-0.8°C 9.7°F-12.4°C 41% 2.0 mph ENE3.2 kmh ENE 8.1 mph13.0 kmh 30.49 in1032.5 mb 0.00 in0.0 mm 0.00 in0.0 mm 0.00 in0.0 mm
07:43 PM 30.4°F-0.9°C 9.5°F-12.5°C 41% 2.0 mph NE3.2 kmh NE 8.1 mph13.0 kmh 30.49 in1032.5 mb 0.00 in0.0 mm 0.00 in0.0 mm 0.00 in0.0 mm
07:44 PM 30.4°F-0.9°C 9.5°F-12.5°C 41% 2.0 mph NE3.2 kmh NE 8.1 mph13.0 kmh 30.49 in1032.5 mb 0.00 in0.0 mm 0.00 in0.0 mm 0.00 in0.0 mm
07:45 PM 30.6°F-0.8°C 9.7°F-12.4°C 41% 2.0 mph NE3.2 kmh NE 8.1 mph13.0 kmh 30.49 in1032.5 mb 0.00 in0.0 mm 0.00 in0.0 mm 0.00 in0.0 mm
07:46 PM 30.4°F-0.9°C 9.5°F-12.5°C 41% 2.0 mph NE3.2 kmh NE 8.1 mph13.0 kmh 30.49 in1032.5 mb 0.00 in0.0 mm 0.00 in0.0 mm 0.00 in0.0 mm
07:47 PM 30.4°F-0.9°C 9.5°F-12.5°C 41% 2.0 mph NE3.2 kmh NE 8.1 mph13.0 kmh 30.49 in1032.5 mb 0.00 in0.0 mm 0.00 in0.0 mm 0.00 in0.0 mm
07:48 PM 30.4°F-0.9°C 10.1°F-12.2°C 42% 2.0 mph NE3.2 kmh NE 8.1 mph13.0 kmh 30.49 in1032.5 mb 0.00 in0.0 mm 0.00 in0.0 mm 0.00 in0.0 mm
07:49 PM 30.4°F-0.9°C 10.1°F-12.2°C 42% 2.0 mph NE3.2 kmh NE 8.1 mph13.0 kmh 30.49 in1032.5 mb 0.00 in0.0 mm 0.00 in0.0 mm 0.00 in0.0 mm
07:50 PM 30.2°F-1.0°C 9.4°F-12.6°C 41% 2.0 mph NE3.2 kmh NE 8.1 mph13.0 kmh 30.49 in1032.5 mb 0.00 in0.0 mm 0.00 in0.0 mm 0.00 in0.0 mm
07:51 PM 30.2°F-1.0°C 9.4°F-12.6°C 41% 2.0 mph NE3.2 kmh NE 8.1 mph13.0 kmh 30.49 in1032.5 mb 0.00 in0.0 mm 0.00 in0.0 mm 0.00 in0.0 mm
07:52 PM 30.2°F-1.0°C 9.9°F-12.3°C 42% 2.0 mph NE3.2 kmh NE 8.1 mph13.0 kmh 30.49 in1032.5 mb 0.00 in0.0 mm 0.00 in0.0 mm 0.00 in0.0 mm
07:53 PM 30.2°F-1.0°C 9.9°F-12.3°C 42% 2.0 mph NE3.2 kmh NE 8.1 mph13.0 kmh 30.49 in1032.5 mb 0.00 in0.0 mm 0.00 in0.0 mm 0.00 in0.0 mm
07:54 PM 30.2°F-1.0°C 9.4°F-12.6°C 41% 0.9 mph NE1.4 kmh NE 8.1 mph13.0 kmh 30.49 in1032.5 mb 0.00 in0.0 mm 0.00 in0.0 mm 0.00 in0.0 mm
07:55 PM 30.0°F-1.1°C 9.7°F-12.4°C 42% 0.9 mph E1.4 kmh E 8.1 mph13.0 kmh 30.49 in1032.5 mb 0.00 in0.0 mm 0.00 in0.0 mm 0.00 in0.0 mm
07:56 PM 30.2°F-1.0°C 9.9°F-12.3°C 42% 0.9 mph NE1.4 kmh NE 8.0 mph12.9 kmh 30.49 in1032.5 mb 0.00 in0.0 mm 0.00 in0.0 mm 0.00 in0.0 mm
07:57 PM 30.0°F-1.1°C 9.7°F-12.4°C 42% 0.9 mph ENE1.4 kmh ENE 8.0 mph12.9 kmh 30.49 in1032.5 mb 0.00 in0.0 mm 0.00 in0.0 mm 0.00 in0.0 mm
07:58 PM 30.0°F-1.1°C 9.7°F-12.4°C 42% 2.0 mph ENE3.2 kmh ENE 8.0 mph12.9 kmh 30.49 in1032.5 mb 0.00 in0.0 mm 0.00 in0.0 mm 0.00 in0.0 mm
07:59 PM 30.0°F-1.1°C 9.7°F-12.4°C 42% 2.0 mph E3.2 kmh E 8.0 mph12.9 kmh 30.49 in1032.5 mb 0.00 in0.0 mm 0.00 in0.0 mm 0.00 in0.0 mm
08:00 PM 30.0°F-1.1°C 9.7°F-12.4°C 42% 2.0 mph NE3.2 kmh NE 8.0 mph12.9 kmh 30.49 in1032.5 mb 0.00 in0.0 mm 0.00 in0.0 mm 0.00 in0.0 mm
08:01 PM 30.0°F-1.1°C 9.7°F-12.4°C 42% 2.0 mph NNE3.2 kmh NNE 8.0 mph12.9 kmh 30.49 in1032.5 mb 0.00 in0.0 mm 0.00 in0.0 mm 0.00 in0.0 mm
08:02 PM 30.0°F-1.1°C 9.7°F-12.4°C 42% 2.0 mph E3.2 kmh E 8.0 mph12.9 kmh 30.49 in1032.5 mb 0.00 in0.0 mm 0.00 in0.0 mm 0.00 in0.0 mm
08:03 PM 30.0°F-1.1°C 9.7°F-12.4°C 42% 2.0 mph ENE3.2 kmh ENE 8.0 mph12.9 kmh 30.49 in1032.5 mb 0.00 in0.0 mm 0.00 in0.0 mm 0.00 in0.0 mm
08:04 PM 30.0°F-1.1°C 9.7°F-12.4°C 42% 2.0 mph NE3.2 kmh NE 8.0 mph12.9 kmh 30.49 in1032.5 mb 0.00 in0.0 mm 0.00 in0.0 mm 0.00 in0.0 mm
08:05 PM 30.0°F-1.1°C 9.7°F-12.4°C 42% 2.0 mph NNE3.2 kmh NNE 8.0 mph12.9 kmh 30.49 in1032.5 mb 0.00 in0.0 mm 0.00 in0.0 mm 0.00 in0.0 mm
08:06 PM 30.0°F-1.1°C 9.7°F-12.4°C 42% 2.0 mph ENE3.2 kmh ENE 4.9 mph7.9 kmh 30.49 in1032.5 mb 0.00 in0.0 mm 0.00 in0.0 mm 0.00 in0.0 mm
08:07 PM 29.8°F-1.2°C 9.5°F-12.5°C 42% 2.0 mph ENE3.2 kmh ENE 4.9 mph7.9 kmh 30.49 in1032.5 mb 0.00 in0.0 mm 0.00 in0.0 mm 0.00 in0.0 mm
08:08 PM 30.0°F-1.1°C 9.7°F-12.4°C 42% 2.0 mph 3.2 kmh 6.9 mph11.1 kmh 30.49 in1032.5 mb 0.00 in0.0 mm 0.00 in0.0 mm 0.00 in0.0 mm
08:09 PM 30.0°F-1.1°C 9.7°F-12.4°C 42% 2.0 mph NE3.2 kmh NE 6.9 mph11.1 kmh 30.49 in1032.5 mb 0.00 in0.0 mm 0.00 in0.0 mm 0.00 in0.0 mm
08:10 PM 30.0°F-1.1°C 9.7°F-12.4°C 42% 2.0 mph NE3.2 kmh NE 6.9 mph11.1 kmh 30.49 in1032.5 mb 0.00 in0.0 mm 0.00 in0.0 mm 0.00 in0.0 mm
08:11 PM 30.0°F-1.1°C 9.7°F-12.4°C 42% 2.0 mph NE3.2 kmh NE 6.9 mph11.1 kmh 30.49 in1032.5 mb 0.00 in0.0 mm 0.00 in0.0 mm 0.00 in0.0 mm
08:12 PM 30.0°F-1.1°C 9.7°F-12.4°C 42% 2.0 mph NE3.2 kmh NE 6.9 mph11.1 kmh 30.49 in1032.5 mb 0.00 in0.0 mm 0.00 in0.0 mm 0.00 in0.0 mm
08:13 PM 30.0°F-1.1°C 9.7°F-12.4°C 42% 2.0 mph N3.2 kmh N 6.9 mph11.1 kmh 30.49 in1032.5 mb 0.00 in0.0 mm 0.00 in0.0 mm 0.00 in0.0 mm
08:14 PM 30.0°F-1.1°C 9.7°F-12.4°C 42% 2.0 mph NNE3.2 kmh NNE 6.9 mph11.1 kmh 30.49 in1032.5 mb 0.00 in0.0 mm 0.00 in0.0 mm 0.00 in0.0 mm
08:15 PM 30.0°F-1.1°C 9.7°F-12.4°C 42% 2.9 mph NE4.7 kmh NE 6.9 mph11.1 kmh 30.49 in1032.5 mb 0.00 in0.0 mm 0.00 in0.0 mm 0.00 in0.0 mm
08:16 PM 30.0°F-1.1°C 9.7°F-12.4°C 42% 2.9 mph NE4.7 kmh NE 6.9 mph11.1 kmh 30.49 in1032.5 mb 0.00 in0.0 mm 0.00 in0.0 mm 0.00 in0.0 mm
08:17 PM 30.0°F-1.1°C 9.7°F-12.4°C 42% 2.9 mph ENE4.7 kmh ENE 6.9 mph11.1 kmh 30.49 in1032.5 mb 0.00 in0.0 mm 0.00 in0.0 mm 0.00 in0.0 mm
08:18 PM 30.0°F-1.1°C 9.7°F-12.4°C 42% 2.9 mph ENE4.7 kmh ENE 6.0 mph9.7 kmh 30.49 in1032.5 mb 0.00 in0.0 mm 0.00 in0.0 mm 0.00 in0.0 mm
08:19 PM 30.0°F-1.1°C 9.7°F-12.4°C 42% 2.0 mph ENE3.2 kmh ENE 4.9 mph7.9 kmh 30.49 in1032.5 mb 0.00 in0.0 mm 0.00 in0.0 mm 0.00 in0.0 mm
08:20 PM 29.8°F-1.2°C 9.5°F-12.5°C 42% 2.0 mph ENE3.2 kmh ENE 4.9 mph7.9 kmh 30.49 in1032.5 mb 0.00 in0.0 mm 0.00 in0.0 mm 0.00 in0.0 mm
08:21 PM 29.8°F-1.2°C 10.1°F-12.2°C 43% 2.0 mph ENE3.2 kmh ENE 4.9 mph7.9 kmh 30.49 in1032.5 mb 0.00 in0.0 mm 0.00 in0.0 mm 0.00 in0.0 mm
08:22 PM 29.8°F-1.2°C 10.1°F-12.2°C 43% 2.0 mph ENE3.2 kmh ENE 4.9 mph7.9 kmh 30.49 in1032.5 mb 0.00 in0.0 mm 0.00 in0.0 mm 0.00 in0.0 mm
08:23 PM 29.8°F-1.2°C 10.1°F-12.2°C 43% 2.0 mph NE3.2 kmh NE 4.9 mph7.9 kmh 30.49 in1032.5 mb 0.00 in0.0 mm 0.00 in0.0 mm 0.00 in0.0 mm
08:24 PM 29.8°F-1.2°C 9.5°F-12.5°C 42% 2.0 mph NE3.2 kmh NE 4.9 mph7.9 kmh 30.49 in1032.5 mb 0.00 in0.0 mm 0.00 in0.0 mm 0.00 in0.0 mm
08:25 PM 29.8°F-1.2°C 9.5°F-12.5°C 42% 2.0 mph NE3.2 kmh NE 4.9 mph7.9 kmh 30.49 in1032.5 mb 0.00 in0.0 mm 0.00 in0.0 mm 0.00 in0.0 mm
08:26 PM 29.8°F-1.2°C 9.5°F-12.5°C 42% 2.0 mph NE3.2 kmh NE 4.9 mph7.9 kmh 30.49 in1032.5 mb 0.00 in0.0 mm 0.00 in0.0 mm 0.00 in0.0 mm
08:27 PM 29.7°F-1.3°C 9.5°F-12.5°C 42% 2.0 mph NE3.2 kmh NE 4.9 mph7.9 kmh 30.49 in1032.5 mb 0.00 in0.0 mm 0.00 in0.0 mm 0.00 in0.0 mm
08:28 PM 29.7°F-1.3°C 10.0°F-12.2°C 43% 0.9 mph NE1.4 kmh NE 5.0 mph8.0 kmh 30.49 in1032.5 mb 0.00 in0.0 mm 0.00 in0.0 mm 0.00 in0.0 mm
08:29 PM 29.7°F-1.3°C 10.0°F-12.2°C 43% 0.9 mph NE1.4 kmh NE 5.0 mph8.0 kmh 30.49 in1032.5 mb 0.00 in0.0 mm 0.00 in0.0 mm 0.00 in0.0 mm
08:30 PM 29.7°F-1.3°C 10.0°F-12.2°C 43% 0.9 mph NE1.4 kmh NE 5.0 mph8.0 kmh 30.49 in1032.5 mb 0.00 in0.0 mm 0.00 in0.0 mm 0.00 in0.0 mm
08:31 PM 29.7°F-1.3°C 10.0°F-12.2°C 43% 2.0 mph NE3.2 kmh NE 5.0 mph8.0 kmh 30.49 in1032.5 mb 0.00 in0.0 mm 0.00 in0.0 mm 0.00 in0.0 mm
08:32 PM 29.7°F-1.3°C 10.0°F-12.2°C 43% 2.0 mph NE3.2 kmh NE 5.0 mph8.0 kmh 30.49 in1032.5 mb 0.00 in0.0 mm 0.00 in0.0 mm 0.00 in0.0 mm
08:33 PM 29.5°F-1.4°C 9.8°F-12.3°C 43% 2.0 mph NE3.2 kmh NE 5.0 mph8.0 kmh 30.49 in1032.5 mb 0.00 in0.0 mm 0.00 in0.0 mm 0.00 in0.0 mm
08:34 PM 29.7°F-1.3°C 10.0°F-12.2°C 43% 2.0 mph NE3.2 kmh NE 5.0 mph8.0 kmh 30.49 in1032.5 mb 0.00 in0.0 mm 0.00 in0.0 mm 0.00 in0.0 mm
08:35 PM 29.5°F-1.4°C 9.8°F-12.3°C 43% 2.0 mph NE3.2 kmh NE 5.0 mph8.0 kmh 30.49 in1032.5 mb 0.00 in0.0 mm 0.00 in0.0 mm 0.00 in0.0 mm
08:36 PM 29.5°F-1.4°C 9.8°F-12.3°C 43% 2.0 mph NE3.2 kmh NE 5.0 mph8.0 kmh 30.49 in1032.5 mb 0.00 in0.0 mm 0.00 in0.0 mm 0.00 in0.0 mm
08:37 PM 29.5°F-1.4°C 9.8°F-12.3°C 43% 2.0 mph NE3.2 kmh NE 5.0 mph8.0 kmh 30.49 in1032.5 mb 0.00 in0.0 mm 0.00 in0.0 mm 0.00 in0.0 mm
08:38 PM 29.5°F-1.4°C 9.8°F-12.3°C 43% 2.0 mph NE3.2 kmh NE 4.9 mph7.9 kmh 30.49 in1032.5 mb 0.00 in0.0 mm 0.00 in0.0 mm 0.00 in0.0 mm
08:39 PM 29.5°F-1.4°C 9.8°F-12.3°C 43% 2.0 mph NE3.2 kmh NE 4.9 mph7.9 kmh 30.49 in1032.5 mb 0.00 in0.0 mm 0.00 in0.0 mm 0.00 in0.0 mm
08:40 PM 29.5°F-1.4°C 9.8°F-12.3°C 43% 2.0 mph NE3.2 kmh NE 4.9 mph7.9 kmh 30.49 in1032.5 mb 0.00 in0.0 mm 0.00 in0.0 mm 0.00 in0.0 mm
08:41 PM 29.5°F-1.4°C 9.8°F-12.3°C 43% 2.0 mph NE3.2 kmh NE 4.9 mph7.9 kmh 30.49 in1032.5 mb 0.00 in0.0 mm 0.00 in0.0 mm 0.00 in0.0 mm
08:42 PM 29.5°F-1.4°C 9.8°F-12.3°C 43% 2.0 mph ENE3.2 kmh ENE 5.0 mph8.0 kmh 30.49 in1032.5 mb 0.00 in0.0 mm 0.00 in0.0 mm 0.00 in0.0 mm
08:43 PM 29.5°F-1.4°C 9.8°F-12.3°C 43% 2.0 mph ENE3.2 kmh ENE 5.0 mph8.0 kmh 30.49 in1032.5 mb 0.00 in0.0 mm 0.00 in0.0 mm 0.00 in0.0 mm
08:44 PM 29.3°F-1.5°C 9.6°F-12.4°C 43% 2.0 mph NE3.2 kmh NE 5.0 mph8.0 kmh 30.49 in1032.5 mb 0.00 in0.0 mm 0.00 in0.0 mm 0.00 in0.0 mm
08:45 PM 29.1°F-1.6°C 9.4°F-12.6°C 43% 2.0 mph ENE3.2 kmh ENE 5.0 mph8.0 kmh 30.48 in1032.2 mb 0.00 in0.0 mm 0.00 in0.0 mm 0.00 in0.0 mm
08:46 PM 29.3°F-1.5°C 9.6°F-12.4°C 43% 2.0 mph ENE3.2 kmh ENE 5.0 mph8.0 kmh 30.48 in1032.2 mb 0.00 in0.0 mm 0.00 in0.0 mm 0.00 in0.0 mm
08:47 PM 29.1°F-1.6°C 9.9°F-12.3°C 44% 2.0 mph ENE3.2 kmh ENE 5.0 mph8.0 kmh 30.48 in1032.2 mb 0.00 in0.0 mm 0.00 in0.0 mm 0.00 in0.0 mm
08:48 PM 29.1°F-1.6°C 9.4°F-12.6°C 43% 2.0 mph NE3.2 kmh NE 5.0 mph8.0 kmh 30.48 in1032.2 mb 0.00 in0.0 mm 0.00 in0.0 mm 0.00 in0.0 mm
08:49 PM 29.1°F-1.6°C 9.4°F-12.6°C 43% 2.0 mph NNE3.2 kmh NNE 5.0 mph8.0 kmh 30.48 in1032.2 mb 0.00 in0.0 mm 0.00 in0.0 mm 0.00 in0.0 mm
08:50 PM 29.1°F-1.6°C 9.4°F-12.6°C 43% 2.0 mph NE3.2 kmh NE 5.0 mph8.0 kmh 30.48 in1032.2 mb 0.00 in0.0 mm 0.00 in0.0 mm 0.00 in0.0 mm
08:51 PM 29.1°F-1.6°C 9.4°F-12.6°C 43% 2.0 mph NE3.2 kmh NE 5.0 mph8.0 kmh 30.48 in1032.2 mb 0.00 in0.0 mm 0.00 in0.0 mm 0.00 in0.0 mm
08:52 PM 29.1°F-1.6°C 9.4°F-12.6°C 43% 2.0 mph NE3.2 kmh NE 4.9 mph7.9 kmh 30.48 in1032.2 mb 0.00 in0.0 mm 0.00 in0.0 mm 0.00 in0.0 mm
08:53 PM 29.1°F-1.6°C 9.4°F-12.6°C 43% 2.0 mph NNE3.2 kmh NNE 4.9 mph7.9 kmh 30.48 in1032.2 mb 0.00 in0.0 mm 0.00 in0.0 mm 0.00 in0.0 mm
08:54 PM 29.1°F-1.6°C 9.4°F-12.6°C 43% 2.0 mph NE3.2 kmh NE 4.9 mph7.9 kmh 30.48 in1032.2 mb 0.00 in0.0 mm 0.00 in0.0 mm 0.00 in0.0 mm
08:55 PM 29.1°F-1.6°C 9.4°F-12.6°C 43% 2.0 mph NNE3.2 kmh NNE 4.9 mph7.9 kmh 30.48 in1032.2 mb 0.00 in0.0 mm 0.00 in0.0 mm 0.00 in0.0 mm
08:56 PM 29.1°F-1.6°C 9.4°F-12.6°C 43% 2.0 mph NNE3.2 kmh NNE 4.9 mph7.9 kmh 30.48 in1032.2 mb 0.00 in0.0 mm 0.00 in0.0 mm 0.00 in0.0 mm
08:57 PM 29.1°F-1.6°C 9.4°F-12.6°C 43% 2.9 mph ENE4.7 kmh ENE 4.9 mph7.9 kmh 30.48 in1032.2 mb 0.00 in0.0 mm 0.00 in0.0 mm 0.00 in0.0 mm
08:58 PM 29.1°F-1.6°C 9.4°F-12.6°C 43% 2.9 mph NE4.7 kmh NE 6.0 mph9.7 kmh 30.48 in1032.2 mb 0.00 in0.0 mm 0.00 in0.0 mm 0.00 in0.0 mm
08:59 PM 29.1°F-1.6°C 9.4°F-12.6°C 43% 2.9 mph ENE4.7 kmh ENE 6.0 mph9.7 kmh 30.48 in1032.2 mb 0.00 in0.0 mm 0.00 in0.0 mm 0.00 in0.0 mm
09:00 PM 29.1°F-1.6°C 9.4°F-12.6°C 43% 2.9 mph ENE4.7 kmh ENE 6.0 mph9.7 kmh 30.48 in1032.2 mb 0.00 in0.0 mm 0.00 in0.0 mm 0.00 in0.0 mm
09:01 PM 29.3°F-1.5°C 9.6°F-12.4°C 43% 2.9 mph NE4.7 kmh NE 6.0 mph9.7 kmh 30.48 in1032.2 mb 0.00 in0.0 mm 0.00 in0.0 mm 0.00 in0.0 mm
09:02 PM 29.3°F-1.5°C 9.6°F-12.4°C 43% 2.9 mph ENE4.7 kmh ENE 6.0 mph9.7 kmh 30.48 in1032.2 mb 0.00 in0.0 mm 0.00 in0.0 mm 0.00 in0.0 mm
09:03 PM 29.1°F-1.6°C 9.4°F-12.6°C 43% 2.9 mph E4.7 kmh E 6.0 mph9.7 kmh 30.48 in1032.2 mb 0.00 in0.0 mm 0.00 in0.0 mm 0.00 in0.0 mm
09:04 PM 29.1°F-1.6°C 9.4°F-12.6°C 43% 2.9 mph ENE4.7 kmh ENE 6.0 mph9.7 kmh 30.48 in1032.2 mb 0.00 in0.0 mm 0.00 in0.0 mm 0.00 in0.0 mm
09:05 PM 29.1°F-1.6°C 9.4°F-12.6°C 43% 2.9 mph ENE4.7 kmh ENE 6.0 mph9.7 kmh 30.48 in1032.2 mb 0.00 in0.0 mm 0.00 in0.0 mm 0.00 in0.0 mm
09:06 PM 29.1°F-1.6°C 9.4°F-12.6°C 43% 2.9 mph NE4.7 kmh NE 6.0 mph9.7 kmh 30.48 in1032.2 mb 0.00 in0.0 mm 0.00 in0.0 mm 0.00 in0.0 mm
09:07 PM 29.1°F-1.6°C 9.4°F-12.6°C 43% 2.9 mph E4.7 kmh E 6.0 mph9.7 kmh 30.48 in1032.2 mb 0.00 in0.0 mm 0.00 in0.0 mm 0.00 in0.0 mm
09:08 PM 29.1°F-1.6°C 9.4°F-12.6°C 43% 2.0 mph ENE3.2 kmh ENE 6.0 mph9.7 kmh 30.48 in1032.2 mb 0.00 in0.0 mm 0.00 in0.0 mm 0.00 in0.0 mm
09:09 PM 29.1°F-1.6°C 9.4°F-12.6°C 43% 2.0 mph NE3.2 kmh NE 6.0 mph9.7 kmh 30.48 in1032.2 mb 0.00 in0.0 mm 0.00 in0.0 mm 0.00 in0.0 mm
09:10 PM 29.1°F-1.6°C 9.4°F-12.6°C 43% 2.0 mph ENE3.2 kmh ENE 9.0 mph14.5 kmh 30.48 in1032.2 mb 0.00 in0.0 mm 0.00 in0.0 mm 0.00 in0.0 mm
09:11 PM 29.1°F-1.6°C 9.4°F-12.6°C 43% 2.0 mph ENE3.2 kmh ENE 9.0 mph14.5 kmh 30.48 in1032.2 mb 0.00 in0.0 mm 0.00 in0.0 mm 0.00 in0.0 mm
09:12 PM 29.1°F-1.6°C 9.4°F-12.6°C 43% 2.9 mph NE4.7 kmh NE 9.0 mph14.5 kmh 30.48 in1032.2 mb 0.00 in0.0 mm 0.00 in0.0 mm 0.00 in0.0 mm
09:13 PM 29.1°F-1.6°C 9.4°F-12.6°C 43% 2.9 mph E4.7 kmh E 9.0 mph14.5 kmh 30.47 in1031.8 mb 0.00 in0.0 mm 0.00 in0.0 mm 0.00 in0.0 mm
09:14 PM 29.1°F-1.6°C 9.4°F-12.6°C 43% 2.9 mph E4.7 kmh E 9.0 mph14.5 kmh 30.47 in1031.8 mb 0.00 in0.0 mm 0.00 in0.0 mm 0.00 in0.0 mm
09:15 PM 29.1°F-1.6°C 9.4°F-12.6°C 43% 2.9 mph NE4.7 kmh NE 9.0 mph14.5 kmh 30.47 in1031.8 mb 0.00 in0.0 mm 0.00 in0.0 mm 0.00 in0.0 mm
09:16 PM 29.1°F-1.6°C 9.4°F-12.6°C 43% 2.9 mph NE4.7 kmh NE 9.0 mph14.5 kmh 30.47 in1031.8 mb 0.00 in0.0 mm 0.00 in0.0 mm 0.00 in0.0 mm
09:17 PM 29.1°F-1.6°C 9.4°F-12.6°C 43% 2.9 mph NE4.7 kmh NE 9.0 mph14.5 kmh 30.48 in1032.2 mb 0.00 in0.0 mm 0.00 in0.0 mm 0.00 in0.0 mm
09:18 PM 29.1°F-1.6°C 9.4°F-12.6°C 43% 2.9 mph NE4.7 kmh NE 9.0 mph14.5 kmh 30.47 in1031.8 mb 0.00 in0.0 mm 0.00 in0.0 mm 0.00 in0.0 mm
09:19 PM 29.1°F-1.6°C 9.4°F-12.6°C 43% 2.9 mph ENE4.7 kmh ENE 9.0 mph14.5 kmh 30.47 in1031.8 mb 0.00 in0.0 mm 0.00 in0.0 mm 0.00 in0.0 mm
09:20 PM 29.1°F-1.6°C 9.9°F-12.3°C 44% 2.9 mph NE4.7 kmh NE 9.0 mph14.5 kmh 30.47 in1031.8 mb 0.00 in0.0 mm 0.00 in0.0 mm 0.00 in0.0 mm
09:21 PM 29.1°F-1.6°C 9.4°F-12.6°C 43% 2.9 mph NNE4.7 kmh NNE 9.0 mph14.5 kmh 30.47 in1031.8 mb 0.00 in0.0 mm 0.00 in0.0 mm 0.00 in0.0 mm
09:22 PM 29.1°F-1.6°C 9.4°F-12.6°C 43% 2.9 mph NE4.7 kmh NE 9.0 mph14.5 kmh 30.47 in1031.8 mb 0.00 in0.0 mm 0.00 in0.0 mm 0.00 in0.0 mm
09:23 PM 29.1°F-1.6°C 9.4°F-12.6°C 43% 2.9 mph NE4.7 kmh NE 9.0 mph14.5 kmh 30.47 in1031.8 mb 0.00 in0.0 mm 0.00 in0.0 mm 0.00 in0.0 mm
09:24 PM 29.1°F-1.6°C 9.4°F-12.6°C 43% 2.9 mph NE4.7 kmh NE 9.0 mph14.5 kmh 30.47 in1031.8 mb 0.00 in0.0 mm 0.00 in0.0 mm 0.00 in0.0 mm
09:25 PM 29.1°F-1.6°C 9.4°F-12.6°C 43% 2.9 mph NE4.7 kmh NE 9.0 mph14.5 kmh 30.47 in1031.8 mb 0.00 in0.0 mm 0.00 in0.0 mm 0.00 in0.0 mm
09:26 PM 28.9°F-1.7°C 9.8°F-12.3°C 44% 2.9 mph NE4.7 kmh NE 9.0 mph14.5 kmh 30.47 in1031.8 mb 0.00 in0.0 mm 0.00 in0.0 mm 0.00 in0.0 mm
09:27 PM 28.9°F-1.7°C 9.8°F-12.3°C 44% 2.0 mph NNE3.2 kmh NNE 9.0 mph14.5 kmh 30.47 in1031.8 mb 0.00 in0.0 mm 0.00 in0.0 mm 0.00 in0.0 mm
09:28 PM 28.9°F-1.7°C 9.8°F-12.3°C 44% 2.0 mph NNE3.2 kmh NNE 9.0 mph14.5 kmh 30.47 in1031.8 mb 0.00 in0.0 mm 0.00 in0.0 mm 0.00 in0.0 mm
09:29 PM 28.9°F-1.7°C 9.8°F-12.3°C 44% 2.9 mph NE4.7 kmh NE 9.0 mph14.5 kmh 30.47 in1031.8 mb 0.00 in0.0 mm 0.00 in0.0 mm 0.00 in0.0 mm
09:30 PM 28.9°F-1.7°C 9.8°F-12.3°C 44% 2.9 mph ENE4.7 kmh ENE 4.9 mph7.9 kmh 30.47 in1031.8 mb 0.00 in0.0 mm 0.00 in0.0 mm 0.00 in0.0 mm
09:31 PM 28.9°F-1.7°C 9.8°F-12.3°C 44% 2.9 mph NE4.7 kmh NE 7.0 mph11.3 kmh 30.47 in1031.8 mb 0.00 in0.0 mm 0.00 in0.0 mm 0.00 in0.0 mm
09:32 PM 28.9°F-1.7°C 9.8°F-12.3°C 44% 2.9 mph NE4.7 kmh NE 7.0 mph11.3 kmh 30.47 in1031.8 mb 0.00 in0.0 mm 0.00 in0.0 mm 0.00 in0.0 mm
09:33 PM 28.9°F-1.7°C 9.8°F-12.3°C 44% 2.9 mph NE4.7 kmh NE 7.0 mph11.3 kmh 30.47 in1031.8 mb 0.00 in0.0 mm 0.00 in0.0 mm 0.00 in0.0 mm
09:34 PM 28.9°F-1.7°C 9.8°F-12.3°C 44% 2.9 mph E4.7 kmh E 7.0 mph11.3 kmh 30.47 in1031.8 mb 0.00 in0.0 mm 0.00 in0.0 mm 0.00 in0.0 mm
09:35 PM 28.9°F-1.7°C 9.8°F-12.3°C 44% 2.9 mph E4.7 kmh E 7.0 mph11.3 kmh 30.47 in1031.8 mb 0.00 in0.0 mm 0.00 in0.0 mm 0.00 in0.0 mm
09:36 PM 28.9°F-1.7°C 9.8°F-12.3°C 44% 2.9 mph NE4.7 kmh NE 7.0 mph11.3 kmh 30.47 in1031.8 mb 0.00 in0.0 mm 0.00 in0.0 mm 0.00 in0.0 mm
09:37 PM 28.8°F-1.8°C 9.7°F-12.4°C 44% 2.9 mph ENE4.7 kmh ENE 7.0 mph11.3 kmh 30.47 in1031.8 mb 0.00 in0.0 mm 0.00 in0.0 mm 0.00 in0.0 mm
09:38 PM 28.8°F-1.8°C 9.7°F-12.4°C 44% 2.9 mph ENE4.7 kmh ENE 7.0 mph11.3 kmh 30.47 in1031.8 mb 0.00 in0.0 mm 0.00 in0.0 mm 0.00 in0.0 mm
09:39 PM 28.8°F-1.8°C 10.2°F-12.1°C 45% 2.9 mph E4.7 kmh E 7.0 mph11.3 kmh 30.47 in1031.8 mb 0.00 in0.0 mm 0.00 in0.0 mm 0.00 in0.0 mm
09:40 PM 28.8°F-1.8°C 9.7°F-12.4°C 44% 2.9 mph ENE4.7 kmh ENE 7.0 mph11.3 kmh 30.47 in1031.8 mb 0.00 in0.0 mm 0.00 in0.0 mm 0.00 in0.0 mm
09:41 PM 28.8°F-1.8°C 9.7°F-12.4°C 44% 2.9 mph NE4.7 kmh NE 6.0 mph9.7 kmh 30.47 in1031.8 mb 0.00 in0.0 mm 0.00 in0.0 mm 0.00 in0.0 mm
09:42 PM 28.8°F-1.8°C 10.2°F-12.1°C 45% 2.9 mph NE4.7 kmh NE 6.0 mph9.7 kmh 30.47 in1031.8 mb 0.00 in0.0 mm 0.00 in0.0 mm 0.00 in0.0 mm
09:43 PM 28.8°F-1.8°C 10.2°F-12.1°C 45% 2.9 mph NE4.7 kmh NE 6.0 mph9.7 kmh 30.47 in1031.8 mb 0.00 in0.0 mm 0.00 in0.0 mm 0.00 in0.0 mm
09:44 PM 28.8°F-1.8°C 10.2°F-12.1°C 45% 2.9 mph E4.7 kmh E 6.0 mph9.7 kmh 30.47 in1031.8 mb 0.00 in0.0 mm 0.00 in0.0 mm 0.00 in0.0 mm
09:45 PM 28.8°F-1.8°C 10.2°F-12.1°C 45% 2.9 mph NE4.7 kmh NE 6.0 mph9.7 kmh 30.47 in1031.8 mb 0.00 in0.0 mm 0.00 in0.0 mm 0.00 in0.0 mm
09:46 PM 28.8°F-1.8°C 10.2°F-12.1°C 45% 2.9 mph NE4.7 kmh NE 6.0 mph9.7 kmh 30.47 in1031.8 mb 0.00 in0.0 mm 0.00 in0.0 mm 0.00 in0.0 mm
09:47 PM 28.8°F-1.8°C 10.2°F-12.1°C 45% 2.9 mph NE4.7 kmh NE 6.0 mph9.7 kmh 30.47 in1031.8 mb 0.00 in0.0 mm 0.00 in0.0 mm 0.00 in0.0 mm
09:48 PM 28.8°F-1.8°C 10.2°F-12.1°C 45% 2.0 mph NE3.2 kmh NE 6.0 mph9.7 kmh 30.47 in1031.8 mb 0.00 in0.0 mm 0.00 in0.0 mm 0.00 in0.0 mm
09:50 PM 28.6°F-1.9°C 10.0°F-12.2°C 45% 2.0 mph NE3.2 kmh NE 6.0 mph9.7 kmh 30.47 in1031.8 mb 0.00 in0.0 mm 0.00 in0.0 mm 0.00 in0.0 mm
09:51 PM 28.6°F-1.9°C 10.0°F-12.2°C 45% 2.0 mph NE3.2 kmh NE 4.9 mph7.9 kmh 30.47 in1031.8 mb 0.00 in0.0 mm 0.00 in0.0 mm 0.00 in0.0 mm
09:52 PM 28.6°F-1.9°C 10.0°F-12.2°C 45% 2.0 mph NE3.2 kmh NE 4.9 mph7.9 kmh 30.47 in1031.8 mb 0.00 in0.0 mm 0.00 in0.0 mm 0.00 in0.0 mm
09:54 PM 28.6°F-1.9°C 10.0°F-12.2°C 45% 2.0 mph ENE3.2 kmh ENE 4.9 mph7.9 kmh 30.47 in1031.8 mb 0.00 in0.0 mm 0.00 in0.0 mm 0.00 in0.0 mm
09:55 PM 28.6°F-1.9°C 10.0°F-12.2°C 45% 2.0 mph NE3.2 kmh NE 4.9 mph7.9 kmh 30.46 in1031.5 mb 0.00 in0.0 mm 0.00 in0.0 mm 0.00 in0.0 mm
09:56 PM 28.6°F-1.9°C 10.0°F-12.2°C 45% 2.0 mph NE3.2 kmh NE 4.9 mph7.9 kmh 30.46 in1031.5 mb 0.00 in0.0 mm 0.00 in0.0 mm 0.00 in0.0 mm
09:57 PM 28.4°F-2.0°C 9.8°F-12.3°C 45% 2.0 mph NE3.2 kmh NE 4.9 mph7.9 kmh 30.47 in1031.8 mb 0.00 in0.0 mm 0.00 in0.0 mm 0.00 in0.0 mm
09:58 PM 28.2°F-2.1°C 9.6°F-12.4°C 45% 2.0 mph NE3.2 kmh NE 4.9 mph7.9 kmh 30.46 in1031.5 mb 0.00 in0.0 mm 0.00 in0.0 mm 0.00 in0.0 mm
09:59 PM 28.2°F-2.1°C 10.1°F-12.2°C 46% 2.0 mph E3.2 kmh E 4.9 mph7.9 kmh 30.47 in1031.8 mb 0.00 in0.0 mm 0.00 in0.0 mm 0.00 in0.0 mm
10:00 PM 28.2°F-2.1°C 10.1°F-12.2°C 46% 2.0 mph E3.2 kmh E 4.9 mph7.9 kmh 30.46 in1031.5 mb 0.00 in0.0 mm 0.00 in0.0 mm 0.00 in0.0 mm
10:01 PM 28.2°F-2.1°C 10.1°F-12.2°C 46% 2.0 mph E3.2 kmh E 4.9 mph7.9 kmh 30.46 in1031.5 mb 0.00 in0.0 mm 0.00 in0.0 mm 0.00 in0.0 mm
10:02 PM 28.2°F-2.1°C 10.1°F-12.2°C 46% 2.0 mph E3.2 kmh E 4.9 mph7.9 kmh 30.46 in1031.5 mb 0.00 in0.0 mm 0.00 in0.0 mm 0.00 in0.0 mm
10:03 PM 28.2°F-2.1°C 10.1°F-12.2°C 46% 2.0 mph NE3.2 kmh NE 4.9 mph7.9 kmh 30.46 in1031.5 mb 0.00 in0.0 mm 0.00 in0.0 mm 0.00 in0.0 mm
10:04 PM 28.0°F-2.2°C 9.9°F-12.3°C 46% 2.0 mph NNE3.2 kmh NNE 4.9 mph7.9 kmh 30.46 in1031.5 mb 0.00 in0.0 mm 0.00 in0.0 mm 0.00 in0.0 mm
10:05 PM 28.0°F-2.2°C 9.9°F-12.3°C 46% 2.0 mph NE3.2 kmh NE 8.1 mph13.0 kmh 30.46 in